<?xml version="1.0" encoding="UTF-8" standalone="no" ?>
<gpx xmlns="http://www.topografix.com/GPX/1/1" xmlns:xsi="http://www.w3.org/2001/XMLSchema-instance" xsi:schemaLocation="http://www.topografix.com/GPX/1/1 http://www.topografix.com/GPX/1/1/gpx.xsd" version="1.1" creator="VisuGPX - https://www.visugpx.com">
  <metadata>
    <name>Le tour de l'Ile de France: étape 8/30 De Dourdan à Breuillet(78)</name>
    <desc><![CDATA[Randonnée de 20 km en ligne à partir de la gare de Dourdan. Retour par la gare de Breuillet.]]></desc>
  </metadata>
  <trk>
    <name><![CDATA[8 De Dourdan à Breuillet_R]]></name>
    <trkseg>
      <trkpt lat="48.53381" lon="2.00898">
        <ele>123.21</ele>
        <time>2017-09-17T09:03:33Z</time>
      </trkpt>
      <trkpt lat="48.5338" lon="2.00898">
        <ele>123.21</ele>
        <time>2017-09-17T09:03:34Z</time>
      </trkpt>
      <trkpt lat="48.53379" lon="2.00917">
        <ele>123.57</ele>
        <time>2017-09-17T09:03:51Z</time>
      </trkpt>
      <trkpt lat="48.53377" lon="2.00931">
        <ele>123.53</ele>
        <time>2017-09-17T09:04:03Z</time>
      </trkpt>
      <trkpt lat="48.53375" lon="2.00933">
        <ele>120.82</ele>
        <time>2017-09-17T09:04:20Z</time>
      </trkpt>
      <trkpt lat="48.53376" lon="2.00932">
        <ele>118.93</ele>
        <time>2017-09-17T09:04:25Z</time>
      </trkpt>
      <trkpt lat="48.53356" lon="2.00934">
        <ele>122.22</ele>
        <time>2017-09-17T09:04:53Z</time>
      </trkpt>
      <trkpt lat="48.53358" lon="2.00945">
        <ele>122.85</ele>
        <time>2017-09-17T09:05:07Z</time>
      </trkpt>
      <trkpt lat="48.53353" lon="2.00965">
        <ele>122.87</ele>
        <time>2017-09-17T09:05:27Z</time>
      </trkpt>
      <trkpt lat="48.53354" lon="2.00967">
        <ele>122.69</ele>
        <time>2017-09-17T09:05:32Z</time>
      </trkpt>
      <trkpt lat="48.53343" lon="2.00958">
        <ele>122.07</ele>
        <time>2017-09-17T09:05:44Z</time>
      </trkpt>
      <trkpt lat="48.53345" lon="2.00962">
        <ele>122.32</ele>
        <time>2017-09-17T09:06:01Z</time>
      </trkpt>
      <trkpt lat="48.53348" lon="2.00966">
        <ele>121.8</ele>
        <time>2017-09-17T09:06:23Z</time>
      </trkpt>
      <trkpt lat="48.53348" lon="2.00966">
        <ele>121.98</ele>
        <time>2017-09-17T09:06:43Z</time>
      </trkpt>
      <trkpt lat="48.53348" lon="2.00967">
        <ele>121.46</ele>
        <time>2017-09-17T09:07:05Z</time>
      </trkpt>
      <trkpt lat="48.53349" lon="2.00968">
        <ele>121.43</ele>
        <time>2017-09-17T09:07:33Z</time>
      </trkpt>
      <trkpt lat="48.53348" lon="2.0097">
        <ele>120.79</ele>
        <time>2017-09-17T09:07:54Z</time>
      </trkpt>
      <trkpt lat="48.53344" lon="2.00967">
        <ele>120.8</ele>
        <time>2017-09-17T09:08:15Z</time>
      </trkpt>
      <trkpt lat="48.53335" lon="2.00962">
        <ele>120.68</ele>
        <time>2017-09-17T09:08:21Z</time>
      </trkpt>
      <trkpt lat="48.53318" lon="2.00954">
        <ele>119.72</ele>
        <time>2017-09-17T09:08:35Z</time>
      </trkpt>
      <trkpt lat="48.53305" lon="2.00952">
        <ele>119.36</ele>
        <time>2017-09-17T09:08:49Z</time>
      </trkpt>
      <trkpt lat="48.53291" lon="2.00946">
        <ele>119.33</ele>
        <time>2017-09-17T09:09:02Z</time>
      </trkpt>
      <trkpt lat="48.53272" lon="2.00937">
        <ele>119.12</ele>
        <time>2017-09-17T09:09:18Z</time>
      </trkpt>
      <trkpt lat="48.53259" lon="2.00936">
        <ele>118.36</ele>
        <time>2017-09-17T09:09:30Z</time>
      </trkpt>
      <trkpt lat="48.53238" lon="2.00927">
        <ele>118.13</ele>
        <time>2017-09-17T09:09:47Z</time>
      </trkpt>
      <trkpt lat="48.53231" lon="2.00938">
        <ele>118.12</ele>
        <time>2017-09-17T09:09:58Z</time>
      </trkpt>
      <trkpt lat="48.53223" lon="2.00944">
        <ele>117.79</ele>
        <time>2017-09-17T09:10:07Z</time>
      </trkpt>
      <trkpt lat="48.53207" lon="2.00943">
        <ele>117.45</ele>
        <time>2017-09-17T09:10:21Z</time>
      </trkpt>
      <trkpt lat="48.53202" lon="2.00951">
        <ele>118.17</ele>
        <time>2017-09-17T09:10:28Z</time>
      </trkpt>
      <trkpt lat="48.53198" lon="2.00954">
        <ele>117.9</ele>
        <time>2017-09-17T09:10:32Z</time>
      </trkpt>
      <trkpt lat="48.53193" lon="2.00959">
        <ele>117.89</ele>
        <time>2017-09-17T09:10:37Z</time>
      </trkpt>
      <trkpt lat="48.53188" lon="2.00966">
        <ele>117.14</ele>
        <time>2017-09-17T09:10:44Z</time>
      </trkpt>
      <trkpt lat="48.53182" lon="2.00973">
        <ele>116.7</ele>
        <time>2017-09-17T09:10:57Z</time>
      </trkpt>
      <trkpt lat="48.53171" lon="2.00987">
        <ele>116.31</ele>
        <time>2017-09-17T09:11:15Z</time>
      </trkpt>
      <trkpt lat="48.53169" lon="2.0099">
        <ele>116.31</ele>
        <time>2017-09-17T09:11:23Z</time>
      </trkpt>
      <trkpt lat="48.53163" lon="2.00988">
        <ele>115.55</ele>
        <time>2017-09-17T09:11:46Z</time>
      </trkpt>
      <trkpt lat="48.53159" lon="2.00987">
        <ele>115.3</ele>
        <time>2017-09-17T09:11:58Z</time>
      </trkpt>
      <trkpt lat="48.53156" lon="2.00985">
        <ele>115.78</ele>
        <time>2017-09-17T09:12:01Z</time>
      </trkpt>
      <trkpt lat="48.53149" lon="2.00994">
        <ele>115.17</ele>
        <time>2017-09-17T09:12:15Z</time>
      </trkpt>
      <trkpt lat="48.53137" lon="2.01005">
        <ele>113.86</ele>
        <time>2017-09-17T09:12:29Z</time>
      </trkpt>
      <trkpt lat="48.53132" lon="2.01007">
        <ele>113.7</ele>
        <time>2017-09-17T09:12:34Z</time>
      </trkpt>
      <trkpt lat="48.53118" lon="2.01016">
        <ele>112.81</ele>
        <time>2017-09-17T09:12:48Z</time>
      </trkpt>
      <trkpt lat="48.53104" lon="2.01027">
        <ele>112.82</ele>
        <time>2017-09-17T09:13:04Z</time>
      </trkpt>
      <trkpt lat="48.53099" lon="2.01031">
        <ele>112.3</ele>
        <time>2017-09-17T09:13:09Z</time>
      </trkpt>
      <trkpt lat="48.53082" lon="2.01044">
        <ele>111.88</ele>
        <time>2017-09-17T09:13:22Z</time>
      </trkpt>
      <trkpt lat="48.5307" lon="2.01049">
        <ele>110.8</ele>
        <time>2017-09-17T09:13:35Z</time>
      </trkpt>
      <trkpt lat="48.53066" lon="2.01051">
        <ele>110.57</ele>
        <time>2017-09-17T09:13:38Z</time>
      </trkpt>
      <trkpt lat="48.53056" lon="2.01057">
        <ele>110.43</ele>
        <time>2017-09-17T09:13:55Z</time>
      </trkpt>
      <trkpt lat="48.53055" lon="2.0106">
        <ele>109.68</ele>
        <time>2017-09-17T09:14:24Z</time>
      </trkpt>
      <trkpt lat="48.53055" lon="2.01061">
        <ele>109.56</ele>
        <time>2017-09-17T09:14:52Z</time>
      </trkpt>
      <trkpt lat="48.53054" lon="2.01062">
        <ele>109.78</ele>
        <time>2017-09-17T09:15:17Z</time>
      </trkpt>
      <trkpt lat="48.53049" lon="2.01055">
        <ele>108.64</ele>
        <time>2017-09-17T09:15:41Z</time>
      </trkpt>
      <trkpt lat="48.53045" lon="2.0105">
        <ele>108.15</ele>
        <time>2017-09-17T09:15:49Z</time>
      </trkpt>
      <trkpt lat="48.53038" lon="2.01042">
        <ele>108.37</ele>
        <time>2017-09-17T09:15:58Z</time>
      </trkpt>
      <trkpt lat="48.5303" lon="2.01033">
        <ele>107.19</ele>
        <time>2017-09-17T09:16:06Z</time>
      </trkpt>
      <trkpt lat="48.53021" lon="2.01034">
        <ele>107.48</ele>
        <time>2017-09-17T09:16:21Z</time>
      </trkpt>
      <trkpt lat="48.53017" lon="2.01027">
        <ele>106.7</ele>
        <time>2017-09-17T09:16:35Z</time>
      </trkpt>
      <trkpt lat="48.53012" lon="2.0102">
        <ele>106.91</ele>
        <time>2017-09-17T09:16:42Z</time>
      </trkpt>
      <trkpt lat="48.53007" lon="2.01014">
        <ele>105.74</ele>
        <time>2017-09-17T09:16:49Z</time>
      </trkpt>
      <trkpt lat="48.52998" lon="2.01001">
        <ele>104.32</ele>
        <time>2017-09-17T09:17:03Z</time>
      </trkpt>
      <trkpt lat="48.52994" lon="2.00997">
        <ele>103.98</ele>
        <time>2017-09-17T09:17:15Z</time>
      </trkpt>
      <trkpt lat="48.5299" lon="2.01006">
        <ele>103.56</ele>
        <time>2017-09-17T09:17:29Z</time>
      </trkpt>
      <trkpt lat="48.52987" lon="2.01015">
        <ele>103.12</ele>
        <time>2017-09-17T09:17:42Z</time>
      </trkpt>
      <trkpt lat="48.52978" lon="2.01033">
        <ele>103.76</ele>
        <time>2017-09-17T09:17:59Z</time>
      </trkpt>
      <trkpt lat="48.52962" lon="2.01054">
        <ele>104.47</ele>
        <time>2017-09-17T09:18:16Z</time>
      </trkpt>
      <trkpt lat="48.52944" lon="2.01086">
        <ele>102.59</ele>
        <time>2017-09-17T09:18:40Z</time>
      </trkpt>
      <trkpt lat="48.52939" lon="2.01102">
        <ele>102.26</ele>
        <time>2017-09-17T09:18:57Z</time>
      </trkpt>
      <trkpt lat="48.52947" lon="2.01117">
        <ele>102.79</ele>
        <time>2017-09-17T09:19:12Z</time>
      </trkpt>
      <trkpt lat="48.5295" lon="2.01126">
        <ele>102.41</ele>
        <time>2017-09-17T09:19:28Z</time>
      </trkpt>
      <trkpt lat="48.52948" lon="2.01144">
        <ele>103.57</ele>
        <time>2017-09-17T09:19:43Z</time>
      </trkpt>
      <trkpt lat="48.5295" lon="2.01145">
        <ele>104.1</ele>
        <time>2017-09-17T09:19:45Z</time>
      </trkpt>
      <trkpt lat="48.52961" lon="2.0115">
        <ele>104.22</ele>
        <time>2017-09-17T09:20:00Z</time>
      </trkpt>
      <trkpt lat="48.52962" lon="2.01151">
        <ele>103.58</ele>
        <time>2017-09-17T09:20:12Z</time>
      </trkpt>
      <trkpt lat="48.52972" lon="2.01159">
        <ele>104.27</ele>
        <time>2017-09-17T09:20:27Z</time>
      </trkpt>
      <trkpt lat="48.52973" lon="2.01162">
        <ele>104.61</ele>
        <time>2017-09-17T09:20:45Z</time>
      </trkpt>
      <trkpt lat="48.52971" lon="2.01166">
        <ele>104.13</ele>
        <time>2017-09-17T09:20:51Z</time>
      </trkpt>
      <trkpt lat="48.52962" lon="2.01177">
        <ele>104.1</ele>
        <time>2017-09-17T09:21:01Z</time>
      </trkpt>
      <trkpt lat="48.5296" lon="2.01181">
        <ele>103.83</ele>
        <time>2017-09-17T09:21:06Z</time>
      </trkpt>
      <trkpt lat="48.52958" lon="2.01183">
        <ele>103.7</ele>
        <time>2017-09-17T09:21:08Z</time>
      </trkpt>
      <trkpt lat="48.52942" lon="2.01211">
        <ele>102.22</ele>
        <time>2017-09-17T09:21:29Z</time>
      </trkpt>
      <trkpt lat="48.52938" lon="2.01223">
        <ele>102.02</ele>
        <time>2017-09-17T09:21:44Z</time>
      </trkpt>
      <trkpt lat="48.52933" lon="2.01232">
        <ele>101.1</ele>
        <time>2017-09-17T09:22:07Z</time>
      </trkpt>
      <trkpt lat="48.5294" lon="2.01244">
        <ele>101.53</ele>
        <time>2017-09-17T09:22:24Z</time>
      </trkpt>
      <trkpt lat="48.52949" lon="2.01255">
        <ele>101.38</ele>
        <time>2017-09-17T09:22:41Z</time>
      </trkpt>
      <trkpt lat="48.52955" lon="2.01277">
        <ele>100.94</ele>
        <time>2017-09-17T09:22:59Z</time>
      </trkpt>
      <trkpt lat="48.52966" lon="2.0129">
        <ele>101.65</ele>
        <time>2017-09-17T09:23:13Z</time>
      </trkpt>
      <trkpt lat="48.52986" lon="2.01319">
        <ele>102.31</ele>
        <time>2017-09-17T09:23:38Z</time>
      </trkpt>
      <trkpt lat="48.52991" lon="2.01321">
        <ele>102.57</ele>
        <time>2017-09-17T09:23:42Z</time>
      </trkpt>
      <trkpt lat="48.5299" lon="2.01342">
        <ele>102.18</ele>
        <time>2017-09-17T09:24:00Z</time>
      </trkpt>
      <trkpt lat="48.52988" lon="2.01346">
        <ele>102.52</ele>
        <time>2017-09-17T09:24:03Z</time>
      </trkpt>
      <trkpt lat="48.52988" lon="2.01367">
        <ele>103.02</ele>
        <time>2017-09-17T09:24:18Z</time>
      </trkpt>
      <trkpt lat="48.52987" lon="2.0137">
        <ele>102.77</ele>
        <time>2017-09-17T09:24:23Z</time>
      </trkpt>
      <trkpt lat="48.52984" lon="2.01388">
        <ele>103.41</ele>
        <time>2017-09-17T09:24:37Z</time>
      </trkpt>
      <trkpt lat="48.52985" lon="2.01399">
        <ele>104.5</ele>
        <time>2017-09-17T09:24:50Z</time>
      </trkpt>
      <trkpt lat="48.52996" lon="2.01414">
        <ele>104.71</ele>
        <time>2017-09-17T09:25:06Z</time>
      </trkpt>
      <trkpt lat="48.53011" lon="2.01427">
        <ele>106.54</ele>
        <time>2017-09-17T09:25:27Z</time>
      </trkpt>
      <trkpt lat="48.53017" lon="2.01427">
        <ele>106.71</ele>
        <time>2017-09-17T09:25:33Z</time>
      </trkpt>
      <trkpt lat="48.53032" lon="2.01435">
        <ele>107.06</ele>
        <time>2017-09-17T09:25:53Z</time>
      </trkpt>
      <trkpt lat="48.53036" lon="2.01439">
        <ele>107.17</ele>
        <time>2017-09-17T09:26:02Z</time>
      </trkpt>
      <trkpt lat="48.53038" lon="2.01441">
        <ele>107.34</ele>
        <time>2017-09-17T09:26:04Z</time>
      </trkpt>
      <trkpt lat="48.53057" lon="2.01449">
        <ele>108.32</ele>
        <time>2017-09-17T09:26:21Z</time>
      </trkpt>
      <trkpt lat="48.53065" lon="2.01455">
        <ele>109.16</ele>
        <time>2017-09-17T09:26:31Z</time>
      </trkpt>
      <trkpt lat="48.53078" lon="2.01462">
        <ele>109.18</ele>
        <time>2017-09-17T09:26:42Z</time>
      </trkpt>
      <trkpt lat="48.53081" lon="2.01467">
        <ele>109.4</ele>
        <time>2017-09-17T09:26:45Z</time>
      </trkpt>
      <trkpt lat="48.53086" lon="2.01476">
        <ele>109.33</ele>
        <time>2017-09-17T09:26:59Z</time>
      </trkpt>
      <trkpt lat="48.53086" lon="2.01478">
        <ele>108.95</ele>
        <time>2017-09-17T09:27:15Z</time>
      </trkpt>
      <trkpt lat="48.53087" lon="2.01478">
        <ele>109.33</ele>
        <time>2017-09-17T09:27:34Z</time>
      </trkpt>
      <trkpt lat="48.53091" lon="2.01484">
        <ele>109.37</ele>
        <time>2017-09-17T09:27:47Z</time>
      </trkpt>
      <trkpt lat="48.53088" lon="2.015">
        <ele>108.69</ele>
        <time>2017-09-17T09:27:57Z</time>
      </trkpt>
      <trkpt lat="48.53086" lon="2.01521">
        <ele>108.47</ele>
        <time>2017-09-17T09:28:11Z</time>
      </trkpt>
      <trkpt lat="48.53084" lon="2.0153">
        <ele>108.01</ele>
        <time>2017-09-17T09:28:17Z</time>
      </trkpt>
      <trkpt lat="48.53081" lon="2.01545">
        <ele>107.36</ele>
        <time>2017-09-17T09:28:25Z</time>
      </trkpt>
      <trkpt lat="48.53072" lon="2.01567">
        <ele>107.15</ele>
        <time>2017-09-17T09:28:37Z</time>
      </trkpt>
      <trkpt lat="48.53072" lon="2.01576">
        <ele>106.55</ele>
        <time>2017-09-17T09:28:42Z</time>
      </trkpt>
      <trkpt lat="48.53072" lon="2.01578">
        <ele>106.41</ele>
        <time>2017-09-17T09:28:44Z</time>
      </trkpt>
      <trkpt lat="48.5307" lon="2.01593">
        <ele>105.97</ele>
        <time>2017-09-17T09:28:53Z</time>
      </trkpt>
      <trkpt lat="48.53062" lon="2.01613">
        <ele>104.96</ele>
        <time>2017-09-17T09:29:06Z</time>
      </trkpt>
      <trkpt lat="48.53059" lon="2.01632">
        <ele>103.61</ele>
        <time>2017-09-17T09:29:18Z</time>
      </trkpt>
      <trkpt lat="48.53056" lon="2.01652">
        <ele>103.23</ele>
        <time>2017-09-17T09:29:32Z</time>
      </trkpt>
      <trkpt lat="48.53048" lon="2.01671">
        <ele>103.39</ele>
        <time>2017-09-17T09:29:43Z</time>
      </trkpt>
      <trkpt lat="48.53048" lon="2.0168">
        <ele>102.71</ele>
        <time>2017-09-17T09:29:48Z</time>
      </trkpt>
      <trkpt lat="48.53047" lon="2.01688">
        <ele>102.57</ele>
        <time>2017-09-17T09:29:52Z</time>
      </trkpt>
      <trkpt lat="48.53043" lon="2.01699">
        <ele>101.92</ele>
        <time>2017-09-17T09:29:59Z</time>
      </trkpt>
      <trkpt lat="48.53029" lon="2.01732">
        <ele>100.98</ele>
        <time>2017-09-17T09:30:17Z</time>
      </trkpt>
      <trkpt lat="48.53021" lon="2.01767">
        <ele>101.15</ele>
        <time>2017-09-17T09:30:37Z</time>
      </trkpt>
      <trkpt lat="48.53016" lon="2.01786">
        <ele>100.2</ele>
        <time>2017-09-17T09:30:50Z</time>
      </trkpt>
      <trkpt lat="48.53006" lon="2.01805">
        <ele>100.16</ele>
        <time>2017-09-17T09:31:09Z</time>
      </trkpt>
      <trkpt lat="48.53004" lon="2.0183">
        <ele>100.15</ele>
        <time>2017-09-17T09:31:26Z</time>
      </trkpt>
      <trkpt lat="48.53006" lon="2.01839">
        <ele>99.67</ele>
        <time>2017-09-17T09:31:31Z</time>
      </trkpt>
      <trkpt lat="48.53007" lon="2.01849">
        <ele>99.92</ele>
        <time>2017-09-17T09:31:36Z</time>
      </trkpt>
      <trkpt lat="48.53012" lon="2.01876">
        <ele>100.38</ele>
        <time>2017-09-17T09:31:52Z</time>
      </trkpt>
      <trkpt lat="48.53011" lon="2.01896">
        <ele>99.94</ele>
        <time>2017-09-17T09:32:04Z</time>
      </trkpt>
      <trkpt lat="48.53013" lon="2.01929">
        <ele>99.71</ele>
        <time>2017-09-17T09:32:23Z</time>
      </trkpt>
      <trkpt lat="48.53013" lon="2.01958">
        <ele>99.55</ele>
        <time>2017-09-17T09:32:42Z</time>
      </trkpt>
      <trkpt lat="48.53013" lon="2.01991">
        <ele>98.11</ele>
        <time>2017-09-17T09:33:02Z</time>
      </trkpt>
      <trkpt lat="48.53014" lon="2.02024">
        <ele>97.58</ele>
        <time>2017-09-17T09:33:17Z</time>
      </trkpt>
      <trkpt lat="48.53014" lon="2.02042">
        <ele>97.78</ele>
        <time>2017-09-17T09:33:26Z</time>
      </trkpt>
      <trkpt lat="48.53013" lon="2.02061">
        <ele>97.3</ele>
        <time>2017-09-17T09:33:34Z</time>
      </trkpt>
      <trkpt lat="48.53001" lon="2.0209">
        <ele>96.43</ele>
        <time>2017-09-17T09:33:53Z</time>
      </trkpt>
      <trkpt lat="48.52998" lon="2.0211">
        <ele>96.65</ele>
        <time>2017-09-17T09:34:08Z</time>
      </trkpt>
      <trkpt lat="48.52994" lon="2.02122">
        <ele>96.57</ele>
        <time>2017-09-17T09:34:17Z</time>
      </trkpt>
      <trkpt lat="48.52993" lon="2.02129">
        <ele>96.39</ele>
        <time>2017-09-17T09:34:21Z</time>
      </trkpt>
      <trkpt lat="48.52994" lon="2.02141">
        <ele>96.03</ele>
        <time>2017-09-17T09:34:28Z</time>
      </trkpt>
      <trkpt lat="48.5299" lon="2.02156">
        <ele>95.97</ele>
        <time>2017-09-17T09:34:37Z</time>
      </trkpt>
      <trkpt lat="48.52989" lon="2.0217">
        <ele>95.47</ele>
        <time>2017-09-17T09:34:45Z</time>
      </trkpt>
      <trkpt lat="48.52984" lon="2.02197">
        <ele>95.33</ele>
        <time>2017-09-17T09:35:00Z</time>
      </trkpt>
      <trkpt lat="48.52982" lon="2.02211">
        <ele>95.19</ele>
        <time>2017-09-17T09:35:09Z</time>
      </trkpt>
      <trkpt lat="48.52975" lon="2.02236">
        <ele>94.52</ele>
        <time>2017-09-17T09:35:23Z</time>
      </trkpt>
      <trkpt lat="48.5297" lon="2.02254">
        <ele>94.49</ele>
        <time>2017-09-17T09:35:36Z</time>
      </trkpt>
      <trkpt lat="48.52967" lon="2.02263">
        <ele>94.19</ele>
        <time>2017-09-17T09:35:40Z</time>
      </trkpt>
      <trkpt lat="48.52959" lon="2.0229">
        <ele>93.05</ele>
        <time>2017-09-17T09:35:58Z</time>
      </trkpt>
      <trkpt lat="48.52955" lon="2.02308">
        <ele>91.97</ele>
        <time>2017-09-17T09:36:09Z</time>
      </trkpt>
      <trkpt lat="48.52952" lon="2.02333">
        <ele>90.87</ele>
        <time>2017-09-17T09:36:21Z</time>
      </trkpt>
      <trkpt lat="48.5295" lon="2.02343">
        <ele>90.64</ele>
        <time>2017-09-17T09:36:27Z</time>
      </trkpt>
      <trkpt lat="48.52949" lon="2.02349">
        <ele>90.22</ele>
        <time>2017-09-17T09:36:31Z</time>
      </trkpt>
      <trkpt lat="48.52946" lon="2.02356">
        <ele>89.83</ele>
        <time>2017-09-17T09:36:36Z</time>
      </trkpt>
      <trkpt lat="48.52945" lon="2.02361">
        <ele>88.78</ele>
        <time>2017-09-17T09:36:39Z</time>
      </trkpt>
      <trkpt lat="48.5293" lon="2.02389">
        <ele>87.83</ele>
        <time>2017-09-17T09:36:56Z</time>
      </trkpt>
      <trkpt lat="48.5292" lon="2.02423">
        <ele>86.65</ele>
        <time>2017-09-17T09:37:10Z</time>
      </trkpt>
      <trkpt lat="48.52921" lon="2.02448">
        <ele>85.8</ele>
        <time>2017-09-17T09:37:25Z</time>
      </trkpt>
      <trkpt lat="48.52916" lon="2.02462">
        <ele>85.09</ele>
        <time>2017-09-17T09:37:34Z</time>
      </trkpt>
      <trkpt lat="48.52909" lon="2.02485">
        <ele>84.53</ele>
        <time>2017-09-17T09:37:48Z</time>
      </trkpt>
      <trkpt lat="48.52902" lon="2.02504">
        <ele>83.59</ele>
        <time>2017-09-17T09:38:01Z</time>
      </trkpt>
      <trkpt lat="48.52897" lon="2.02535">
        <ele>83.15</ele>
        <time>2017-09-17T09:38:17Z</time>
      </trkpt>
      <trkpt lat="48.52893" lon="2.02562">
        <ele>82.56</ele>
        <time>2017-09-17T09:38:32Z</time>
      </trkpt>
      <trkpt lat="48.52888" lon="2.02594">
        <ele>82.66</ele>
        <time>2017-09-17T09:38:49Z</time>
      </trkpt>
      <trkpt lat="48.52884" lon="2.02602">
        <ele>82.88</ele>
        <time>2017-09-17T09:38:55Z</time>
      </trkpt>
      <trkpt lat="48.5288" lon="2.02605">
        <ele>82.48</ele>
        <time>2017-09-17T09:39:10Z</time>
      </trkpt>
      <trkpt lat="48.52879" lon="2.02605">
        <ele>82.28</ele>
        <time>2017-09-17T09:39:11Z</time>
      </trkpt>
      <trkpt lat="48.52873" lon="2.02603">
        <ele>82.04</ele>
        <time>2017-09-17T09:39:16Z</time>
      </trkpt>
      <trkpt lat="48.52866" lon="2.02612">
        <ele>81.62</ele>
        <time>2017-09-17T09:39:27Z</time>
      </trkpt>
      <trkpt lat="48.52864" lon="2.02634">
        <ele>81.23</ele>
        <time>2017-09-17T09:39:42Z</time>
      </trkpt>
      <trkpt lat="48.52855" lon="2.02662">
        <ele>81.8</ele>
        <time>2017-09-17T09:39:59Z</time>
      </trkpt>
      <trkpt lat="48.52852" lon="2.02667">
        <ele>81.01</ele>
        <time>2017-09-17T09:40:03Z</time>
      </trkpt>
      <trkpt lat="48.52841" lon="2.02688">
        <ele>81.53</ele>
        <time>2017-09-17T09:40:18Z</time>
      </trkpt>
      <trkpt lat="48.52828" lon="2.02703">
        <ele>81.84</ele>
        <time>2017-09-17T09:40:33Z</time>
      </trkpt>
      <trkpt lat="48.5281" lon="2.02719">
        <ele>83.21</ele>
        <time>2017-09-17T09:40:49Z</time>
      </trkpt>
      <trkpt lat="48.52805" lon="2.02723">
        <ele>83.26</ele>
        <time>2017-09-17T09:40:54Z</time>
      </trkpt>
      <trkpt lat="48.528" lon="2.02733">
        <ele>83.19</ele>
        <time>2017-09-17T09:41:03Z</time>
      </trkpt>
      <trkpt lat="48.52789" lon="2.02745">
        <ele>84</ele>
        <time>2017-09-17T09:41:17Z</time>
      </trkpt>
      <trkpt lat="48.52776" lon="2.02759">
        <ele>84.26</ele>
        <time>2017-09-17T09:41:31Z</time>
      </trkpt>
      <trkpt lat="48.52766" lon="2.02772">
        <ele>84.51</ele>
        <time>2017-09-17T09:41:43Z</time>
      </trkpt>
      <trkpt lat="48.52761" lon="2.02777">
        <ele>84.22</ele>
        <time>2017-09-17T09:41:48Z</time>
      </trkpt>
      <trkpt lat="48.52746" lon="2.02793">
        <ele>84.59</ele>
        <time>2017-09-17T09:42:04Z</time>
      </trkpt>
      <trkpt lat="48.52732" lon="2.02811">
        <ele>84.4</ele>
        <time>2017-09-17T09:42:21Z</time>
      </trkpt>
      <trkpt lat="48.52714" lon="2.02816">
        <ele>83.94</ele>
        <time>2017-09-17T09:42:38Z</time>
      </trkpt>
      <trkpt lat="48.52692" lon="2.02824">
        <ele>83.92</ele>
        <time>2017-09-17T09:42:57Z</time>
      </trkpt>
      <trkpt lat="48.52672" lon="2.02829">
        <ele>84.2</ele>
        <time>2017-09-17T09:43:14Z</time>
      </trkpt>
      <trkpt lat="48.52656" lon="2.02836">
        <ele>84.05</ele>
        <time>2017-09-17T09:43:27Z</time>
      </trkpt>
      <trkpt lat="48.5263" lon="2.02844">
        <ele>84.52</ele>
        <time>2017-09-17T09:43:49Z</time>
      </trkpt>
      <trkpt lat="48.52631" lon="2.02854">
        <ele>85</ele>
        <time>2017-09-17T09:43:59Z</time>
      </trkpt>
      <trkpt lat="48.5264" lon="2.02866">
        <ele>84.82</ele>
        <time>2017-09-17T09:45:01Z</time>
      </trkpt>
      <trkpt lat="48.52642" lon="2.02865">
        <ele>84.38</ele>
        <time>2017-09-17T09:45:03Z</time>
      </trkpt>
      <trkpt lat="48.52646" lon="2.02867">
        <ele>84.7</ele>
        <time>2017-09-17T09:45:07Z</time>
      </trkpt>
      <trkpt lat="48.52645" lon="2.02872">
        <ele>83.94</ele>
        <time>2017-09-17T09:45:11Z</time>
      </trkpt>
      <trkpt lat="48.52625" lon="2.02881">
        <ele>83.31</ele>
        <time>2017-09-17T09:45:29Z</time>
      </trkpt>
      <trkpt lat="48.52607" lon="2.02891">
        <ele>82.57</ele>
        <time>2017-09-17T09:45:44Z</time>
      </trkpt>
      <trkpt lat="48.52594" lon="2.02898">
        <ele>82.41</ele>
        <time>2017-09-17T09:45:58Z</time>
      </trkpt>
      <trkpt lat="48.52583" lon="2.02901">
        <ele>82.86</ele>
        <time>2017-09-17T09:46:13Z</time>
      </trkpt>
      <trkpt lat="48.5258" lon="2.02917">
        <ele>82.41</ele>
        <time>2017-09-17T09:46:36Z</time>
      </trkpt>
      <trkpt lat="48.52576" lon="2.02945">
        <ele>82.35</ele>
        <time>2017-09-17T09:46:57Z</time>
      </trkpt>
      <trkpt lat="48.52573" lon="2.02974">
        <ele>82.42</ele>
        <time>2017-09-17T09:47:17Z</time>
      </trkpt>
      <trkpt lat="48.52574" lon="2.03002">
        <ele>82.35</ele>
        <time>2017-09-17T09:47:35Z</time>
      </trkpt>
      <trkpt lat="48.52575" lon="2.03035">
        <ele>82.08</ele>
        <time>2017-09-17T09:47:52Z</time>
      </trkpt>
      <trkpt lat="48.52581" lon="2.03072">
        <ele>81.99</ele>
        <time>2017-09-17T09:48:15Z</time>
      </trkpt>
      <trkpt lat="48.52589" lon="2.03101">
        <ele>77.79</ele>
        <time>2017-09-17T09:54:50Z</time>
      </trkpt>
      <trkpt lat="48.52588" lon="2.03109">
        <ele>78.04</ele>
        <time>2017-09-17T09:55:11Z</time>
      </trkpt>
      <trkpt lat="48.52594" lon="2.03121">
        <ele>77.26</ele>
        <time>2017-09-17T09:55:17Z</time>
      </trkpt>
      <trkpt lat="48.52597" lon="2.03144">
        <ele>77.58</ele>
        <time>2017-09-17T09:55:33Z</time>
      </trkpt>
      <trkpt lat="48.52611" lon="2.03197">
        <ele>77.27</ele>
        <time>2017-09-17T09:55:54Z</time>
      </trkpt>
      <trkpt lat="48.52614" lon="2.03229">
        <ele>76.49</ele>
        <time>2017-09-17T09:56:12Z</time>
      </trkpt>
      <trkpt lat="48.52615" lon="2.03245">
        <ele>76.28</ele>
        <time>2017-09-17T09:56:26Z</time>
      </trkpt>
      <trkpt lat="48.52615" lon="2.03246">
        <ele>76.67</ele>
        <time>2017-09-17T09:56:29Z</time>
      </trkpt>
      <trkpt lat="48.52616" lon="2.03269">
        <ele>76.1</ele>
        <time>2017-09-17T09:56:44Z</time>
      </trkpt>
      <trkpt lat="48.52616" lon="2.0328">
        <ele>75.65</ele>
        <time>2017-09-17T09:56:47Z</time>
      </trkpt>
      <trkpt lat="48.52618" lon="2.03323">
        <ele>76.47</ele>
        <time>2017-09-17T09:57:04Z</time>
      </trkpt>
      <trkpt lat="48.52623" lon="2.03353">
        <ele>76.25</ele>
        <time>2017-09-17T09:57:18Z</time>
      </trkpt>
      <trkpt lat="48.52622" lon="2.03382">
        <ele>76.54</ele>
        <time>2017-09-17T09:57:33Z</time>
      </trkpt>
      <trkpt lat="48.5262" lon="2.03421">
        <ele>76.6</ele>
        <time>2017-09-17T09:57:54Z</time>
      </trkpt>
      <trkpt lat="48.52618" lon="2.03444">
        <ele>76.13</ele>
        <time>2017-09-17T09:58:08Z</time>
      </trkpt>
      <trkpt lat="48.5261" lon="2.03476">
        <ele>75.6</ele>
        <time>2017-09-17T09:58:28Z</time>
      </trkpt>
      <trkpt lat="48.52601" lon="2.03521">
        <ele>75.84</ele>
        <time>2017-09-17T09:58:49Z</time>
      </trkpt>
      <trkpt lat="48.52595" lon="2.03551">
        <ele>75.66</ele>
        <time>2017-09-17T09:59:04Z</time>
      </trkpt>
      <trkpt lat="48.52592" lon="2.03575">
        <ele>75.92</ele>
        <time>2017-09-17T09:59:18Z</time>
      </trkpt>
      <trkpt lat="48.52586" lon="2.03596">
        <ele>75.64</ele>
        <time>2017-09-17T09:59:32Z</time>
      </trkpt>
      <trkpt lat="48.5258" lon="2.03618">
        <ele>75.55</ele>
        <time>2017-09-17T09:59:46Z</time>
      </trkpt>
      <trkpt lat="48.52572" lon="2.03645">
        <ele>76.29</ele>
        <time>2017-09-17T10:00:02Z</time>
      </trkpt>
      <trkpt lat="48.52567" lon="2.03655">
        <ele>76.59</ele>
        <time>2017-09-17T10:00:08Z</time>
      </trkpt>
      <trkpt lat="48.5256" lon="2.03673">
        <ele>76.94</ele>
        <time>2017-09-17T10:00:20Z</time>
      </trkpt>
      <trkpt lat="48.52556" lon="2.03684">
        <ele>76.86</ele>
        <time>2017-09-17T10:00:33Z</time>
      </trkpt>
      <trkpt lat="48.52549" lon="2.03702">
        <ele>77.02</ele>
        <time>2017-09-17T10:00:51Z</time>
      </trkpt>
      <trkpt lat="48.52543" lon="2.03722">
        <ele>77.44</ele>
        <time>2017-09-17T10:01:05Z</time>
      </trkpt>
      <trkpt lat="48.52537" lon="2.03745">
        <ele>78.47</ele>
        <time>2017-09-17T10:01:24Z</time>
      </trkpt>
      <trkpt lat="48.52524" lon="2.03781">
        <ele>78.85</ele>
        <time>2017-09-17T10:01:44Z</time>
      </trkpt>
      <trkpt lat="48.52517" lon="2.03799">
        <ele>79.04</ele>
        <time>2017-09-17T10:01:58Z</time>
      </trkpt>
      <trkpt lat="48.5251" lon="2.03826">
        <ele>79.61</ele>
        <time>2017-09-17T10:02:16Z</time>
      </trkpt>
      <trkpt lat="48.52503" lon="2.03848">
        <ele>79.69</ele>
        <time>2017-09-17T10:02:31Z</time>
      </trkpt>
      <trkpt lat="48.52496" lon="2.03869">
        <ele>80.58</ele>
        <time>2017-09-17T10:02:49Z</time>
      </trkpt>
      <trkpt lat="48.5249" lon="2.03903">
        <ele>81.37</ele>
        <time>2017-09-17T10:03:13Z</time>
      </trkpt>
      <trkpt lat="48.52484" lon="2.0393">
        <ele>82.17</ele>
        <time>2017-09-17T10:03:29Z</time>
      </trkpt>
      <trkpt lat="48.52483" lon="2.03931">
        <ele>82.32</ele>
        <time>2017-09-17T10:03:30Z</time>
      </trkpt>
      <trkpt lat="48.5248" lon="2.03939">
        <ele>82.32</ele>
        <time>2017-09-17T10:03:35Z</time>
      </trkpt>
      <trkpt lat="48.52479" lon="2.03946">
        <ele>82.44</ele>
        <time>2017-09-17T10:03:39Z</time>
      </trkpt>
      <trkpt lat="48.52466" lon="2.03978">
        <ele>82.96</ele>
        <time>2017-09-17T10:03:54Z</time>
      </trkpt>
      <trkpt lat="48.5246" lon="2.04005">
        <ele>82.41</ele>
        <time>2017-09-17T10:04:07Z</time>
      </trkpt>
      <trkpt lat="48.52457" lon="2.04035">
        <ele>83.17</ele>
        <time>2017-09-17T10:04:23Z</time>
      </trkpt>
      <trkpt lat="48.52454" lon="2.0406">
        <ele>83.92</ele>
        <time>2017-09-17T10:04:37Z</time>
      </trkpt>
      <trkpt lat="48.5245" lon="2.0409">
        <ele>83.54</ele>
        <time>2017-09-17T10:04:54Z</time>
      </trkpt>
      <trkpt lat="48.52441" lon="2.04118">
        <ele>84.23</ele>
        <time>2017-09-17T10:05:10Z</time>
      </trkpt>
      <trkpt lat="48.52432" lon="2.04148">
        <ele>84.33</ele>
        <time>2017-09-17T10:05:30Z</time>
      </trkpt>
      <trkpt lat="48.52427" lon="2.04179">
        <ele>84.59</ele>
        <time>2017-09-17T10:05:53Z</time>
      </trkpt>
      <trkpt lat="48.52419" lon="2.04213">
        <ele>84.41</ele>
        <time>2017-09-17T10:06:09Z</time>
      </trkpt>
      <trkpt lat="48.52419" lon="2.04236">
        <ele>85.15</ele>
        <time>2017-09-17T10:06:27Z</time>
      </trkpt>
      <trkpt lat="48.52417" lon="2.04266">
        <ele>85.09</ele>
        <time>2017-09-17T10:06:46Z</time>
      </trkpt>
      <trkpt lat="48.52416" lon="2.04298">
        <ele>85.01</ele>
        <time>2017-09-17T10:07:04Z</time>
      </trkpt>
      <trkpt lat="48.52419" lon="2.0432">
        <ele>86.02</ele>
        <time>2017-09-17T10:07:19Z</time>
      </trkpt>
      <trkpt lat="48.52419" lon="2.04351">
        <ele>85.69</ele>
        <time>2017-09-17T10:07:36Z</time>
      </trkpt>
      <trkpt lat="48.52419" lon="2.04385">
        <ele>86.26</ele>
        <time>2017-09-17T10:07:56Z</time>
      </trkpt>
      <trkpt lat="48.52415" lon="2.04419">
        <ele>85.86</ele>
        <time>2017-09-17T10:08:19Z</time>
      </trkpt>
      <trkpt lat="48.52408" lon="2.04447">
        <ele>86.56</ele>
        <time>2017-09-17T10:08:36Z</time>
      </trkpt>
      <trkpt lat="48.52414" lon="2.04478">
        <ele>86.46</ele>
        <time>2017-09-17T10:08:52Z</time>
      </trkpt>
      <trkpt lat="48.52412" lon="2.04505">
        <ele>86.73</ele>
        <time>2017-09-17T10:09:07Z</time>
      </trkpt>
      <trkpt lat="48.52409" lon="2.04531">
        <ele>87.1</ele>
        <time>2017-09-17T10:09:21Z</time>
      </trkpt>
      <trkpt lat="48.52406" lon="2.04558">
        <ele>87.68</ele>
        <time>2017-09-17T10:09:37Z</time>
      </trkpt>
      <trkpt lat="48.52407" lon="2.04569">
        <ele>88.13</ele>
        <time>2017-09-17T10:09:43Z</time>
      </trkpt>
      <trkpt lat="48.52406" lon="2.04575">
        <ele>88.19</ele>
        <time>2017-09-17T10:09:47Z</time>
      </trkpt>
      <trkpt lat="48.52402" lon="2.04599">
        <ele>88.86</ele>
        <time>2017-09-17T10:10:02Z</time>
      </trkpt>
      <trkpt lat="48.52398" lon="2.04634">
        <ele>89.6</ele>
        <time>2017-09-17T10:10:24Z</time>
      </trkpt>
      <trkpt lat="48.52392" lon="2.04663">
        <ele>90.93</ele>
        <time>2017-09-17T10:10:42Z</time>
      </trkpt>
      <trkpt lat="48.52387" lon="2.04681">
        <ele>91.74</ele>
        <time>2017-09-17T10:10:55Z</time>
      </trkpt>
      <trkpt lat="48.52382" lon="2.04707">
        <ele>92.69</ele>
        <time>2017-09-17T10:11:11Z</time>
      </trkpt>
      <trkpt lat="48.52377" lon="2.04734">
        <ele>94.27</ele>
        <time>2017-09-17T10:11:27Z</time>
      </trkpt>
      <trkpt lat="48.52371" lon="2.04757">
        <ele>94.06</ele>
        <time>2017-09-17T10:11:42Z</time>
      </trkpt>
      <trkpt lat="48.52366" lon="2.04784">
        <ele>95.21</ele>
        <time>2017-09-17T10:11:56Z</time>
      </trkpt>
      <trkpt lat="48.52361" lon="2.0481">
        <ele>95.17</ele>
        <time>2017-09-17T10:12:11Z</time>
      </trkpt>
      <trkpt lat="48.52357" lon="2.04827">
        <ele>95.25</ele>
        <time>2017-09-17T10:12:22Z</time>
      </trkpt>
      <trkpt lat="48.52352" lon="2.04844">
        <ele>95.39</ele>
        <time>2017-09-17T10:12:33Z</time>
      </trkpt>
      <trkpt lat="48.52344" lon="2.04869">
        <ele>95.92</ele>
        <time>2017-09-17T10:12:48Z</time>
      </trkpt>
      <trkpt lat="48.52337" lon="2.04892">
        <ele>96</ele>
        <time>2017-09-17T10:13:03Z</time>
      </trkpt>
      <trkpt lat="48.52336" lon="2.04897">
        <ele>96.3</ele>
        <time>2017-09-17T10:13:06Z</time>
      </trkpt>
      <trkpt lat="48.52332" lon="2.04911">
        <ele>96.37</ele>
        <time>2017-09-17T10:13:16Z</time>
      </trkpt>
      <trkpt lat="48.52317" lon="2.04953">
        <ele>96.95</ele>
        <time>2017-09-17T10:13:35Z</time>
      </trkpt>
      <trkpt lat="48.52308" lon="2.04979">
        <ele>97</ele>
        <time>2017-09-17T10:13:50Z</time>
      </trkpt>
      <trkpt lat="48.52304" lon="2.04993">
        <ele>96.73</ele>
        <time>2017-09-17T10:14:03Z</time>
      </trkpt>
      <trkpt lat="48.52304" lon="2.04995">
        <ele>96.49</ele>
        <time>2017-09-17T10:14:31Z</time>
      </trkpt>
      <trkpt lat="48.52306" lon="2.04995">
        <ele>96.72</ele>
        <time>2017-09-17T10:14:44Z</time>
      </trkpt>
      <trkpt lat="48.52307" lon="2.04995">
        <ele>96.94</ele>
        <time>2017-09-17T10:14:58Z</time>
      </trkpt>
      <trkpt lat="48.52307" lon="2.04998">
        <ele>96.84</ele>
        <time>2017-09-17T10:15:01Z</time>
      </trkpt>
      <trkpt lat="48.52306" lon="2.05003">
        <ele>97.92</ele>
        <time>2017-09-17T10:15:16Z</time>
      </trkpt>
      <trkpt lat="48.52305" lon="2.05002">
        <ele>97.13</ele>
        <time>2017-09-17T10:15:19Z</time>
      </trkpt>
      <trkpt lat="48.52303" lon="2.05003">
        <ele>96.81</ele>
        <time>2017-09-17T10:15:21Z</time>
      </trkpt>
      <trkpt lat="48.52297" lon="2.05006">
        <ele>98.03</ele>
        <time>2017-09-17T10:15:26Z</time>
      </trkpt>
      <trkpt lat="48.52295" lon="2.05013">
        <ele>97.95</ele>
        <time>2017-09-17T10:15:31Z</time>
      </trkpt>
      <trkpt lat="48.52296" lon="2.05022">
        <ele>98</ele>
        <time>2017-09-17T10:15:36Z</time>
      </trkpt>
      <trkpt lat="48.52288" lon="2.05041">
        <ele>96.42</ele>
        <time>2017-09-17T10:15:48Z</time>
      </trkpt>
      <trkpt lat="48.52275" lon="2.05069">
        <ele>95.92</ele>
        <time>2017-09-17T10:16:07Z</time>
      </trkpt>
      <trkpt lat="48.5227" lon="2.0508">
        <ele>95.64</ele>
        <time>2017-09-17T10:16:14Z</time>
      </trkpt>
      <trkpt lat="48.52266" lon="2.05085">
        <ele>95.37</ele>
        <time>2017-09-17T10:16:18Z</time>
      </trkpt>
      <trkpt lat="48.5226" lon="2.0509">
        <ele>95.32</ele>
        <time>2017-09-17T10:16:26Z</time>
      </trkpt>
      <trkpt lat="48.52244" lon="2.05104">
        <ele>95.82</ele>
        <time>2017-09-17T10:16:43Z</time>
      </trkpt>
      <trkpt lat="48.52226" lon="2.05125">
        <ele>95.84</ele>
        <time>2017-09-17T10:17:03Z</time>
      </trkpt>
      <trkpt lat="48.52221" lon="2.05139">
        <ele>96.06</ele>
        <time>2017-09-17T10:17:14Z</time>
      </trkpt>
      <trkpt lat="48.52213" lon="2.05159">
        <ele>96</ele>
        <time>2017-09-17T10:17:28Z</time>
      </trkpt>
      <trkpt lat="48.5221" lon="2.05161">
        <ele>96.01</ele>
        <time>2017-09-17T10:17:30Z</time>
      </trkpt>
      <trkpt lat="48.52205" lon="2.0517">
        <ele>95.61</ele>
        <time>2017-09-17T10:17:37Z</time>
      </trkpt>
      <trkpt lat="48.52191" lon="2.05196">
        <ele>95.59</ele>
        <time>2017-09-17T10:17:56Z</time>
      </trkpt>
      <trkpt lat="48.52189" lon="2.05201">
        <ele>95.61</ele>
        <time>2017-09-17T10:18:00Z</time>
      </trkpt>
      <trkpt lat="48.52182" lon="2.05212">
        <ele>95.33</ele>
        <time>2017-09-17T10:18:11Z</time>
      </trkpt>
      <trkpt lat="48.52179" lon="2.05215">
        <ele>95.21</ele>
        <time>2017-09-17T10:18:14Z</time>
      </trkpt>
      <trkpt lat="48.52176" lon="2.0522">
        <ele>96.1</ele>
        <time>2017-09-17T10:18:19Z</time>
      </trkpt>
      <trkpt lat="48.52165" lon="2.05232">
        <ele>96.17</ele>
        <time>2017-09-17T10:18:33Z</time>
      </trkpt>
      <trkpt lat="48.52161" lon="2.05236">
        <ele>96.38</ele>
        <time>2017-09-17T10:18:37Z</time>
      </trkpt>
      <trkpt lat="48.52156" lon="2.05243">
        <ele>96.35</ele>
        <time>2017-09-17T10:18:43Z</time>
      </trkpt>
      <trkpt lat="48.52151" lon="2.0525">
        <ele>97.16</ele>
        <time>2017-09-17T10:18:50Z</time>
      </trkpt>
      <trkpt lat="48.52141" lon="2.05264">
        <ele>97.33</ele>
        <time>2017-09-17T10:19:01Z</time>
      </trkpt>
      <trkpt lat="48.52138" lon="2.05267">
        <ele>97.45</ele>
        <time>2017-09-17T10:19:04Z</time>
      </trkpt>
      <trkpt lat="48.52135" lon="2.0527">
        <ele>97.5</ele>
        <time>2017-09-17T10:19:07Z</time>
      </trkpt>
      <trkpt lat="48.52133" lon="2.05274">
        <ele>97.3</ele>
        <time>2017-09-17T10:19:10Z</time>
      </trkpt>
      <trkpt lat="48.5213" lon="2.05278">
        <ele>97.67</ele>
        <time>2017-09-17T10:19:13Z</time>
      </trkpt>
      <trkpt lat="48.52123" lon="2.0529">
        <ele>98.56</ele>
        <time>2017-09-17T10:19:22Z</time>
      </trkpt>
      <trkpt lat="48.5212" lon="2.05292">
        <ele>98.41</ele>
        <time>2017-09-17T10:19:25Z</time>
      </trkpt>
      <trkpt lat="48.52117" lon="2.05297">
        <ele>98.08</ele>
        <time>2017-09-17T10:19:29Z</time>
      </trkpt>
      <trkpt lat="48.52111" lon="2.05303">
        <ele>99.39</ele>
        <time>2017-09-17T10:19:35Z</time>
      </trkpt>
      <trkpt lat="48.52106" lon="2.05311">
        <ele>99.9</ele>
        <time>2017-09-17T10:19:41Z</time>
      </trkpt>
      <trkpt lat="48.52094" lon="2.05327">
        <ele>100.71</ele>
        <time>2017-09-17T10:19:55Z</time>
      </trkpt>
      <trkpt lat="48.52082" lon="2.05344">
        <ele>101.78</ele>
        <time>2017-09-17T10:20:10Z</time>
      </trkpt>
      <trkpt lat="48.5207" lon="2.05359">
        <ele>102.77</ele>
        <time>2017-09-17T10:20:24Z</time>
      </trkpt>
      <trkpt lat="48.52061" lon="2.05373">
        <ele>104</ele>
        <time>2017-09-17T10:20:38Z</time>
      </trkpt>
      <trkpt lat="48.52048" lon="2.05389">
        <ele>105.02</ele>
        <time>2017-09-17T10:20:53Z</time>
      </trkpt>
      <trkpt lat="48.52034" lon="2.05405">
        <ele>105.93</ele>
        <time>2017-09-17T10:21:09Z</time>
      </trkpt>
      <trkpt lat="48.52024" lon="2.05415">
        <ele>106.79</ele>
        <time>2017-09-17T10:21:21Z</time>
      </trkpt>
      <trkpt lat="48.52012" lon="2.05431">
        <ele>109.13</ele>
        <time>2017-09-17T10:21:38Z</time>
      </trkpt>
      <trkpt lat="48.52002" lon="2.05445">
        <ele>111.36</ele>
        <time>2017-09-17T10:21:56Z</time>
      </trkpt>
      <trkpt lat="48.51988" lon="2.05462">
        <ele>114.38</ele>
        <time>2017-09-17T10:22:15Z</time>
      </trkpt>
      <trkpt lat="48.51976" lon="2.05473">
        <ele>116.34</ele>
        <time>2017-09-17T10:22:33Z</time>
      </trkpt>
      <trkpt lat="48.51965" lon="2.05488">
        <ele>119.26</ele>
        <time>2017-09-17T10:22:53Z</time>
      </trkpt>
      <trkpt lat="48.51953" lon="2.05495">
        <ele>122.38</ele>
        <time>2017-09-17T10:23:11Z</time>
      </trkpt>
      <trkpt lat="48.5194" lon="2.0551">
        <ele>125.07</ele>
        <time>2017-09-17T10:23:32Z</time>
      </trkpt>
      <trkpt lat="48.51929" lon="2.05524">
        <ele>128.1</ele>
        <time>2017-09-17T10:23:56Z</time>
      </trkpt>
      <trkpt lat="48.51917" lon="2.0553">
        <ele>131.14</ele>
        <time>2017-09-17T10:24:14Z</time>
      </trkpt>
      <trkpt lat="48.51899" lon="2.05537">
        <ele>132.32</ele>
        <time>2017-09-17T10:24:30Z</time>
      </trkpt>
      <trkpt lat="48.51897" lon="2.05538">
        <ele>131.82</ele>
        <time>2017-09-17T10:24:54Z</time>
      </trkpt>
      <trkpt lat="48.51894" lon="2.05543">
        <ele>132</ele>
        <time>2017-09-17T10:25:25Z</time>
      </trkpt>
      <trkpt lat="48.51896" lon="2.05544">
        <ele>131.82</ele>
        <time>2017-09-17T10:25:52Z</time>
      </trkpt>
      <trkpt lat="48.51897" lon="2.05543">
        <ele>132.26</ele>
        <time>2017-09-17T10:26:17Z</time>
      </trkpt>
      <trkpt lat="48.51897" lon="2.05543">
        <ele>131.97</ele>
        <time>2017-09-17T10:26:41Z</time>
      </trkpt>
      <trkpt lat="48.51897" lon="2.05542">
        <ele>132.46</ele>
        <time>2017-09-17T10:27:10Z</time>
      </trkpt>
      <trkpt lat="48.5189" lon="2.05549">
        <ele>132.79</ele>
        <time>2017-09-17T10:27:27Z</time>
      </trkpt>
      <trkpt lat="48.51876" lon="2.05559">
        <ele>134.18</ele>
        <time>2017-09-17T10:27:44Z</time>
      </trkpt>
      <trkpt lat="48.51869" lon="2.05562">
        <ele>134.38</ele>
        <time>2017-09-17T10:27:51Z</time>
      </trkpt>
      <trkpt lat="48.51866" lon="2.05568">
        <ele>134.74</ele>
        <time>2017-09-17T10:27:55Z</time>
      </trkpt>
      <trkpt lat="48.51873" lon="2.05591">
        <ele>136.16</ele>
        <time>2017-09-17T10:28:11Z</time>
      </trkpt>
      <trkpt lat="48.51878" lon="2.05599">
        <ele>135.89</ele>
        <time>2017-09-17T10:28:18Z</time>
      </trkpt>
      <trkpt lat="48.51895" lon="2.05622">
        <ele>135.86</ele>
        <time>2017-09-17T10:28:35Z</time>
      </trkpt>
      <trkpt lat="48.51908" lon="2.05646">
        <ele>135.83</ele>
        <time>2017-09-17T10:28:52Z</time>
      </trkpt>
      <trkpt lat="48.5192" lon="2.05666">
        <ele>135.66</ele>
        <time>2017-09-17T10:29:07Z</time>
      </trkpt>
      <trkpt lat="48.51934" lon="2.05689">
        <ele>135.18</ele>
        <time>2017-09-17T10:29:25Z</time>
      </trkpt>
      <trkpt lat="48.51949" lon="2.05712">
        <ele>134.14</ele>
        <time>2017-09-17T10:29:43Z</time>
      </trkpt>
      <trkpt lat="48.51962" lon="2.05738">
        <ele>134.49</ele>
        <time>2017-09-17T10:30:01Z</time>
      </trkpt>
      <trkpt lat="48.51967" lon="2.05747">
        <ele>133.72</ele>
        <time>2017-09-17T10:30:07Z</time>
      </trkpt>
      <trkpt lat="48.51981" lon="2.05774">
        <ele>134.04</ele>
        <time>2017-09-17T10:30:26Z</time>
      </trkpt>
      <trkpt lat="48.51994" lon="2.05803">
        <ele>134.06</ele>
        <time>2017-09-17T10:30:46Z</time>
      </trkpt>
      <trkpt lat="48.52005" lon="2.05827">
        <ele>134.23</ele>
        <time>2017-09-17T10:31:02Z</time>
      </trkpt>
      <trkpt lat="48.52007" lon="2.05835">
        <ele>135.05</ele>
        <time>2017-09-17T10:31:07Z</time>
      </trkpt>
      <trkpt lat="48.52015" lon="2.05847">
        <ele>134.65</ele>
        <time>2017-09-17T10:31:18Z</time>
      </trkpt>
      <trkpt lat="48.52017" lon="2.05853">
        <ele>135.27</ele>
        <time>2017-09-17T10:31:22Z</time>
      </trkpt>
      <trkpt lat="48.52033" lon="2.05884">
        <ele>135.9</ele>
        <time>2017-09-17T10:31:42Z</time>
      </trkpt>
      <trkpt lat="48.52044" lon="2.05905">
        <ele>136.1</ele>
        <time>2017-09-17T10:31:57Z</time>
      </trkpt>
      <trkpt lat="48.52055" lon="2.0593">
        <ele>136.92</ele>
        <time>2017-09-17T10:32:15Z</time>
      </trkpt>
      <trkpt lat="48.5206" lon="2.05941">
        <ele>137.22</ele>
        <time>2017-09-17T10:32:22Z</time>
      </trkpt>
      <trkpt lat="48.52073" lon="2.05961">
        <ele>137.5</ele>
        <time>2017-09-17T10:32:39Z</time>
      </trkpt>
      <trkpt lat="48.52087" lon="2.05971">
        <ele>138.03</ele>
        <time>2017-09-17T10:32:53Z</time>
      </trkpt>
      <trkpt lat="48.52097" lon="2.05974">
        <ele>137.39</ele>
        <time>2017-09-17T10:33:02Z</time>
      </trkpt>
      <trkpt lat="48.521" lon="2.05974">
        <ele>137.33</ele>
        <time>2017-09-17T10:33:05Z</time>
      </trkpt>
      <trkpt lat="48.5211" lon="2.05975">
        <ele>137.85</ele>
        <time>2017-09-17T10:33:16Z</time>
      </trkpt>
      <trkpt lat="48.52115" lon="2.05977">
        <ele>137.66</ele>
        <time>2017-09-17T10:33:21Z</time>
      </trkpt>
      <trkpt lat="48.52134" lon="2.05976">
        <ele>137.72</ele>
        <time>2017-09-17T10:33:37Z</time>
      </trkpt>
      <trkpt lat="48.52152" lon="2.05975">
        <ele>138.33</ele>
        <time>2017-09-17T10:33:52Z</time>
      </trkpt>
      <trkpt lat="48.52169" lon="2.05973">
        <ele>138.33</ele>
        <time>2017-09-17T10:34:08Z</time>
      </trkpt>
      <trkpt lat="48.52186" lon="2.05973">
        <ele>138.55</ele>
        <time>2017-09-17T10:34:23Z</time>
      </trkpt>
      <trkpt lat="48.522" lon="2.05971">
        <ele>138.16</ele>
        <time>2017-09-17T10:34:36Z</time>
      </trkpt>
      <trkpt lat="48.52221" lon="2.05969">
        <ele>137.89</ele>
        <time>2017-09-17T10:34:54Z</time>
      </trkpt>
      <trkpt lat="48.52235" lon="2.05968">
        <ele>137.94</ele>
        <time>2017-09-17T10:35:07Z</time>
      </trkpt>
      <trkpt lat="48.52254" lon="2.05968">
        <ele>138.28</ele>
        <time>2017-09-17T10:35:23Z</time>
      </trkpt>
      <trkpt lat="48.52256" lon="2.05968">
        <ele>138.72</ele>
        <time>2017-09-17T10:35:25Z</time>
      </trkpt>
      <trkpt lat="48.52276" lon="2.05965">
        <ele>137.72</ele>
        <time>2017-09-17T10:35:44Z</time>
      </trkpt>
      <trkpt lat="48.52297" lon="2.05963">
        <ele>137.55</ele>
        <time>2017-09-17T10:36:02Z</time>
      </trkpt>
      <trkpt lat="48.52316" lon="2.05962">
        <ele>137.57</ele>
        <time>2017-09-17T10:36:17Z</time>
      </trkpt>
      <trkpt lat="48.52321" lon="2.05961">
        <ele>137.56</ele>
        <time>2017-09-17T10:36:20Z</time>
      </trkpt>
      <trkpt lat="48.5233" lon="2.05961">
        <ele>136.97</ele>
        <time>2017-09-17T10:36:27Z</time>
      </trkpt>
      <trkpt lat="48.52341" lon="2.05961">
        <ele>136.66</ele>
        <time>2017-09-17T10:36:37Z</time>
      </trkpt>
      <trkpt lat="48.52345" lon="2.05963">
        <ele>137</ele>
        <time>2017-09-17T10:36:40Z</time>
      </trkpt>
      <trkpt lat="48.52363" lon="2.05964">
        <ele>135.9</ele>
        <time>2017-09-17T10:36:57Z</time>
      </trkpt>
      <trkpt lat="48.52378" lon="2.05959">
        <ele>135.93</ele>
        <time>2017-09-17T10:37:11Z</time>
      </trkpt>
      <trkpt lat="48.52385" lon="2.05958">
        <ele>135.7</ele>
        <time>2017-09-17T10:37:18Z</time>
      </trkpt>
      <trkpt lat="48.52387" lon="2.05957">
        <ele>136.12</ele>
        <time>2017-09-17T10:37:20Z</time>
      </trkpt>
      <trkpt lat="48.52403" lon="2.05953">
        <ele>135.33</ele>
        <time>2017-09-17T10:37:33Z</time>
      </trkpt>
      <trkpt lat="48.52421" lon="2.05947">
        <ele>135.37</ele>
        <time>2017-09-17T10:37:52Z</time>
      </trkpt>
      <trkpt lat="48.52441" lon="2.05953">
        <ele>135.1</ele>
        <time>2017-09-17T10:38:09Z</time>
      </trkpt>
      <trkpt lat="48.52444" lon="2.05956">
        <ele>134.64</ele>
        <time>2017-09-17T10:38:11Z</time>
      </trkpt>
      <trkpt lat="48.52457" lon="2.05976">
        <ele>134.32</ele>
        <time>2017-09-17T10:38:24Z</time>
      </trkpt>
      <trkpt lat="48.52462" lon="2.06003">
        <ele>133.96</ele>
        <time>2017-09-17T10:38:41Z</time>
      </trkpt>
      <trkpt lat="48.52463" lon="2.06007">
        <ele>133.66</ele>
        <time>2017-09-17T10:38:43Z</time>
      </trkpt>
      <trkpt lat="48.52464" lon="2.06039">
        <ele>133.92</ele>
        <time>2017-09-17T10:39:03Z</time>
      </trkpt>
      <trkpt lat="48.52465" lon="2.06053">
        <ele>133.62</ele>
        <time>2017-09-17T10:39:16Z</time>
      </trkpt>
      <trkpt lat="48.52463" lon="2.06062">
        <ele>133.27</ele>
        <time>2017-09-17T10:39:25Z</time>
      </trkpt>
      <trkpt lat="48.52461" lon="2.06065">
        <ele>133.27</ele>
        <time>2017-09-17T10:39:48Z</time>
      </trkpt>
      <trkpt lat="48.52458" lon="2.06067">
        <ele>133.64</ele>
        <time>2017-09-17T10:40:11Z</time>
      </trkpt>
      <trkpt lat="48.52458" lon="2.06065">
        <ele>133.62</ele>
        <time>2017-09-17T10:40:36Z</time>
      </trkpt>
      <trkpt lat="48.52458" lon="2.06065">
        <ele>133.62</ele>
        <time>2017-09-17T10:41:01Z</time>
      </trkpt>
      <trkpt lat="48.52462" lon="2.06072">
        <ele>133.58</ele>
        <time>2017-09-17T10:41:17Z</time>
      </trkpt>
      <trkpt lat="48.52467" lon="2.06074">
        <ele>132.92</ele>
        <time>2017-09-17T10:41:30Z</time>
      </trkpt>
      <trkpt lat="48.52479" lon="2.06071">
        <ele>133.9</ele>
        <time>2017-09-17T10:41:40Z</time>
      </trkpt>
      <trkpt lat="48.52489" lon="2.06063">
        <ele>133.57</ele>
        <time>2017-09-17T10:41:56Z</time>
      </trkpt>
      <trkpt lat="48.52506" lon="2.06054">
        <ele>132.16</ele>
        <time>2017-09-17T10:42:14Z</time>
      </trkpt>
      <trkpt lat="48.52524" lon="2.06064">
        <ele>132.12</ele>
        <time>2017-09-17T10:42:30Z</time>
      </trkpt>
      <trkpt lat="48.52532" lon="2.06091">
        <ele>131.21</ele>
        <time>2017-09-17T10:42:50Z</time>
      </trkpt>
      <trkpt lat="48.52533" lon="2.06108">
        <ele>130.6</ele>
        <time>2017-09-17T10:43:02Z</time>
      </trkpt>
      <trkpt lat="48.52529" lon="2.06143">
        <ele>130.27</ele>
        <time>2017-09-17T10:43:18Z</time>
      </trkpt>
      <trkpt lat="48.52528" lon="2.06161">
        <ele>129.44</ele>
        <time>2017-09-17T10:43:29Z</time>
      </trkpt>
      <trkpt lat="48.52527" lon="2.06184">
        <ele>128.65</ele>
        <time>2017-09-17T10:43:44Z</time>
      </trkpt>
      <trkpt lat="48.52522" lon="2.06214">
        <ele>128.34</ele>
        <time>2017-09-17T10:44:00Z</time>
      </trkpt>
      <trkpt lat="48.52521" lon="2.0623">
        <ele>127.58</ele>
        <time>2017-09-17T10:44:11Z</time>
      </trkpt>
      <trkpt lat="48.52512" lon="2.06257">
        <ele>126.87</ele>
        <time>2017-09-17T10:44:27Z</time>
      </trkpt>
      <trkpt lat="48.52511" lon="2.06258">
        <ele>127.7</ele>
        <time>2017-09-17T10:44:28Z</time>
      </trkpt>
      <trkpt lat="48.52508" lon="2.06265">
        <ele>127.52</ele>
        <time>2017-09-17T10:44:33Z</time>
      </trkpt>
      <trkpt lat="48.52506" lon="2.06269">
        <ele>127.58</ele>
        <time>2017-09-17T10:44:37Z</time>
      </trkpt>
      <trkpt lat="48.52503" lon="2.06286">
        <ele>127.65</ele>
        <time>2017-09-17T10:44:50Z</time>
      </trkpt>
      <trkpt lat="48.52502" lon="2.06292">
        <ele>127.8</ele>
        <time>2017-09-17T10:44:54Z</time>
      </trkpt>
      <trkpt lat="48.52502" lon="2.06295">
        <ele>128.48</ele>
        <time>2017-09-17T10:44:56Z</time>
      </trkpt>
      <trkpt lat="48.52499" lon="2.06309">
        <ele>128.46</ele>
        <time>2017-09-17T10:45:03Z</time>
      </trkpt>
      <trkpt lat="48.52497" lon="2.06325">
        <ele>129.01</ele>
        <time>2017-09-17T10:45:13Z</time>
      </trkpt>
      <trkpt lat="48.52512" lon="2.06344">
        <ele>128.22</ele>
        <time>2017-09-17T10:45:31Z</time>
      </trkpt>
      <trkpt lat="48.52516" lon="2.06349">
        <ele>128.02</ele>
        <time>2017-09-17T10:45:36Z</time>
      </trkpt>
      <trkpt lat="48.5253" lon="2.06364">
        <ele>127.71</ele>
        <time>2017-09-17T10:45:51Z</time>
      </trkpt>
      <trkpt lat="48.52535" lon="2.06371">
        <ele>127.55</ele>
        <time>2017-09-17T10:45:58Z</time>
      </trkpt>
      <trkpt lat="48.52539" lon="2.06377">
        <ele>127.64</ele>
        <time>2017-09-17T10:46:03Z</time>
      </trkpt>
      <trkpt lat="48.52547" lon="2.06397">
        <ele>127.73</ele>
        <time>2017-09-17T10:46:17Z</time>
      </trkpt>
      <trkpt lat="48.52549" lon="2.064">
        <ele>127.73</ele>
        <time>2017-09-17T10:46:19Z</time>
      </trkpt>
      <trkpt lat="48.52556" lon="2.06423">
        <ele>128.58</ele>
        <time>2017-09-17T10:46:35Z</time>
      </trkpt>
      <trkpt lat="48.52557" lon="2.06428">
        <ele>128.58</ele>
        <time>2017-09-17T10:46:38Z</time>
      </trkpt>
      <trkpt lat="48.52559" lon="2.06437">
        <ele>129.17</ele>
        <time>2017-09-17T10:46:44Z</time>
      </trkpt>
      <trkpt lat="48.52563" lon="2.06461">
        <ele>130.06</ele>
        <time>2017-09-17T10:47:00Z</time>
      </trkpt>
      <trkpt lat="48.52568" lon="2.06491">
        <ele>130.72</ele>
        <time>2017-09-17T10:47:15Z</time>
      </trkpt>
      <trkpt lat="48.5258" lon="2.06515">
        <ele>130.62</ele>
        <time>2017-09-17T10:47:32Z</time>
      </trkpt>
      <trkpt lat="48.52598" lon="2.06528">
        <ele>131.08</ele>
        <time>2017-09-17T10:47:50Z</time>
      </trkpt>
      <trkpt lat="48.52615" lon="2.06533">
        <ele>131.02</ele>
        <time>2017-09-17T10:48:06Z</time>
      </trkpt>
      <trkpt lat="48.52632" lon="2.06528">
        <ele>130.49</ele>
        <time>2017-09-17T10:48:24Z</time>
      </trkpt>
      <trkpt lat="48.52647" lon="2.06522">
        <ele>129.25</ele>
        <time>2017-09-17T10:48:39Z</time>
      </trkpt>
      <trkpt lat="48.52666" lon="2.06513">
        <ele>129.3</ele>
        <time>2017-09-17T10:49:00Z</time>
      </trkpt>
      <trkpt lat="48.52687" lon="2.06509">
        <ele>129.68</ele>
        <time>2017-09-17T10:49:22Z</time>
      </trkpt>
      <trkpt lat="48.52692" lon="2.06511">
        <ele>129.4</ele>
        <time>2017-09-17T10:49:28Z</time>
      </trkpt>
      <trkpt lat="48.52696" lon="2.0652">
        <ele>129.5</ele>
        <time>2017-09-17T10:49:46Z</time>
      </trkpt>
      <trkpt lat="48.52695" lon="2.06526">
        <ele>129.99</ele>
        <time>2017-09-17T10:49:51Z</time>
      </trkpt>
      <trkpt lat="48.52696" lon="2.06548">
        <ele>131.27</ele>
        <time>2017-09-17T10:50:06Z</time>
      </trkpt>
      <trkpt lat="48.52696" lon="2.06556">
        <ele>131.2</ele>
        <time>2017-09-17T10:50:10Z</time>
      </trkpt>
      <trkpt lat="48.52696" lon="2.06569">
        <ele>130.66</ele>
        <time>2017-09-17T10:50:19Z</time>
      </trkpt>
      <trkpt lat="48.52698" lon="2.06577">
        <ele>131.54</ele>
        <time>2017-09-17T10:50:24Z</time>
      </trkpt>
      <trkpt lat="48.52707" lon="2.06609">
        <ele>131.73</ele>
        <time>2017-09-17T10:50:44Z</time>
      </trkpt>
      <trkpt lat="48.52709" lon="2.06614">
        <ele>131.61</ele>
        <time>2017-09-17T10:50:48Z</time>
      </trkpt>
      <trkpt lat="48.52715" lon="2.06625">
        <ele>132.15</ele>
        <time>2017-09-17T10:50:57Z</time>
      </trkpt>
      <trkpt lat="48.52726" lon="2.06637">
        <ele>132.04</ele>
        <time>2017-09-17T10:51:16Z</time>
      </trkpt>
      <trkpt lat="48.5273" lon="2.06645">
        <ele>131.77</ele>
        <time>2017-09-17T10:51:22Z</time>
      </trkpt>
      <trkpt lat="48.52741" lon="2.06661">
        <ele>131.63</ele>
        <time>2017-09-17T10:51:34Z</time>
      </trkpt>
      <trkpt lat="48.52754" lon="2.06675">
        <ele>131.97</ele>
        <time>2017-09-17T10:51:51Z</time>
      </trkpt>
      <trkpt lat="48.52764" lon="2.06687">
        <ele>131.97</ele>
        <time>2017-09-17T10:52:01Z</time>
      </trkpt>
      <trkpt lat="48.52773" lon="2.067">
        <ele>132.11</ele>
        <time>2017-09-17T10:52:10Z</time>
      </trkpt>
      <trkpt lat="48.52784" lon="2.0672">
        <ele>131.62</ele>
        <time>2017-09-17T10:52:25Z</time>
      </trkpt>
      <trkpt lat="48.52793" lon="2.06744">
        <ele>131.5</ele>
        <time>2017-09-17T10:52:42Z</time>
      </trkpt>
      <trkpt lat="48.52798" lon="2.06768">
        <ele>131.54</ele>
        <time>2017-09-17T10:52:55Z</time>
      </trkpt>
      <trkpt lat="48.52807" lon="2.06796">
        <ele>131.95</ele>
        <time>2017-09-17T10:53:10Z</time>
      </trkpt>
      <trkpt lat="48.5281" lon="2.06809">
        <ele>131.77</ele>
        <time>2017-09-17T10:53:17Z</time>
      </trkpt>
      <trkpt lat="48.52815" lon="2.06822">
        <ele>131.71</ele>
        <time>2017-09-17T10:53:25Z</time>
      </trkpt>
      <trkpt lat="48.5282" lon="2.06844">
        <ele>131.54</ele>
        <time>2017-09-17T10:53:37Z</time>
      </trkpt>
      <trkpt lat="48.52827" lon="2.06873">
        <ele>131.84</ele>
        <time>2017-09-17T10:53:54Z</time>
      </trkpt>
      <trkpt lat="48.52828" lon="2.06882">
        <ele>131.67</ele>
        <time>2017-09-17T10:53:59Z</time>
      </trkpt>
      <trkpt lat="48.52829" lon="2.06893">
        <ele>131.66</ele>
        <time>2017-09-17T10:54:06Z</time>
      </trkpt>
      <trkpt lat="48.52831" lon="2.06905">
        <ele>132.31</ele>
        <time>2017-09-17T10:54:14Z</time>
      </trkpt>
      <trkpt lat="48.52833" lon="2.06915">
        <ele>131.6</ele>
        <time>2017-09-17T10:54:20Z</time>
      </trkpt>
      <trkpt lat="48.52835" lon="2.06929">
        <ele>131.71</ele>
        <time>2017-09-17T10:54:28Z</time>
      </trkpt>
      <trkpt lat="48.52836" lon="2.06941">
        <ele>131.6</ele>
        <time>2017-09-17T10:54:35Z</time>
      </trkpt>
      <trkpt lat="48.52838" lon="2.0695">
        <ele>131.56</ele>
        <time>2017-09-17T10:54:40Z</time>
      </trkpt>
      <trkpt lat="48.52841" lon="2.06983">
        <ele>130.22</ele>
        <time>2017-09-17T10:54:58Z</time>
      </trkpt>
      <trkpt lat="48.52843" lon="2.07016">
        <ele>129.99</ele>
        <time>2017-09-17T10:55:16Z</time>
      </trkpt>
      <trkpt lat="48.52844" lon="2.07039">
        <ele>130.6</ele>
        <time>2017-09-17T10:55:32Z</time>
      </trkpt>
      <trkpt lat="48.5285" lon="2.07064">
        <ele>130.6</ele>
        <time>2017-09-17T10:55:47Z</time>
      </trkpt>
      <trkpt lat="48.52856" lon="2.07085">
        <ele>131.1</ele>
        <time>2017-09-17T10:56:04Z</time>
      </trkpt>
      <trkpt lat="48.52859" lon="2.07098">
        <ele>130.4</ele>
        <time>2017-09-17T10:56:29Z</time>
      </trkpt>
      <trkpt lat="48.52859" lon="2.071">
        <ele>130.73</ele>
        <time>2017-09-17T10:56:49Z</time>
      </trkpt>
      <trkpt lat="48.52864" lon="2.07112">
        <ele>131.11</ele>
        <time>2017-09-17T10:57:07Z</time>
      </trkpt>
      <trkpt lat="48.52866" lon="2.07114">
        <ele>130.84</ele>
        <time>2017-09-17T10:57:10Z</time>
      </trkpt>
      <trkpt lat="48.52872" lon="2.07131">
        <ele>130.53</ele>
        <time>2017-09-17T10:57:24Z</time>
      </trkpt>
      <trkpt lat="48.52879" lon="2.07151">
        <ele>130.62</ele>
        <time>2017-09-17T10:57:41Z</time>
      </trkpt>
      <trkpt lat="48.52884" lon="2.07164">
        <ele>129.95</ele>
        <time>2017-09-17T10:57:52Z</time>
      </trkpt>
      <trkpt lat="48.52889" lon="2.07171">
        <ele>130.03</ele>
        <time>2017-09-17T10:58:00Z</time>
      </trkpt>
      <trkpt lat="48.52898" lon="2.0719">
        <ele>129.65</ele>
        <time>2017-09-17T10:58:17Z</time>
      </trkpt>
      <trkpt lat="48.52902" lon="2.07196">
        <ele>129.75</ele>
        <time>2017-09-17T10:58:24Z</time>
      </trkpt>
      <trkpt lat="48.52914" lon="2.07218">
        <ele>129.72</ele>
        <time>2017-09-17T10:58:40Z</time>
      </trkpt>
      <trkpt lat="48.52922" lon="2.07235">
        <ele>129.59</ele>
        <time>2017-09-17T10:58:53Z</time>
      </trkpt>
      <trkpt lat="48.52934" lon="2.07257">
        <ele>129.04</ele>
        <time>2017-09-17T10:59:09Z</time>
      </trkpt>
      <trkpt lat="48.52935" lon="2.07259">
        <ele>129.17</ele>
        <time>2017-09-17T10:59:10Z</time>
      </trkpt>
      <trkpt lat="48.52946" lon="2.07287">
        <ele>128.9</ele>
        <time>2017-09-17T10:59:27Z</time>
      </trkpt>
      <trkpt lat="48.52957" lon="2.07312">
        <ele>128.24</ele>
        <time>2017-09-17T10:59:44Z</time>
      </trkpt>
      <trkpt lat="48.52964" lon="2.07334">
        <ele>127.46</ele>
        <time>2017-09-17T10:59:59Z</time>
      </trkpt>
      <trkpt lat="48.52968" lon="2.07346">
        <ele>127.7</ele>
        <time>2017-09-17T11:00:08Z</time>
      </trkpt>
      <trkpt lat="48.52976" lon="2.07387">
        <ele>126.03</ele>
        <time>2017-09-17T11:00:29Z</time>
      </trkpt>
      <trkpt lat="48.52976" lon="2.0739">
        <ele>126.32</ele>
        <time>2017-09-17T11:00:31Z</time>
      </trkpt>
      <trkpt lat="48.52976" lon="2.07415">
        <ele>126.38</ele>
        <time>2017-09-17T11:00:44Z</time>
      </trkpt>
      <trkpt lat="48.52978" lon="2.07447">
        <ele>125.37</ele>
        <time>2017-09-17T11:01:00Z</time>
      </trkpt>
      <trkpt lat="48.52985" lon="2.07471">
        <ele>124.13</ele>
        <time>2017-09-17T11:01:15Z</time>
      </trkpt>
      <trkpt lat="48.52994" lon="2.07488">
        <ele>124</ele>
        <time>2017-09-17T11:01:28Z</time>
      </trkpt>
      <trkpt lat="48.53011" lon="2.07507">
        <ele>123.67</ele>
        <time>2017-09-17T11:01:47Z</time>
      </trkpt>
      <trkpt lat="48.5303" lon="2.07532">
        <ele>123.31</ele>
        <time>2017-09-17T11:02:09Z</time>
      </trkpt>
      <trkpt lat="48.53041" lon="2.07548">
        <ele>122.5</ele>
        <time>2017-09-17T11:02:23Z</time>
      </trkpt>
      <trkpt lat="48.53053" lon="2.07573">
        <ele>122.22</ele>
        <time>2017-09-17T11:02:41Z</time>
      </trkpt>
      <trkpt lat="48.53064" lon="2.0759">
        <ele>122.23</ele>
        <time>2017-09-17T11:02:54Z</time>
      </trkpt>
      <trkpt lat="48.53075" lon="2.07604">
        <ele>121.72</ele>
        <time>2017-09-17T11:03:08Z</time>
      </trkpt>
      <trkpt lat="48.53082" lon="2.07612">
        <ele>121.79</ele>
        <time>2017-09-17T11:03:17Z</time>
      </trkpt>
      <trkpt lat="48.53095" lon="2.07635">
        <ele>120.88</ele>
        <time>2017-09-17T11:03:36Z</time>
      </trkpt>
      <trkpt lat="48.5311" lon="2.07662">
        <ele>120.31</ele>
        <time>2017-09-17T11:03:57Z</time>
      </trkpt>
      <trkpt lat="48.53113" lon="2.07667">
        <ele>119.91</ele>
        <time>2017-09-17T11:04:01Z</time>
      </trkpt>
      <trkpt lat="48.53121" lon="2.07689">
        <ele>119.79</ele>
        <time>2017-09-17T11:04:16Z</time>
      </trkpt>
      <trkpt lat="48.53124" lon="2.07695">
        <ele>120.63</ele>
        <time>2017-09-17T11:04:20Z</time>
      </trkpt>
      <trkpt lat="48.5313" lon="2.07723">
        <ele>119.29</ele>
        <time>2017-09-17T11:04:36Z</time>
      </trkpt>
      <trkpt lat="48.53139" lon="2.07752">
        <ele>118.95</ele>
        <time>2017-09-17T11:04:54Z</time>
      </trkpt>
      <trkpt lat="48.5314" lon="2.07754">
        <ele>118.42</ele>
        <time>2017-09-17T11:04:56Z</time>
      </trkpt>
      <trkpt lat="48.53147" lon="2.07758">
        <ele>118.73</ele>
        <time>2017-09-17T11:05:02Z</time>
      </trkpt>
      <trkpt lat="48.5316" lon="2.07773">
        <ele>117.17</ele>
        <time>2017-09-17T11:05:18Z</time>
      </trkpt>
      <trkpt lat="48.53175" lon="2.0779">
        <ele>117.2</ele>
        <time>2017-09-17T11:05:34Z</time>
      </trkpt>
      <trkpt lat="48.5318" lon="2.07802">
        <ele>115.82</ele>
        <time>2017-09-17T11:05:48Z</time>
      </trkpt>
      <trkpt lat="48.5318" lon="2.07807">
        <ele>114.57</ele>
        <time>2017-09-17T11:05:51Z</time>
      </trkpt>
      <trkpt lat="48.53183" lon="2.0782">
        <ele>113.33</ele>
        <time>2017-09-17T11:06:01Z</time>
      </trkpt>
      <trkpt lat="48.53187" lon="2.07851">
        <ele>110.09</ele>
        <time>2017-09-17T11:06:23Z</time>
      </trkpt>
      <trkpt lat="48.53188" lon="2.07874">
        <ele>108.6</ele>
        <time>2017-09-17T11:06:38Z</time>
      </trkpt>
      <trkpt lat="48.53189" lon="2.07882">
        <ele>108.02</ele>
        <time>2017-09-17T11:06:44Z</time>
      </trkpt>
      <trkpt lat="48.53192" lon="2.07883">
        <ele>107.86</ele>
        <time>2017-09-17T11:06:47Z</time>
      </trkpt>
      <trkpt lat="48.53207" lon="2.07884">
        <ele>107.5</ele>
        <time>2017-09-17T11:07:03Z</time>
      </trkpt>
      <trkpt lat="48.53225" lon="2.0789">
        <ele>105.8</ele>
        <time>2017-09-17T11:07:22Z</time>
      </trkpt>
      <trkpt lat="48.53238" lon="2.07898">
        <ele>104.56</ele>
        <time>2017-09-17T11:07:36Z</time>
      </trkpt>
      <trkpt lat="48.53255" lon="2.07909">
        <ele>103.33</ele>
        <time>2017-09-17T11:07:52Z</time>
      </trkpt>
      <trkpt lat="48.5326" lon="2.07913">
        <ele>102.23</ele>
        <time>2017-09-17T11:07:58Z</time>
      </trkpt>
      <trkpt lat="48.53278" lon="2.07927">
        <ele>99.46</ele>
        <time>2017-09-17T11:08:15Z</time>
      </trkpt>
      <trkpt lat="48.53299" lon="2.07944">
        <ele>96.79</ele>
        <time>2017-09-17T11:08:34Z</time>
      </trkpt>
      <trkpt lat="48.53314" lon="2.07951">
        <ele>94.46</ele>
        <time>2017-09-17T11:08:49Z</time>
      </trkpt>
      <trkpt lat="48.5332" lon="2.07955">
        <ele>92.7</ele>
        <time>2017-09-17T11:08:57Z</time>
      </trkpt>
      <trkpt lat="48.53326" lon="2.07958">
        <ele>91.65</ele>
        <time>2017-09-17T11:09:04Z</time>
      </trkpt>
      <trkpt lat="48.53329" lon="2.0796">
        <ele>91.09</ele>
        <time>2017-09-17T11:09:07Z</time>
      </trkpt>
      <trkpt lat="48.53332" lon="2.0797">
        <ele>90.68</ele>
        <time>2017-09-17T11:09:13Z</time>
      </trkpt>
      <trkpt lat="48.53332" lon="2.07973">
        <ele>90.34</ele>
        <time>2017-09-17T11:09:15Z</time>
      </trkpt>
      <trkpt lat="48.53333" lon="2.07978">
        <ele>90.12</ele>
        <time>2017-09-17T11:09:18Z</time>
      </trkpt>
      <trkpt lat="48.53337" lon="2.07994">
        <ele>88.46</ele>
        <time>2017-09-17T11:09:33Z</time>
      </trkpt>
      <trkpt lat="48.53349" lon="2.07998">
        <ele>86.37</ele>
        <time>2017-09-17T11:09:46Z</time>
      </trkpt>
      <trkpt lat="48.53372" lon="2.08006">
        <ele>84.09</ele>
        <time>2017-09-17T11:10:06Z</time>
      </trkpt>
      <trkpt lat="48.53378" lon="2.08005">
        <ele>83.39</ele>
        <time>2017-09-17T11:10:12Z</time>
      </trkpt>
      <trkpt lat="48.53396" lon="2.07998">
        <ele>82.3</ele>
        <time>2017-09-17T11:10:28Z</time>
      </trkpt>
      <trkpt lat="48.53401" lon="2.07996">
        <ele>82.58</ele>
        <time>2017-09-17T11:10:45Z</time>
      </trkpt>
      <trkpt lat="48.53409" lon="2.07995">
        <ele>82.59</ele>
        <time>2017-09-17T11:11:06Z</time>
      </trkpt>
      <trkpt lat="48.53411" lon="2.07994">
        <ele>82.34</ele>
        <time>2017-09-17T11:11:08Z</time>
      </trkpt>
      <trkpt lat="48.53414" lon="2.07992">
        <ele>82.44</ele>
        <time>2017-09-17T11:11:13Z</time>
      </trkpt>
      <trkpt lat="48.53428" lon="2.07987">
        <ele>81.86</ele>
        <time>2017-09-17T11:11:28Z</time>
      </trkpt>
      <trkpt lat="48.5345" lon="2.07981">
        <ele>80.38</ele>
        <time>2017-09-17T11:11:49Z</time>
      </trkpt>
      <trkpt lat="48.53463" lon="2.07978">
        <ele>79.43</ele>
        <time>2017-09-17T11:12:01Z</time>
      </trkpt>
      <trkpt lat="48.53482" lon="2.07976">
        <ele>78.34</ele>
        <time>2017-09-17T11:12:16Z</time>
      </trkpt>
      <trkpt lat="48.53497" lon="2.07973">
        <ele>77.22</ele>
        <time>2017-09-17T11:12:30Z</time>
      </trkpt>
      <trkpt lat="48.53508" lon="2.07969">
        <ele>76.28</ele>
        <time>2017-09-17T11:12:39Z</time>
      </trkpt>
      <trkpt lat="48.53511" lon="2.07969">
        <ele>76.62</ele>
        <time>2017-09-17T11:12:41Z</time>
      </trkpt>
      <trkpt lat="48.53531" lon="2.07962">
        <ele>74.97</ele>
        <time>2017-09-17T11:12:57Z</time>
      </trkpt>
      <trkpt lat="48.53552" lon="2.07956">
        <ele>73.17</ele>
        <time>2017-09-17T11:13:11Z</time>
      </trkpt>
      <trkpt lat="48.53568" lon="2.07951">
        <ele>70.65</ele>
        <time>2017-09-17T11:13:27Z</time>
      </trkpt>
      <trkpt lat="48.5358" lon="2.07953">
        <ele>69.66</ele>
        <time>2017-09-17T11:13:39Z</time>
      </trkpt>
      <trkpt lat="48.53583" lon="2.07954">
        <ele>69.72</ele>
        <time>2017-09-17T11:13:41Z</time>
      </trkpt>
      <trkpt lat="48.53586" lon="2.07957">
        <ele>69.44</ele>
        <time>2017-09-17T11:13:44Z</time>
      </trkpt>
      <trkpt lat="48.53595" lon="2.07964">
        <ele>69.28</ele>
        <time>2017-09-17T11:13:51Z</time>
      </trkpt>
      <trkpt lat="48.53598" lon="2.07968">
        <ele>68.79</ele>
        <time>2017-09-17T11:13:55Z</time>
      </trkpt>
      <trkpt lat="48.53607" lon="2.07985">
        <ele>68.21</ele>
        <time>2017-09-17T11:14:10Z</time>
      </trkpt>
      <trkpt lat="48.53619" lon="2.07996">
        <ele>66.51</ele>
        <time>2017-09-17T11:14:30Z</time>
      </trkpt>
      <trkpt lat="48.53631" lon="2.08005">
        <ele>65.75</ele>
        <time>2017-09-17T11:15:21Z</time>
      </trkpt>
      <trkpt lat="48.53629" lon="2.07996">
        <ele>62.72</ele>
        <time>2017-09-17T11:17:47Z</time>
      </trkpt>
      <trkpt lat="48.53626" lon="2.07984">
        <ele>70.18</ele>
        <time>2017-09-17T11:46:57Z</time>
      </trkpt>
      <trkpt lat="48.53639" lon="2.07976">
        <ele>69.19</ele>
        <time>2017-09-17T11:47:12Z</time>
      </trkpt>
      <trkpt lat="48.53646" lon="2.07986">
        <ele>69.7</ele>
        <time>2017-09-17T11:47:31Z</time>
      </trkpt>
      <trkpt lat="48.53647" lon="2.07992">
        <ele>69.51</ele>
        <time>2017-09-17T11:47:47Z</time>
      </trkpt>
      <trkpt lat="48.53649" lon="2.08005">
        <ele>69.23</ele>
        <time>2017-09-17T11:48:02Z</time>
      </trkpt>
      <trkpt lat="48.53653" lon="2.08009">
        <ele>69.12</ele>
        <time>2017-09-17T11:48:07Z</time>
      </trkpt>
      <trkpt lat="48.53656" lon="2.0802">
        <ele>69.51</ele>
        <time>2017-09-17T11:48:15Z</time>
      </trkpt>
      <trkpt lat="48.53655" lon="2.08027">
        <ele>69.56</ele>
        <time>2017-09-17T11:48:19Z</time>
      </trkpt>
      <trkpt lat="48.53654" lon="2.0803">
        <ele>68.91</ele>
        <time>2017-09-17T11:48:21Z</time>
      </trkpt>
      <trkpt lat="48.5365" lon="2.0805">
        <ele>69.36</ele>
        <time>2017-09-17T11:48:36Z</time>
      </trkpt>
      <trkpt lat="48.53644" lon="2.08057">
        <ele>69.18</ele>
        <time>2017-09-17T11:48:41Z</time>
      </trkpt>
      <trkpt lat="48.53643" lon="2.08058">
        <ele>68.95</ele>
        <time>2017-09-17T11:49:01Z</time>
      </trkpt>
      <trkpt lat="48.53647" lon="2.08054">
        <ele>69.13</ele>
        <time>2017-09-17T11:49:23Z</time>
      </trkpt>
      <trkpt lat="48.53651" lon="2.08054">
        <ele>69.11</ele>
        <time>2017-09-17T11:49:27Z</time>
      </trkpt>
      <trkpt lat="48.53658" lon="2.08055">
        <ele>68.85</ele>
        <time>2017-09-17T11:49:33Z</time>
      </trkpt>
      <trkpt lat="48.53675" lon="2.08068">
        <ele>69.05</ele>
        <time>2017-09-17T11:49:50Z</time>
      </trkpt>
      <trkpt lat="48.53685" lon="2.08085">
        <ele>68.2</ele>
        <time>2017-09-17T11:50:04Z</time>
      </trkpt>
      <trkpt lat="48.53694" lon="2.08091">
        <ele>67.87</ele>
        <time>2017-09-17T11:50:19Z</time>
      </trkpt>
      <trkpt lat="48.53695" lon="2.08091">
        <ele>67.72</ele>
        <time>2017-09-17T11:50:42Z</time>
      </trkpt>
      <trkpt lat="48.53704" lon="2.08088">
        <ele>67.47</ele>
        <time>2017-09-17T11:51:04Z</time>
      </trkpt>
      <trkpt lat="48.53707" lon="2.08088">
        <ele>68.19</ele>
        <time>2017-09-17T11:51:07Z</time>
      </trkpt>
      <trkpt lat="48.53715" lon="2.08096">
        <ele>67.71</ele>
        <time>2017-09-17T11:51:22Z</time>
      </trkpt>
      <trkpt lat="48.5371" lon="2.08106">
        <ele>67.38</ele>
        <time>2017-09-17T11:51:32Z</time>
      </trkpt>
      <trkpt lat="48.53709" lon="2.08119">
        <ele>67.95</ele>
        <time>2017-09-17T11:51:42Z</time>
      </trkpt>
      <trkpt lat="48.53714" lon="2.08136">
        <ele>68.24</ele>
        <time>2017-09-17T11:51:53Z</time>
      </trkpt>
      <trkpt lat="48.53726" lon="2.08164">
        <ele>69.78</ele>
        <time>2017-09-17T11:52:14Z</time>
      </trkpt>
      <trkpt lat="48.53713" lon="2.08157">
        <ele>69.45</ele>
        <time>2017-09-17T11:53:15Z</time>
      </trkpt>
      <trkpt lat="48.53712" lon="2.08161">
        <ele>69.84</ele>
        <time>2017-09-17T11:53:28Z</time>
      </trkpt>
      <trkpt lat="48.53706" lon="2.08176">
        <ele>71.31</ele>
        <time>2017-09-17T11:53:43Z</time>
      </trkpt>
      <trkpt lat="48.53704" lon="2.08197">
        <ele>74.53</ele>
        <time>2017-09-17T11:54:00Z</time>
      </trkpt>
      <trkpt lat="48.53696" lon="2.08219">
        <ele>76.65</ele>
        <time>2017-09-17T11:54:18Z</time>
      </trkpt>
      <trkpt lat="48.53693" lon="2.08245">
        <ele>78.43</ele>
        <time>2017-09-17T11:54:35Z</time>
      </trkpt>
      <trkpt lat="48.53688" lon="2.08262">
        <ele>81.5</ele>
        <time>2017-09-17T11:54:54Z</time>
      </trkpt>
      <trkpt lat="48.5368" lon="2.0829">
        <ele>83.79</ele>
        <time>2017-09-17T11:55:14Z</time>
      </trkpt>
      <trkpt lat="48.53677" lon="2.08316">
        <ele>86.75</ele>
        <time>2017-09-17T11:55:36Z</time>
      </trkpt>
      <trkpt lat="48.53672" lon="2.08344">
        <ele>89.79</ele>
        <time>2017-09-17T11:55:55Z</time>
      </trkpt>
      <trkpt lat="48.53665" lon="2.08361">
        <ele>91.08</ele>
        <time>2017-09-17T11:56:11Z</time>
      </trkpt>
      <trkpt lat="48.53663" lon="2.08379">
        <ele>92.16</ele>
        <time>2017-09-17T11:56:30Z</time>
      </trkpt>
      <trkpt lat="48.53658" lon="2.08408">
        <ele>93.95</ele>
        <time>2017-09-17T11:56:51Z</time>
      </trkpt>
      <trkpt lat="48.53641" lon="2.08433">
        <ele>95.88</ele>
        <time>2017-09-17T11:57:10Z</time>
      </trkpt>
      <trkpt lat="48.53628" lon="2.08447">
        <ele>98.13</ele>
        <time>2017-09-17T11:57:31Z</time>
      </trkpt>
      <trkpt lat="48.53627" lon="2.08469">
        <ele>99.18</ele>
        <time>2017-09-17T11:57:52Z</time>
      </trkpt>
      <trkpt lat="48.53618" lon="2.08488">
        <ele>99.95</ele>
        <time>2017-09-17T11:58:12Z</time>
      </trkpt>
      <trkpt lat="48.53603" lon="2.08502">
        <ele>99.62</ele>
        <time>2017-09-17T11:58:28Z</time>
      </trkpt>
      <trkpt lat="48.53606" lon="2.08508">
        <ele>99.59</ele>
        <time>2017-09-17T11:58:59Z</time>
      </trkpt>
      <trkpt lat="48.53604" lon="2.08513">
        <ele>99.77</ele>
        <time>2017-09-17T11:59:32Z</time>
      </trkpt>
      <trkpt lat="48.53594" lon="2.08511">
        <ele>100.47</ele>
        <time>2017-09-17T11:59:58Z</time>
      </trkpt>
      <trkpt lat="48.53573" lon="2.08509">
        <ele>101.97</ele>
        <time>2017-09-17T12:00:19Z</time>
      </trkpt>
      <trkpt lat="48.53556" lon="2.08515">
        <ele>101.93</ele>
        <time>2017-09-17T12:00:33Z</time>
      </trkpt>
      <trkpt lat="48.53542" lon="2.08527">
        <ele>100.88</ele>
        <time>2017-09-17T12:00:46Z</time>
      </trkpt>
      <trkpt lat="48.53529" lon="2.08547">
        <ele>100.7</ele>
        <time>2017-09-17T12:01:03Z</time>
      </trkpt>
      <trkpt lat="48.53519" lon="2.08564">
        <ele>98.62</ele>
        <time>2017-09-17T12:01:18Z</time>
      </trkpt>
      <trkpt lat="48.53517" lon="2.08566">
        <ele>98.45</ele>
        <time>2017-09-17T12:01:20Z</time>
      </trkpt>
      <trkpt lat="48.53499" lon="2.08581">
        <ele>97.38</ele>
        <time>2017-09-17T12:01:36Z</time>
      </trkpt>
      <trkpt lat="48.53489" lon="2.08589">
        <ele>96.42</ele>
        <time>2017-09-17T12:01:50Z</time>
      </trkpt>
      <trkpt lat="48.53488" lon="2.08592">
        <ele>96.59</ele>
        <time>2017-09-17T12:02:11Z</time>
      </trkpt>
      <trkpt lat="48.53482" lon="2.08598">
        <ele>97.1</ele>
        <time>2017-09-17T12:02:21Z</time>
      </trkpt>
      <trkpt lat="48.53479" lon="2.08603">
        <ele>95.88</ele>
        <time>2017-09-17T12:02:25Z</time>
      </trkpt>
      <trkpt lat="48.53477" lon="2.08605">
        <ele>95.5</ele>
        <time>2017-09-17T12:02:27Z</time>
      </trkpt>
      <trkpt lat="48.53465" lon="2.08625">
        <ele>94.47</ele>
        <time>2017-09-17T12:02:42Z</time>
      </trkpt>
      <trkpt lat="48.53449" lon="2.08656">
        <ele>93.13</ele>
        <time>2017-09-17T12:03:04Z</time>
      </trkpt>
      <trkpt lat="48.53448" lon="2.08657">
        <ele>93.08</ele>
        <time>2017-09-17T12:03:05Z</time>
      </trkpt>
      <trkpt lat="48.53444" lon="2.08662">
        <ele>93</ele>
        <time>2017-09-17T12:03:09Z</time>
      </trkpt>
      <trkpt lat="48.53434" lon="2.08684">
        <ele>92.44</ele>
        <time>2017-09-17T12:03:25Z</time>
      </trkpt>
      <trkpt lat="48.53424" lon="2.08706">
        <ele>92.24</ele>
        <time>2017-09-17T12:03:39Z</time>
      </trkpt>
      <trkpt lat="48.53419" lon="2.08719">
        <ele>91.23</ele>
        <time>2017-09-17T12:03:48Z</time>
      </trkpt>
      <trkpt lat="48.5341" lon="2.08741">
        <ele>91.7</ele>
        <time>2017-09-17T12:04:02Z</time>
      </trkpt>
      <trkpt lat="48.53401" lon="2.08764">
        <ele>90.93</ele>
        <time>2017-09-17T12:04:17Z</time>
      </trkpt>
      <trkpt lat="48.53392" lon="2.08787">
        <ele>90.56</ele>
        <time>2017-09-17T12:04:32Z</time>
      </trkpt>
      <trkpt lat="48.53383" lon="2.08811">
        <ele>90.13</ele>
        <time>2017-09-17T12:04:47Z</time>
      </trkpt>
      <trkpt lat="48.53378" lon="2.08827">
        <ele>89.99</ele>
        <time>2017-09-17T12:04:57Z</time>
      </trkpt>
      <trkpt lat="48.53369" lon="2.08847">
        <ele>89.9</ele>
        <time>2017-09-17T12:05:12Z</time>
      </trkpt>
      <trkpt lat="48.5336" lon="2.08865">
        <ele>90.43</ele>
        <time>2017-09-17T12:05:28Z</time>
      </trkpt>
      <trkpt lat="48.53347" lon="2.08884">
        <ele>90.98</ele>
        <time>2017-09-17T12:05:47Z</time>
      </trkpt>
      <trkpt lat="48.53346" lon="2.08885">
        <ele>91.04</ele>
        <time>2017-09-17T12:05:48Z</time>
      </trkpt>
      <trkpt lat="48.53336" lon="2.08905">
        <ele>92.14</ele>
        <time>2017-09-17T12:06:08Z</time>
      </trkpt>
      <trkpt lat="48.53326" lon="2.08929">
        <ele>93.5</ele>
        <time>2017-09-17T12:06:26Z</time>
      </trkpt>
      <trkpt lat="48.53317" lon="2.08954">
        <ele>94.78</ele>
        <time>2017-09-17T12:06:43Z</time>
      </trkpt>
      <trkpt lat="48.53305" lon="2.08975">
        <ele>96.38</ele>
        <time>2017-09-17T12:07:01Z</time>
      </trkpt>
      <trkpt lat="48.53291" lon="2.09013">
        <ele>98.91</ele>
        <time>2017-09-17T12:07:23Z</time>
      </trkpt>
      <trkpt lat="48.5329" lon="2.09016">
        <ele>99.74</ele>
        <time>2017-09-17T12:07:25Z</time>
      </trkpt>
      <trkpt lat="48.53274" lon="2.09034">
        <ele>101.08</ele>
        <time>2017-09-17T12:07:43Z</time>
      </trkpt>
      <trkpt lat="48.53262" lon="2.09042">
        <ele>102.66</ele>
        <time>2017-09-17T12:08:02Z</time>
      </trkpt>
      <trkpt lat="48.53253" lon="2.09056">
        <ele>105.31</ele>
        <time>2017-09-17T12:08:19Z</time>
      </trkpt>
      <trkpt lat="48.53245" lon="2.0908">
        <ele>108.62</ele>
        <time>2017-09-17T12:08:37Z</time>
      </trkpt>
      <trkpt lat="48.53234" lon="2.09103">
        <ele>110.62</ele>
        <time>2017-09-17T12:08:55Z</time>
      </trkpt>
      <trkpt lat="48.53231" lon="2.09109">
        <ele>111.62</ele>
        <time>2017-09-17T12:08:59Z</time>
      </trkpt>
      <trkpt lat="48.53218" lon="2.09131">
        <ele>114.02</ele>
        <time>2017-09-17T12:09:20Z</time>
      </trkpt>
      <trkpt lat="48.53213" lon="2.09151">
        <ele>116.52</ele>
        <time>2017-09-17T12:09:41Z</time>
      </trkpt>
      <trkpt lat="48.5321" lon="2.09177">
        <ele>119.68</ele>
        <time>2017-09-17T12:10:00Z</time>
      </trkpt>
      <trkpt lat="48.53205" lon="2.09201">
        <ele>121.92</ele>
        <time>2017-09-17T12:10:20Z</time>
      </trkpt>
      <trkpt lat="48.53203" lon="2.09231">
        <ele>123.48</ele>
        <time>2017-09-17T12:10:37Z</time>
      </trkpt>
      <trkpt lat="48.53202" lon="2.09261">
        <ele>125.75</ele>
        <time>2017-09-17T12:10:56Z</time>
      </trkpt>
      <trkpt lat="48.53201" lon="2.09292">
        <ele>127.87</ele>
        <time>2017-09-17T12:11:16Z</time>
      </trkpt>
      <trkpt lat="48.53198" lon="2.09321">
        <ele>129.12</ele>
        <time>2017-09-17T12:11:37Z</time>
      </trkpt>
      <trkpt lat="48.53192" lon="2.09329">
        <ele>128.91</ele>
        <time>2017-09-17T12:12:04Z</time>
      </trkpt>
      <trkpt lat="48.53195" lon="2.09328">
        <ele>128.99</ele>
        <time>2017-09-17T12:12:31Z</time>
      </trkpt>
      <trkpt lat="48.53196" lon="2.09326">
        <ele>128.9</ele>
        <time>2017-09-17T12:12:54Z</time>
      </trkpt>
      <trkpt lat="48.53195" lon="2.09327">
        <ele>129.13</ele>
        <time>2017-09-17T12:13:19Z</time>
      </trkpt>
      <trkpt lat="48.53196" lon="2.09325">
        <ele>129.17</ele>
        <time>2017-09-17T12:13:43Z</time>
      </trkpt>
      <trkpt lat="48.53197" lon="2.09324">
        <ele>129.04</ele>
        <time>2017-09-17T12:14:10Z</time>
      </trkpt>
      <trkpt lat="48.53205" lon="2.0933">
        <ele>129.64</ele>
        <time>2017-09-17T12:14:32Z</time>
      </trkpt>
      <trkpt lat="48.53212" lon="2.09349">
        <ele>130.14</ele>
        <time>2017-09-17T12:14:48Z</time>
      </trkpt>
      <trkpt lat="48.53221" lon="2.09367">
        <ele>129.94</ele>
        <time>2017-09-17T12:15:07Z</time>
      </trkpt>
      <trkpt lat="48.53224" lon="2.09373">
        <ele>129.66</ele>
        <time>2017-09-17T12:15:12Z</time>
      </trkpt>
      <trkpt lat="48.53234" lon="2.09389">
        <ele>130.12</ele>
        <time>2017-09-17T12:15:24Z</time>
      </trkpt>
      <trkpt lat="48.53248" lon="2.0941">
        <ele>130.58</ele>
        <time>2017-09-17T12:15:39Z</time>
      </trkpt>
      <trkpt lat="48.53258" lon="2.09432">
        <ele>131.17</ele>
        <time>2017-09-17T12:15:57Z</time>
      </trkpt>
      <trkpt lat="48.53257" lon="2.09442">
        <ele>131.01</ele>
        <time>2017-09-17T12:16:07Z</time>
      </trkpt>
      <trkpt lat="48.53247" lon="2.09469">
        <ele>130.16</ele>
        <time>2017-09-17T12:16:25Z</time>
      </trkpt>
      <trkpt lat="48.53241" lon="2.09489">
        <ele>130.61</ele>
        <time>2017-09-17T12:16:39Z</time>
      </trkpt>
      <trkpt lat="48.53239" lon="2.0952">
        <ele>130.71</ele>
        <time>2017-09-17T12:16:58Z</time>
      </trkpt>
      <trkpt lat="48.53237" lon="2.09558">
        <ele>130.63</ele>
        <time>2017-09-17T12:17:19Z</time>
      </trkpt>
      <trkpt lat="48.53237" lon="2.09564">
        <ele>130.97</ele>
        <time>2017-09-17T12:17:22Z</time>
      </trkpt>
      <trkpt lat="48.53241" lon="2.09577">
        <ele>130.22</ele>
        <time>2017-09-17T12:17:31Z</time>
      </trkpt>
      <trkpt lat="48.53241" lon="2.09602">
        <ele>130.19</ele>
        <time>2017-09-17T12:17:46Z</time>
      </trkpt>
      <trkpt lat="48.5324" lon="2.09632">
        <ele>130.02</ele>
        <time>2017-09-17T12:18:01Z</time>
      </trkpt>
      <trkpt lat="48.53243" lon="2.09663">
        <ele>130.57</ele>
        <time>2017-09-17T12:18:18Z</time>
      </trkpt>
      <trkpt lat="48.53249" lon="2.09691">
        <ele>130.25</ele>
        <time>2017-09-17T12:18:34Z</time>
      </trkpt>
      <trkpt lat="48.53256" lon="2.09716">
        <ele>129.61</ele>
        <time>2017-09-17T12:18:50Z</time>
      </trkpt>
      <trkpt lat="48.53262" lon="2.09734">
        <ele>129.99</ele>
        <time>2017-09-17T12:19:03Z</time>
      </trkpt>
      <trkpt lat="48.53264" lon="2.09739">
        <ele>129.55</ele>
        <time>2017-09-17T12:19:07Z</time>
      </trkpt>
      <trkpt lat="48.53272" lon="2.09765">
        <ele>129.24</ele>
        <time>2017-09-17T12:19:24Z</time>
      </trkpt>
      <trkpt lat="48.5328" lon="2.09802">
        <ele>129.56</ele>
        <time>2017-09-17T12:19:44Z</time>
      </trkpt>
      <trkpt lat="48.53289" lon="2.09827">
        <ele>129.1</ele>
        <time>2017-09-17T12:20:01Z</time>
      </trkpt>
      <trkpt lat="48.53297" lon="2.09853">
        <ele>127.64</ele>
        <time>2017-09-17T12:20:17Z</time>
      </trkpt>
      <trkpt lat="48.53298" lon="2.09862">
        <ele>128.04</ele>
        <time>2017-09-17T12:20:32Z</time>
      </trkpt>
      <trkpt lat="48.53299" lon="2.09866">
        <ele>128.28</ele>
        <time>2017-09-17T12:20:41Z</time>
      </trkpt>
      <trkpt lat="48.53311" lon="2.09895">
        <ele>127.41</ele>
        <time>2017-09-17T12:20:59Z</time>
      </trkpt>
      <trkpt lat="48.53312" lon="2.099">
        <ele>127.14</ele>
        <time>2017-09-17T12:21:09Z</time>
      </trkpt>
      <trkpt lat="48.53313" lon="2.09902">
        <ele>127.1</ele>
        <time>2017-09-17T12:21:11Z</time>
      </trkpt>
      <trkpt lat="48.53317" lon="2.09925">
        <ele>127.21</ele>
        <time>2017-09-17T12:21:27Z</time>
      </trkpt>
      <trkpt lat="48.53317" lon="2.09955">
        <ele>127.18</ele>
        <time>2017-09-17T12:21:45Z</time>
      </trkpt>
      <trkpt lat="48.53317" lon="2.09964">
        <ele>127.33</ele>
        <time>2017-09-17T12:21:51Z</time>
      </trkpt>
      <trkpt lat="48.53314" lon="2.09994">
        <ele>127.64</ele>
        <time>2017-09-17T12:22:09Z</time>
      </trkpt>
      <trkpt lat="48.53314" lon="2.10007">
        <ele>127.99</ele>
        <time>2017-09-17T12:22:17Z</time>
      </trkpt>
      <trkpt lat="48.53317" lon="2.10025">
        <ele>128.62</ele>
        <time>2017-09-17T12:22:31Z</time>
      </trkpt>
      <trkpt lat="48.53317" lon="2.10026">
        <ele>128.6</ele>
        <time>2017-09-17T12:22:32Z</time>
      </trkpt>
      <trkpt lat="48.53318" lon="2.10029">
        <ele>128.3</ele>
        <time>2017-09-17T12:22:34Z</time>
      </trkpt>
      <trkpt lat="48.53326" lon="2.10051">
        <ele>128.7</ele>
        <time>2017-09-17T12:22:48Z</time>
      </trkpt>
      <trkpt lat="48.53332" lon="2.1007">
        <ele>129.18</ele>
        <time>2017-09-17T12:23:01Z</time>
      </trkpt>
      <trkpt lat="48.5333" lon="2.10094">
        <ele>129.04</ele>
        <time>2017-09-17T12:23:15Z</time>
      </trkpt>
      <trkpt lat="48.53324" lon="2.10123">
        <ele>129.57</ele>
        <time>2017-09-17T12:23:33Z</time>
      </trkpt>
      <trkpt lat="48.53323" lon="2.1016">
        <ele>130.63</ele>
        <time>2017-09-17T12:23:55Z</time>
      </trkpt>
      <trkpt lat="48.53341" lon="2.10172">
        <ele>129.81</ele>
        <time>2017-09-17T12:24:12Z</time>
      </trkpt>
      <trkpt lat="48.53346" lon="2.10176">
        <ele>129.67</ele>
        <time>2017-09-17T12:24:20Z</time>
      </trkpt>
      <trkpt lat="48.53349" lon="2.10175">
        <ele>129.8</ele>
        <time>2017-09-17T12:24:24Z</time>
      </trkpt>
      <trkpt lat="48.53368" lon="2.10177">
        <ele>129.63</ele>
        <time>2017-09-17T12:24:40Z</time>
      </trkpt>
      <trkpt lat="48.53382" lon="2.1018">
        <ele>129.74</ele>
        <time>2017-09-17T12:24:54Z</time>
      </trkpt>
      <trkpt lat="48.53384" lon="2.1018">
        <ele>129.68</ele>
        <time>2017-09-17T12:24:57Z</time>
      </trkpt>
      <trkpt lat="48.53389" lon="2.10182">
        <ele>129.27</ele>
        <time>2017-09-17T12:25:02Z</time>
      </trkpt>
      <trkpt lat="48.53392" lon="2.10182">
        <ele>129.17</ele>
        <time>2017-09-17T12:25:04Z</time>
      </trkpt>
      <trkpt lat="48.53406" lon="2.10186">
        <ele>129.48</ele>
        <time>2017-09-17T12:25:20Z</time>
      </trkpt>
      <trkpt lat="48.5341" lon="2.10189">
        <ele>129.07</ele>
        <time>2017-09-17T12:25:24Z</time>
      </trkpt>
      <trkpt lat="48.53414" lon="2.10188">
        <ele>129.22</ele>
        <time>2017-09-17T12:25:41Z</time>
      </trkpt>
      <trkpt lat="48.5341" lon="2.10183">
        <ele>129.71</ele>
        <time>2017-09-17T12:26:04Z</time>
      </trkpt>
      <trkpt lat="48.53409" lon="2.10181">
        <ele>129.41</ele>
        <time>2017-09-17T12:26:33Z</time>
      </trkpt>
      <trkpt lat="48.53408" lon="2.10182">
        <ele>130.07</ele>
        <time>2017-09-17T12:26:54Z</time>
      </trkpt>
      <trkpt lat="48.53409" lon="2.10182">
        <ele>130.05</ele>
        <time>2017-09-17T12:27:22Z</time>
      </trkpt>
      <trkpt lat="48.53409" lon="2.10182">
        <ele>129.95</ele>
        <time>2017-09-17T12:27:41Z</time>
      </trkpt>
      <trkpt lat="48.5341" lon="2.10182">
        <ele>130.62</ele>
        <time>2017-09-17T12:27:51Z</time>
      </trkpt>
      <trkpt lat="48.53413" lon="2.10185">
        <ele>130.61</ele>
        <time>2017-09-17T12:27:55Z</time>
      </trkpt>
      <trkpt lat="48.53422" lon="2.10199">
        <ele>130.69</ele>
        <time>2017-09-17T12:28:06Z</time>
      </trkpt>
      <trkpt lat="48.53433" lon="2.10217">
        <ele>130.27</ele>
        <time>2017-09-17T12:28:20Z</time>
      </trkpt>
      <trkpt lat="48.5345" lon="2.10241">
        <ele>130.22</ele>
        <time>2017-09-17T12:28:40Z</time>
      </trkpt>
      <trkpt lat="48.53456" lon="2.10248">
        <ele>130.1</ele>
        <time>2017-09-17T12:28:53Z</time>
      </trkpt>
      <trkpt lat="48.53456" lon="2.10248">
        <ele>129.99</ele>
        <time>2017-09-17T12:29:08Z</time>
      </trkpt>
      <trkpt lat="48.53457" lon="2.1025">
        <ele>130.13</ele>
        <time>2017-09-17T12:29:14Z</time>
      </trkpt>
      <trkpt lat="48.53459" lon="2.1026">
        <ele>129.65</ele>
        <time>2017-09-17T12:29:21Z</time>
      </trkpt>
      <trkpt lat="48.53453" lon="2.10278">
        <ele>130.84</ele>
        <time>2017-09-17T12:29:36Z</time>
      </trkpt>
      <trkpt lat="48.53451" lon="2.1028">
        <ele>130.85</ele>
        <time>2017-09-17T12:29:42Z</time>
      </trkpt>
      <trkpt lat="48.53437" lon="2.10287">
        <ele>130.65</ele>
        <time>2017-09-17T12:29:58Z</time>
      </trkpt>
      <trkpt lat="48.53424" lon="2.10296">
        <ele>131.11</ele>
        <time>2017-09-17T12:30:12Z</time>
      </trkpt>
      <trkpt lat="48.5342" lon="2.10299">
        <ele>131.37</ele>
        <time>2017-09-17T12:30:16Z</time>
      </trkpt>
      <trkpt lat="48.53416" lon="2.10304">
        <ele>131.06</ele>
        <time>2017-09-17T12:30:20Z</time>
      </trkpt>
      <trkpt lat="48.53407" lon="2.10324">
        <ele>131.97</ele>
        <time>2017-09-17T12:30:36Z</time>
      </trkpt>
      <trkpt lat="48.53412" lon="2.10338">
        <ele>131.86</ele>
        <time>2017-09-17T12:30:49Z</time>
      </trkpt>
      <trkpt lat="48.53413" lon="2.1034">
        <ele>131.86</ele>
        <time>2017-09-17T12:30:50Z</time>
      </trkpt>
      <trkpt lat="48.53419" lon="2.10348">
        <ele>131.88</ele>
        <time>2017-09-17T12:30:57Z</time>
      </trkpt>
      <trkpt lat="48.53432" lon="2.10364">
        <ele>131.48</ele>
        <time>2017-09-17T12:31:12Z</time>
      </trkpt>
      <trkpt lat="48.53445" lon="2.10386">
        <ele>131.13</ele>
        <time>2017-09-17T12:31:28Z</time>
      </trkpt>
      <trkpt lat="48.53459" lon="2.10408">
        <ele>131.19</ele>
        <time>2017-09-17T12:31:45Z</time>
      </trkpt>
      <trkpt lat="48.53473" lon="2.10434">
        <ele>130.79</ele>
        <time>2017-09-17T12:32:03Z</time>
      </trkpt>
      <trkpt lat="48.53482" lon="2.10464">
        <ele>131</ele>
        <time>2017-09-17T12:32:22Z</time>
      </trkpt>
      <trkpt lat="48.53489" lon="2.1049">
        <ele>131.11</ele>
        <time>2017-09-17T12:32:38Z</time>
      </trkpt>
      <trkpt lat="48.53493" lon="2.10514">
        <ele>130.55</ele>
        <time>2017-09-17T12:32:53Z</time>
      </trkpt>
      <trkpt lat="48.53499" lon="2.10541">
        <ele>130.38</ele>
        <time>2017-09-17T12:33:10Z</time>
      </trkpt>
      <trkpt lat="48.53506" lon="2.10572">
        <ele>130.71</ele>
        <time>2017-09-17T12:33:28Z</time>
      </trkpt>
      <trkpt lat="48.53512" lon="2.10598">
        <ele>131.26</ele>
        <time>2017-09-17T12:33:44Z</time>
      </trkpt>
      <trkpt lat="48.53518" lon="2.1063">
        <ele>131.37</ele>
        <time>2017-09-17T12:34:03Z</time>
      </trkpt>
      <trkpt lat="48.53522" lon="2.1066">
        <ele>132.18</ele>
        <time>2017-09-17T12:34:20Z</time>
      </trkpt>
      <trkpt lat="48.53526" lon="2.10688">
        <ele>131.69</ele>
        <time>2017-09-17T12:34:36Z</time>
      </trkpt>
      <trkpt lat="48.5353" lon="2.10718">
        <ele>133.02</ele>
        <time>2017-09-17T12:34:53Z</time>
      </trkpt>
      <trkpt lat="48.53533" lon="2.10746">
        <ele>133.38</ele>
        <time>2017-09-17T12:35:10Z</time>
      </trkpt>
      <trkpt lat="48.53538" lon="2.10773">
        <ele>134.02</ele>
        <time>2017-09-17T12:35:26Z</time>
      </trkpt>
      <trkpt lat="48.53539" lon="2.10774">
        <ele>134.19</ele>
        <time>2017-09-17T12:35:27Z</time>
      </trkpt>
      <trkpt lat="48.53545" lon="2.10795">
        <ele>134.72</ele>
        <time>2017-09-17T12:35:43Z</time>
      </trkpt>
      <trkpt lat="48.53545" lon="2.10826">
        <ele>135.37</ele>
        <time>2017-09-17T12:36:03Z</time>
      </trkpt>
      <trkpt lat="48.53541" lon="2.10855">
        <ele>135.6</ele>
        <time>2017-09-17T12:36:25Z</time>
      </trkpt>
      <trkpt lat="48.5354" lon="2.10885">
        <ele>135.44</ele>
        <time>2017-09-17T12:36:44Z</time>
      </trkpt>
      <trkpt lat="48.53548" lon="2.10906">
        <ele>135.91</ele>
        <time>2017-09-17T12:36:57Z</time>
      </trkpt>
      <trkpt lat="48.53559" lon="2.10933">
        <ele>136.52</ele>
        <time>2017-09-17T12:37:13Z</time>
      </trkpt>
      <trkpt lat="48.53569" lon="2.10955">
        <ele>135.53</ele>
        <time>2017-09-17T12:37:28Z</time>
      </trkpt>
      <trkpt lat="48.53577" lon="2.10963">
        <ele>136.88</ele>
        <time>2017-09-17T12:37:46Z</time>
      </trkpt>
      <trkpt lat="48.53578" lon="2.10967">
        <ele>136.71</ele>
        <time>2017-09-17T12:37:50Z</time>
      </trkpt>
      <trkpt lat="48.53589" lon="2.10987">
        <ele>136.81</ele>
        <time>2017-09-17T12:38:05Z</time>
      </trkpt>
      <trkpt lat="48.53591" lon="2.10993">
        <ele>136.62</ele>
        <time>2017-09-17T12:38:09Z</time>
      </trkpt>
      <trkpt lat="48.53603" lon="2.11019">
        <ele>136.83</ele>
        <time>2017-09-17T12:38:27Z</time>
      </trkpt>
      <trkpt lat="48.53607" lon="2.11026">
        <ele>137.13</ele>
        <time>2017-09-17T12:38:32Z</time>
      </trkpt>
      <trkpt lat="48.53616" lon="2.11051">
        <ele>137.18</ele>
        <time>2017-09-17T12:38:48Z</time>
      </trkpt>
      <trkpt lat="48.53618" lon="2.11058">
        <ele>137.16</ele>
        <time>2017-09-17T12:38:53Z</time>
      </trkpt>
      <trkpt lat="48.53625" lon="2.11077">
        <ele>136.82</ele>
        <time>2017-09-17T12:39:09Z</time>
      </trkpt>
      <trkpt lat="48.53631" lon="2.11102">
        <ele>136.64</ele>
        <time>2017-09-17T12:39:32Z</time>
      </trkpt>
      <trkpt lat="48.53636" lon="2.11133">
        <ele>136.77</ele>
        <time>2017-09-17T12:39:55Z</time>
      </trkpt>
      <trkpt lat="48.53645" lon="2.11164">
        <ele>136.47</ele>
        <time>2017-09-17T12:40:17Z</time>
      </trkpt>
      <trkpt lat="48.53649" lon="2.11184">
        <ele>136.25</ele>
        <time>2017-09-17T12:40:33Z</time>
      </trkpt>
      <trkpt lat="48.53663" lon="2.11215">
        <ele>135.56</ele>
        <time>2017-09-17T12:40:56Z</time>
      </trkpt>
      <trkpt lat="48.53682" lon="2.11233">
        <ele>135.1</ele>
        <time>2017-09-17T12:41:18Z</time>
      </trkpt>
      <trkpt lat="48.53694" lon="2.1124">
        <ele>133.59</ele>
        <time>2017-09-17T12:41:33Z</time>
      </trkpt>
      <trkpt lat="48.53716" lon="2.11256">
        <ele>132.12</ele>
        <time>2017-09-17T12:41:57Z</time>
      </trkpt>
      <trkpt lat="48.53737" lon="2.11271">
        <ele>131.87</ele>
        <time>2017-09-17T12:42:15Z</time>
      </trkpt>
      <trkpt lat="48.53749" lon="2.11279">
        <ele>131.55</ele>
        <time>2017-09-17T12:42:36Z</time>
      </trkpt>
      <trkpt lat="48.53747" lon="2.11279">
        <ele>131.7</ele>
        <time>2017-09-17T12:43:06Z</time>
      </trkpt>
      <trkpt lat="48.53745" lon="2.11283">
        <ele>131.24</ele>
        <time>2017-09-17T12:43:35Z</time>
      </trkpt>
      <trkpt lat="48.53747" lon="2.11291">
        <ele>131.5</ele>
        <time>2017-09-17T12:44:04Z</time>
      </trkpt>
      <trkpt lat="48.53744" lon="2.11307">
        <ele>130.33</ele>
        <time>2017-09-17T12:44:16Z</time>
      </trkpt>
      <trkpt lat="48.53743" lon="2.11309">
        <ele>130.41</ele>
        <time>2017-09-17T12:44:18Z</time>
      </trkpt>
      <trkpt lat="48.5374" lon="2.11319">
        <ele>131.09</ele>
        <time>2017-09-17T12:44:24Z</time>
      </trkpt>
      <trkpt lat="48.53732" lon="2.11343">
        <ele>131.7</ele>
        <time>2017-09-17T12:44:38Z</time>
      </trkpt>
      <trkpt lat="48.53725" lon="2.11379">
        <ele>132.8</ele>
        <time>2017-09-17T12:44:59Z</time>
      </trkpt>
      <trkpt lat="48.53722" lon="2.11404">
        <ele>133.08</ele>
        <time>2017-09-17T12:45:15Z</time>
      </trkpt>
      <trkpt lat="48.53717" lon="2.11429">
        <ele>133.43</ele>
        <time>2017-09-17T12:45:30Z</time>
      </trkpt>
      <trkpt lat="48.53711" lon="2.11461">
        <ele>133.03</ele>
        <time>2017-09-17T12:45:51Z</time>
      </trkpt>
      <trkpt lat="48.5371" lon="2.11462">
        <ele>133.04</ele>
        <time>2017-09-17T12:45:52Z</time>
      </trkpt>
      <trkpt lat="48.53709" lon="2.11484">
        <ele>133.23</ele>
        <time>2017-09-17T12:46:06Z</time>
      </trkpt>
      <trkpt lat="48.53708" lon="2.11495">
        <ele>132.45</ele>
        <time>2017-09-17T12:46:12Z</time>
      </trkpt>
      <trkpt lat="48.53706" lon="2.115">
        <ele>133.42</ele>
        <time>2017-09-17T12:46:15Z</time>
      </trkpt>
      <trkpt lat="48.53704" lon="2.11524">
        <ele>134.61</ele>
        <time>2017-09-17T12:46:30Z</time>
      </trkpt>
      <trkpt lat="48.53697" lon="2.11546">
        <ele>134.06</ele>
        <time>2017-09-17T12:46:46Z</time>
      </trkpt>
      <trkpt lat="48.53695" lon="2.11569">
        <ele>134.06</ele>
        <time>2017-09-17T12:47:01Z</time>
      </trkpt>
      <trkpt lat="48.53692" lon="2.11579">
        <ele>134.67</ele>
        <time>2017-09-17T12:47:07Z</time>
      </trkpt>
      <trkpt lat="48.53686" lon="2.11607">
        <ele>134.41</ele>
        <time>2017-09-17T12:47:23Z</time>
      </trkpt>
      <trkpt lat="48.53683" lon="2.11636">
        <ele>134.46</ele>
        <time>2017-09-17T12:47:39Z</time>
      </trkpt>
      <trkpt lat="48.53674" lon="2.1165">
        <ele>134.77</ele>
        <time>2017-09-17T12:47:53Z</time>
      </trkpt>
      <trkpt lat="48.53668" lon="2.11649">
        <ele>135.69</ele>
        <time>2017-09-17T12:48:09Z</time>
      </trkpt>
      <trkpt lat="48.53664" lon="2.11648">
        <ele>134.82</ele>
        <time>2017-09-17T12:48:19Z</time>
      </trkpt>
      <trkpt lat="48.53661" lon="2.11649">
        <ele>134.71</ele>
        <time>2017-09-17T12:48:22Z</time>
      </trkpt>
      <trkpt lat="48.53652" lon="2.11652">
        <ele>136.59</ele>
        <time>2017-09-17T12:48:30Z</time>
      </trkpt>
      <trkpt lat="48.53636" lon="2.11655">
        <ele>136.98</ele>
        <time>2017-09-17T12:48:45Z</time>
      </trkpt>
      <trkpt lat="48.53624" lon="2.11657">
        <ele>137.4</ele>
        <time>2017-09-17T12:48:54Z</time>
      </trkpt>
      <trkpt lat="48.53609" lon="2.11663">
        <ele>137.88</ele>
        <time>2017-09-17T12:49:08Z</time>
      </trkpt>
      <trkpt lat="48.53606" lon="2.11666">
        <ele>137.85</ele>
        <time>2017-09-17T12:49:11Z</time>
      </trkpt>
      <trkpt lat="48.53593" lon="2.11669">
        <ele>138.32</ele>
        <time>2017-09-17T12:49:26Z</time>
      </trkpt>
      <trkpt lat="48.53591" lon="2.1167">
        <ele>138.06</ele>
        <time>2017-09-17T12:49:29Z</time>
      </trkpt>
      <trkpt lat="48.53588" lon="2.11671">
        <ele>138.22</ele>
        <time>2017-09-17T12:49:32Z</time>
      </trkpt>
      <trkpt lat="48.53571" lon="2.11678">
        <ele>138.8</ele>
        <time>2017-09-17T12:49:48Z</time>
      </trkpt>
      <trkpt lat="48.53554" lon="2.11684">
        <ele>138.8</ele>
        <time>2017-09-17T12:50:06Z</time>
      </trkpt>
      <trkpt lat="48.53552" lon="2.11688">
        <ele>138.95</ele>
        <time>2017-09-17T12:50:09Z</time>
      </trkpt>
      <trkpt lat="48.53551" lon="2.11719">
        <ele>138.74</ele>
        <time>2017-09-17T12:50:27Z</time>
      </trkpt>
      <trkpt lat="48.53554" lon="2.11739">
        <ele>138.74</ele>
        <time>2017-09-17T12:50:39Z</time>
      </trkpt>
      <trkpt lat="48.53559" lon="2.11772">
        <ele>139.2</ele>
        <time>2017-09-17T12:50:56Z</time>
      </trkpt>
      <trkpt lat="48.53561" lon="2.11801">
        <ele>138.46</ele>
        <time>2017-09-17T12:51:13Z</time>
      </trkpt>
      <trkpt lat="48.53564" lon="2.11825">
        <ele>138.69</ele>
        <time>2017-09-17T12:51:28Z</time>
      </trkpt>
      <trkpt lat="48.53568" lon="2.11851">
        <ele>138.9</ele>
        <time>2017-09-17T12:51:43Z</time>
      </trkpt>
      <trkpt lat="48.53572" lon="2.11882">
        <ele>138.06</ele>
        <time>2017-09-17T12:52:01Z</time>
      </trkpt>
      <trkpt lat="48.53574" lon="2.11897">
        <ele>138.45</ele>
        <time>2017-09-17T12:52:09Z</time>
      </trkpt>
      <trkpt lat="48.53575" lon="2.11909">
        <ele>138.44</ele>
        <time>2017-09-17T12:52:15Z</time>
      </trkpt>
      <trkpt lat="48.53577" lon="2.11915">
        <ele>138.46</ele>
        <time>2017-09-17T12:52:19Z</time>
      </trkpt>
      <trkpt lat="48.5358" lon="2.11945">
        <ele>138.83</ele>
        <time>2017-09-17T12:52:36Z</time>
      </trkpt>
      <trkpt lat="48.53582" lon="2.11954">
        <ele>138.49</ele>
        <time>2017-09-17T12:52:41Z</time>
      </trkpt>
      <trkpt lat="48.53586" lon="2.11976">
        <ele>138.19</ele>
        <time>2017-09-17T12:52:55Z</time>
      </trkpt>
      <trkpt lat="48.53589" lon="2.12003">
        <ele>137.92</ele>
        <time>2017-09-17T12:53:11Z</time>
      </trkpt>
      <trkpt lat="48.53594" lon="2.1203">
        <ele>137.84</ele>
        <time>2017-09-17T12:53:26Z</time>
      </trkpt>
      <trkpt lat="48.53597" lon="2.12039">
        <ele>137.6</ele>
        <time>2017-09-17T12:53:33Z</time>
      </trkpt>
      <trkpt lat="48.53599" lon="2.12044">
        <ele>137.4</ele>
        <time>2017-09-17T12:53:36Z</time>
      </trkpt>
      <trkpt lat="48.53602" lon="2.12056">
        <ele>136.48</ele>
        <time>2017-09-17T12:53:43Z</time>
      </trkpt>
      <trkpt lat="48.53606" lon="2.12065">
        <ele>136.23</ele>
        <time>2017-09-17T12:53:49Z</time>
      </trkpt>
      <trkpt lat="48.53613" lon="2.12087">
        <ele>135.97</ele>
        <time>2017-09-17T12:54:02Z</time>
      </trkpt>
      <trkpt lat="48.53616" lon="2.12103">
        <ele>135.8</ele>
        <time>2017-09-17T12:54:11Z</time>
      </trkpt>
      <trkpt lat="48.53625" lon="2.12129">
        <ele>135.33</ele>
        <time>2017-09-17T12:54:27Z</time>
      </trkpt>
      <trkpt lat="48.53635" lon="2.12158">
        <ele>134.17</ele>
        <time>2017-09-17T12:54:44Z</time>
      </trkpt>
      <trkpt lat="48.53637" lon="2.12171">
        <ele>133.88</ele>
        <time>2017-09-17T12:54:52Z</time>
      </trkpt>
      <trkpt lat="48.53646" lon="2.12195">
        <ele>133.52</ele>
        <time>2017-09-17T12:55:07Z</time>
      </trkpt>
      <trkpt lat="48.53657" lon="2.12218">
        <ele>132.67</ele>
        <time>2017-09-17T12:55:23Z</time>
      </trkpt>
      <trkpt lat="48.53668" lon="2.12242">
        <ele>132.43</ele>
        <time>2017-09-17T12:55:38Z</time>
      </trkpt>
      <trkpt lat="48.53672" lon="2.12252">
        <ele>132.64</ele>
        <time>2017-09-17T12:55:45Z</time>
      </trkpt>
      <trkpt lat="48.53682" lon="2.12281">
        <ele>131.78</ele>
        <time>2017-09-17T12:56:05Z</time>
      </trkpt>
      <trkpt lat="48.53682" lon="2.12282">
        <ele>132.02</ele>
        <time>2017-09-17T12:56:26Z</time>
      </trkpt>
      <trkpt lat="48.53684" lon="2.12286">
        <ele>132</ele>
        <time>2017-09-17T12:56:34Z</time>
      </trkpt>
      <trkpt lat="48.53686" lon="2.12288">
        <ele>131.58</ele>
        <time>2017-09-17T12:56:37Z</time>
      </trkpt>
      <trkpt lat="48.53688" lon="2.12294">
        <ele>131.39</ele>
        <time>2017-09-17T12:56:41Z</time>
      </trkpt>
      <trkpt lat="48.53702" lon="2.1232">
        <ele>131.62</ele>
        <time>2017-09-17T12:57:01Z</time>
      </trkpt>
      <trkpt lat="48.53706" lon="2.12328">
        <ele>130.62</ele>
        <time>2017-09-17T12:57:07Z</time>
      </trkpt>
      <trkpt lat="48.53715" lon="2.12354">
        <ele>130.01</ele>
        <time>2017-09-17T12:57:24Z</time>
      </trkpt>
      <trkpt lat="48.53715" lon="2.12355">
        <ele>129.89</ele>
        <time>2017-09-17T12:57:25Z</time>
      </trkpt>
      <trkpt lat="48.5372" lon="2.12383">
        <ele>129.76</ele>
        <time>2017-09-17T12:57:42Z</time>
      </trkpt>
      <trkpt lat="48.53726" lon="2.12414">
        <ele>128.8</ele>
        <time>2017-09-17T12:58:00Z</time>
      </trkpt>
      <trkpt lat="48.53735" lon="2.12441">
        <ele>129.06</ele>
        <time>2017-09-17T12:58:17Z</time>
      </trkpt>
      <trkpt lat="48.53739" lon="2.12464">
        <ele>128.53</ele>
        <time>2017-09-17T12:58:31Z</time>
      </trkpt>
      <trkpt lat="48.53747" lon="2.12495">
        <ele>128.21</ele>
        <time>2017-09-17T12:58:49Z</time>
      </trkpt>
      <trkpt lat="48.53747" lon="2.12497">
        <ele>128.55</ele>
        <time>2017-09-17T12:58:50Z</time>
      </trkpt>
      <trkpt lat="48.53748" lon="2.12513">
        <ele>128.52</ele>
        <time>2017-09-17T12:59:02Z</time>
      </trkpt>
      <trkpt lat="48.5375" lon="2.1252">
        <ele>128.6</ele>
        <time>2017-09-17T12:59:06Z</time>
      </trkpt>
      <trkpt lat="48.53758" lon="2.12552">
        <ele>128.27</ele>
        <time>2017-09-17T12:59:25Z</time>
      </trkpt>
      <trkpt lat="48.53765" lon="2.12579">
        <ele>128.5</ele>
        <time>2017-09-17T12:59:40Z</time>
      </trkpt>
      <trkpt lat="48.53771" lon="2.12604">
        <ele>128.76</ele>
        <time>2017-09-17T12:59:55Z</time>
      </trkpt>
      <trkpt lat="48.53777" lon="2.12629">
        <ele>128.71</ele>
        <time>2017-09-17T13:00:10Z</time>
      </trkpt>
      <trkpt lat="48.53787" lon="2.12659">
        <ele>128.95</ele>
        <time>2017-09-17T13:00:28Z</time>
      </trkpt>
      <trkpt lat="48.538" lon="2.12682">
        <ele>127.99</ele>
        <time>2017-09-17T13:00:45Z</time>
      </trkpt>
      <trkpt lat="48.53814" lon="2.12716">
        <ele>129.32</ele>
        <time>2017-09-17T13:01:07Z</time>
      </trkpt>
      <trkpt lat="48.53822" lon="2.12737">
        <ele>129.41</ele>
        <time>2017-09-17T13:01:21Z</time>
      </trkpt>
      <trkpt lat="48.53824" lon="2.12747">
        <ele>130.2</ele>
        <time>2017-09-17T13:01:27Z</time>
      </trkpt>
      <trkpt lat="48.53826" lon="2.12749">
        <ele>130.18</ele>
        <time>2017-09-17T13:01:29Z</time>
      </trkpt>
      <trkpt lat="48.53834" lon="2.1277">
        <ele>130.22</ele>
        <time>2017-09-17T13:01:46Z</time>
      </trkpt>
      <trkpt lat="48.53837" lon="2.12778">
        <ele>130.93</ele>
        <time>2017-09-17T13:02:09Z</time>
      </trkpt>
      <trkpt lat="48.53839" lon="2.12785">
        <ele>130.77</ele>
        <time>2017-09-17T13:02:15Z</time>
      </trkpt>
      <trkpt lat="48.53842" lon="2.12797">
        <ele>131.12</ele>
        <time>2017-09-17T13:02:24Z</time>
      </trkpt>
      <trkpt lat="48.53846" lon="2.12809">
        <ele>131.37</ele>
        <time>2017-09-17T13:02:33Z</time>
      </trkpt>
      <trkpt lat="48.53853" lon="2.12831">
        <ele>131.26</ele>
        <time>2017-09-17T13:02:45Z</time>
      </trkpt>
      <trkpt lat="48.53857" lon="2.12851">
        <ele>131.7</ele>
        <time>2017-09-17T13:03:02Z</time>
      </trkpt>
      <trkpt lat="48.53857" lon="2.12846">
        <ele>131.37</ele>
        <time>2017-09-17T13:03:29Z</time>
      </trkpt>
      <trkpt lat="48.53857" lon="2.12846">
        <ele>131.58</ele>
        <time>2017-09-17T13:03:35Z</time>
      </trkpt>
      <trkpt lat="48.53859" lon="2.12849">
        <ele>131.64</ele>
        <time>2017-09-17T13:04:04Z</time>
      </trkpt>
      <trkpt lat="48.53858" lon="2.12849">
        <ele>131.21</ele>
        <time>2017-09-17T13:04:26Z</time>
      </trkpt>
      <trkpt lat="48.53864" lon="2.12853">
        <ele>131.35</ele>
        <time>2017-09-17T13:04:58Z</time>
      </trkpt>
      <trkpt lat="48.53864" lon="2.12851">
        <ele>131.5</ele>
        <time>2017-09-17T13:05:25Z</time>
      </trkpt>
      <trkpt lat="48.53863" lon="2.12851">
        <ele>131.89</ele>
        <time>2017-09-17T13:05:51Z</time>
      </trkpt>
      <trkpt lat="48.53861" lon="2.12848">
        <ele>132.33</ele>
        <time>2017-09-17T13:06:20Z</time>
      </trkpt>
      <trkpt lat="48.53863" lon="2.12849">
        <ele>131.87</ele>
        <time>2017-09-17T13:06:31Z</time>
      </trkpt>
      <trkpt lat="48.53863" lon="2.12847">
        <ele>132.62</ele>
        <time>2017-09-17T13:06:58Z</time>
      </trkpt>
      <trkpt lat="48.53862" lon="2.12847">
        <ele>132.72</ele>
        <time>2017-09-17T13:07:22Z</time>
      </trkpt>
      <trkpt lat="48.53865" lon="2.12852">
        <ele>132.5</ele>
        <time>2017-09-17T13:07:32Z</time>
      </trkpt>
      <trkpt lat="48.53863" lon="2.12879">
        <ele>133.46</ele>
        <time>2017-09-17T13:07:48Z</time>
      </trkpt>
      <trkpt lat="48.53859" lon="2.12904">
        <ele>134.15</ele>
        <time>2017-09-17T13:08:02Z</time>
      </trkpt>
      <trkpt lat="48.53858" lon="2.12912">
        <ele>134.38</ele>
        <time>2017-09-17T13:08:08Z</time>
      </trkpt>
      <trkpt lat="48.53862" lon="2.12927">
        <ele>134.82</ele>
        <time>2017-09-17T13:08:21Z</time>
      </trkpt>
      <trkpt lat="48.53862" lon="2.12941">
        <ele>135</ele>
        <time>2017-09-17T13:08:30Z</time>
      </trkpt>
      <trkpt lat="48.53864" lon="2.12975">
        <ele>135.53</ele>
        <time>2017-09-17T13:08:51Z</time>
      </trkpt>
      <trkpt lat="48.53863" lon="2.1298">
        <ele>136</ele>
        <time>2017-09-17T13:08:54Z</time>
      </trkpt>
      <trkpt lat="48.53856" lon="2.13017">
        <ele>136.7</ele>
        <time>2017-09-17T13:09:12Z</time>
      </trkpt>
      <trkpt lat="48.53855" lon="2.13021">
        <ele>136.7</ele>
        <time>2017-09-17T13:09:15Z</time>
      </trkpt>
      <trkpt lat="48.53854" lon="2.13045">
        <ele>137.09</ele>
        <time>2017-09-17T13:09:30Z</time>
      </trkpt>
      <trkpt lat="48.53856" lon="2.13073">
        <ele>137.15</ele>
        <time>2017-09-17T13:09:47Z</time>
      </trkpt>
      <trkpt lat="48.5386" lon="2.131">
        <ele>137.65</ele>
        <time>2017-09-17T13:10:02Z</time>
      </trkpt>
      <trkpt lat="48.53867" lon="2.13126">
        <ele>138.12</ele>
        <time>2017-09-17T13:10:17Z</time>
      </trkpt>
      <trkpt lat="48.53869" lon="2.13131">
        <ele>138.8</ele>
        <time>2017-09-17T13:10:20Z</time>
      </trkpt>
      <trkpt lat="48.53875" lon="2.13149">
        <ele>138.69</ele>
        <time>2017-09-17T13:10:31Z</time>
      </trkpt>
      <trkpt lat="48.53877" lon="2.13153">
        <ele>139.26</ele>
        <time>2017-09-17T13:10:35Z</time>
      </trkpt>
      <trkpt lat="48.53885" lon="2.1318">
        <ele>140.08</ele>
        <time>2017-09-17T13:10:52Z</time>
      </trkpt>
      <trkpt lat="48.53887" lon="2.13189">
        <ele>139.51</ele>
        <time>2017-09-17T13:10:58Z</time>
      </trkpt>
      <trkpt lat="48.5389" lon="2.13198">
        <ele>139.8</ele>
        <time>2017-09-17T13:11:04Z</time>
      </trkpt>
      <trkpt lat="48.53894" lon="2.13206">
        <ele>140.17</ele>
        <time>2017-09-17T13:11:09Z</time>
      </trkpt>
      <trkpt lat="48.53901" lon="2.13225">
        <ele>140.42</ele>
        <time>2017-09-17T13:11:21Z</time>
      </trkpt>
      <trkpt lat="48.53908" lon="2.13249">
        <ele>140.52</ele>
        <time>2017-09-17T13:11:36Z</time>
      </trkpt>
      <trkpt lat="48.53918" lon="2.13272">
        <ele>140.56</ele>
        <time>2017-09-17T13:11:52Z</time>
      </trkpt>
      <trkpt lat="48.53921" lon="2.13284">
        <ele>141.23</ele>
        <time>2017-09-17T13:12:01Z</time>
      </trkpt>
      <trkpt lat="48.53923" lon="2.13293">
        <ele>141.8</ele>
        <time>2017-09-17T13:12:06Z</time>
      </trkpt>
      <trkpt lat="48.53923" lon="2.13351">
        <ele>142.05</ele>
        <time>2017-09-17T13:12:35Z</time>
      </trkpt>
      <trkpt lat="48.5393" lon="2.13381">
        <ele>142.44</ele>
        <time>2017-09-17T13:12:52Z</time>
      </trkpt>
      <trkpt lat="48.53934" lon="2.13389">
        <ele>142.33</ele>
        <time>2017-09-17T13:12:58Z</time>
      </trkpt>
      <trkpt lat="48.53939" lon="2.13403">
        <ele>142.63</ele>
        <time>2017-09-17T13:13:07Z</time>
      </trkpt>
      <trkpt lat="48.53947" lon="2.13428">
        <ele>143.07</ele>
        <time>2017-09-17T13:13:22Z</time>
      </trkpt>
      <trkpt lat="48.53954" lon="2.13454">
        <ele>143.72</ele>
        <time>2017-09-17T13:13:38Z</time>
      </trkpt>
      <trkpt lat="48.53962" lon="2.13476">
        <ele>143.74</ele>
        <time>2017-09-17T13:13:52Z</time>
      </trkpt>
      <trkpt lat="48.53963" lon="2.13479">
        <ele>143.67</ele>
        <time>2017-09-17T13:13:54Z</time>
      </trkpt>
      <trkpt lat="48.53965" lon="2.13485">
        <ele>143.85</ele>
        <time>2017-09-17T13:13:58Z</time>
      </trkpt>
      <trkpt lat="48.53974" lon="2.13513">
        <ele>144.35</ele>
        <time>2017-09-17T13:14:15Z</time>
      </trkpt>
      <trkpt lat="48.53982" lon="2.13538">
        <ele>145.09</ele>
        <time>2017-09-17T13:14:31Z</time>
      </trkpt>
      <trkpt lat="48.53991" lon="2.13568">
        <ele>145.17</ele>
        <time>2017-09-17T13:14:49Z</time>
      </trkpt>
      <trkpt lat="48.53999" lon="2.13596">
        <ele>145.25</ele>
        <time>2017-09-17T13:15:06Z</time>
      </trkpt>
      <trkpt lat="48.54007" lon="2.13626">
        <ele>145</ele>
        <time>2017-09-17T13:15:23Z</time>
      </trkpt>
      <trkpt lat="48.54014" lon="2.13653">
        <ele>145.72</ele>
        <time>2017-09-17T13:15:39Z</time>
      </trkpt>
      <trkpt lat="48.54018" lon="2.13663">
        <ele>145.65</ele>
        <time>2017-09-17T13:15:48Z</time>
      </trkpt>
      <trkpt lat="48.54026" lon="2.13691">
        <ele>145.86</ele>
        <time>2017-09-17T13:16:05Z</time>
      </trkpt>
      <trkpt lat="48.54034" lon="2.13724">
        <ele>145.59</ele>
        <time>2017-09-17T13:16:25Z</time>
      </trkpt>
      <trkpt lat="48.54042" lon="2.13754">
        <ele>145.45</ele>
        <time>2017-09-17T13:16:43Z</time>
      </trkpt>
      <trkpt lat="48.54043" lon="2.1376">
        <ele>145.65</ele>
        <time>2017-09-17T13:16:47Z</time>
      </trkpt>
      <trkpt lat="48.5405" lon="2.1379">
        <ele>145.27</ele>
        <time>2017-09-17T13:17:05Z</time>
      </trkpt>
      <trkpt lat="48.54059" lon="2.13819">
        <ele>145.41</ele>
        <time>2017-09-17T13:17:23Z</time>
      </trkpt>
      <trkpt lat="48.54061" lon="2.13824">
        <ele>145.44</ele>
        <time>2017-09-17T13:17:27Z</time>
      </trkpt>
      <trkpt lat="48.54064" lon="2.13839">
        <ele>144.82</ele>
        <time>2017-09-17T13:17:45Z</time>
      </trkpt>
      <trkpt lat="48.54063" lon="2.1384">
        <ele>146.08</ele>
        <time>2017-09-17T13:18:15Z</time>
      </trkpt>
      <trkpt lat="48.54062" lon="2.1384">
        <ele>146</ele>
        <time>2017-09-17T13:18:48Z</time>
      </trkpt>
      <trkpt lat="48.54064" lon="2.13838">
        <ele>146.45</ele>
        <time>2017-09-17T13:19:19Z</time>
      </trkpt>
      <trkpt lat="48.54067" lon="2.13836">
        <ele>145.94</ele>
        <time>2017-09-17T13:19:46Z</time>
      </trkpt>
      <trkpt lat="48.54076" lon="2.13837">
        <ele>146.26</ele>
        <time>2017-09-17T13:19:58Z</time>
      </trkpt>
      <trkpt lat="48.54086" lon="2.13838">
        <ele>146.22</ele>
        <time>2017-09-17T13:20:15Z</time>
      </trkpt>
      <trkpt lat="48.54099" lon="2.1384">
        <ele>145.73</ele>
        <time>2017-09-17T13:20:31Z</time>
      </trkpt>
      <trkpt lat="48.54119" lon="2.13848">
        <ele>145.98</ele>
        <time>2017-09-17T13:20:51Z</time>
      </trkpt>
      <trkpt lat="48.54138" lon="2.13856">
        <ele>145.66</ele>
        <time>2017-09-17T13:21:11Z</time>
      </trkpt>
      <trkpt lat="48.54159" lon="2.13862">
        <ele>145.8</ele>
        <time>2017-09-17T13:21:31Z</time>
      </trkpt>
      <trkpt lat="48.54178" lon="2.13864">
        <ele>145.92</ele>
        <time>2017-09-17T13:21:48Z</time>
      </trkpt>
      <trkpt lat="48.54199" lon="2.13863">
        <ele>146.13</ele>
        <time>2017-09-17T13:22:07Z</time>
      </trkpt>
      <trkpt lat="48.54211" lon="2.13862">
        <ele>146.57</ele>
        <time>2017-09-17T13:22:23Z</time>
      </trkpt>
      <trkpt lat="48.54229" lon="2.13858">
        <ele>145.69</ele>
        <time>2017-09-17T13:22:43Z</time>
      </trkpt>
      <trkpt lat="48.54241" lon="2.13856">
        <ele>145.99</ele>
        <time>2017-09-17T13:22:59Z</time>
      </trkpt>
      <trkpt lat="48.54256" lon="2.13854">
        <ele>145</ele>
        <time>2017-09-17T13:23:14Z</time>
      </trkpt>
      <trkpt lat="48.54273" lon="2.13849">
        <ele>144.97</ele>
        <time>2017-09-17T13:23:30Z</time>
      </trkpt>
      <trkpt lat="48.5429" lon="2.13839">
        <ele>144.29</ele>
        <time>2017-09-17T13:23:46Z</time>
      </trkpt>
      <trkpt lat="48.54307" lon="2.13829">
        <ele>143.66</ele>
        <time>2017-09-17T13:24:02Z</time>
      </trkpt>
      <trkpt lat="48.54313" lon="2.13828">
        <ele>143.81</ele>
        <time>2017-09-17T13:24:07Z</time>
      </trkpt>
      <trkpt lat="48.54321" lon="2.13825">
        <ele>143.67</ele>
        <time>2017-09-17T13:24:16Z</time>
      </trkpt>
      <trkpt lat="48.54324" lon="2.13824">
        <ele>143.35</ele>
        <time>2017-09-17T13:24:18Z</time>
      </trkpt>
      <trkpt lat="48.5434" lon="2.13812">
        <ele>143.44</ele>
        <time>2017-09-17T13:24:34Z</time>
      </trkpt>
      <trkpt lat="48.54343" lon="2.13811">
        <ele>143.25</ele>
        <time>2017-09-17T13:24:37Z</time>
      </trkpt>
      <trkpt lat="48.5435" lon="2.13806">
        <ele>143.09</ele>
        <time>2017-09-17T13:24:43Z</time>
      </trkpt>
      <trkpt lat="48.54365" lon="2.138">
        <ele>142.48</ele>
        <time>2017-09-17T13:24:57Z</time>
      </trkpt>
      <trkpt lat="48.54378" lon="2.13797">
        <ele>141.27</ele>
        <time>2017-09-17T13:25:11Z</time>
      </trkpt>
      <trkpt lat="48.54394" lon="2.13797">
        <ele>140.94</ele>
        <time>2017-09-17T13:25:26Z</time>
      </trkpt>
      <trkpt lat="48.54406" lon="2.13799">
        <ele>140.7</ele>
        <time>2017-09-17T13:25:47Z</time>
      </trkpt>
      <trkpt lat="48.54413" lon="2.138">
        <ele>140.04</ele>
        <time>2017-09-17T13:26:04Z</time>
      </trkpt>
      <trkpt lat="48.54421" lon="2.13789">
        <ele>138.02</ele>
        <time>2017-09-17T13:26:26Z</time>
      </trkpt>
      <trkpt lat="48.54427" lon="2.13772">
        <ele>136.9</ele>
        <time>2017-09-17T13:26:39Z</time>
      </trkpt>
      <trkpt lat="48.5443" lon="2.13743">
        <ele>134.1</ele>
        <time>2017-09-17T13:26:57Z</time>
      </trkpt>
      <trkpt lat="48.54434" lon="2.1372">
        <ele>131.2</ele>
        <time>2017-09-17T13:27:15Z</time>
      </trkpt>
      <trkpt lat="48.54445" lon="2.13702">
        <ele>129.14</ele>
        <time>2017-09-17T13:27:33Z</time>
      </trkpt>
      <trkpt lat="48.54458" lon="2.13686">
        <ele>126.96</ele>
        <time>2017-09-17T13:27:49Z</time>
      </trkpt>
      <trkpt lat="48.54471" lon="2.13687">
        <ele>124.67</ele>
        <time>2017-09-17T13:28:05Z</time>
      </trkpt>
      <trkpt lat="48.54478" lon="2.13683">
        <ele>122.09</ele>
        <time>2017-09-17T13:28:28Z</time>
      </trkpt>
      <trkpt lat="48.5449" lon="2.13669">
        <ele>119.06</ele>
        <time>2017-09-17T13:28:50Z</time>
      </trkpt>
      <trkpt lat="48.54503" lon="2.13661">
        <ele>116.05</ele>
        <time>2017-09-17T13:29:07Z</time>
      </trkpt>
      <trkpt lat="48.54507" lon="2.13657">
        <ele>115.38</ele>
        <time>2017-09-17T13:29:14Z</time>
      </trkpt>
      <trkpt lat="48.54518" lon="2.13643">
        <ele>112.36</ele>
        <time>2017-09-17T13:29:36Z</time>
      </trkpt>
      <trkpt lat="48.54529" lon="2.1363">
        <ele>109.14</ele>
        <time>2017-09-17T13:29:54Z</time>
      </trkpt>
      <trkpt lat="48.54532" lon="2.13616">
        <ele>107.27</ele>
        <time>2017-09-17T13:30:04Z</time>
      </trkpt>
      <trkpt lat="48.54533" lon="2.13588">
        <ele>105.61</ele>
        <time>2017-09-17T13:30:28Z</time>
      </trkpt>
      <trkpt lat="48.54538" lon="2.13579">
        <ele>104.1</ele>
        <time>2017-09-17T13:30:50Z</time>
      </trkpt>
      <trkpt lat="48.54539" lon="2.13578">
        <ele>103.51</ele>
        <time>2017-09-17T13:30:51Z</time>
      </trkpt>
      <trkpt lat="48.54539" lon="2.13568">
        <ele>103.96</ele>
        <time>2017-09-17T13:31:19Z</time>
      </trkpt>
      <trkpt lat="48.54536" lon="2.13569">
        <ele>104.36</ele>
        <time>2017-09-17T13:31:44Z</time>
      </trkpt>
      <trkpt lat="48.54537" lon="2.13562">
        <ele>103.28</ele>
        <time>2017-09-17T13:32:11Z</time>
      </trkpt>
      <trkpt lat="48.54543" lon="2.13558">
        <ele>102.96</ele>
        <time>2017-09-17T13:32:38Z</time>
      </trkpt>
      <trkpt lat="48.54543" lon="2.13558">
        <ele>103.09</ele>
        <time>2017-09-17T13:32:51Z</time>
      </trkpt>
      <trkpt lat="48.54543" lon="2.13558">
        <ele>103.24</ele>
        <time>2017-09-17T13:33:21Z</time>
      </trkpt>
      <trkpt lat="48.54546" lon="2.13554">
        <ele>103.28</ele>
        <time>2017-09-17T13:33:48Z</time>
      </trkpt>
      <trkpt lat="48.54553" lon="2.13529">
        <ele>101.6</ele>
        <time>2017-09-17T13:34:12Z</time>
      </trkpt>
      <trkpt lat="48.54559" lon="2.13531">
        <ele>101.47</ele>
        <time>2017-09-17T13:34:38Z</time>
      </trkpt>
      <trkpt lat="48.54567" lon="2.13519">
        <ele>100.17</ele>
        <time>2017-09-17T13:35:03Z</time>
      </trkpt>
      <trkpt lat="48.54569" lon="2.13517">
        <ele>100.1</ele>
        <time>2017-09-17T13:35:21Z</time>
      </trkpt>
      <trkpt lat="48.54575" lon="2.13497">
        <ele>99.12</ele>
        <time>2017-09-17T13:35:37Z</time>
      </trkpt>
      <trkpt lat="48.5458" lon="2.13472">
        <ele>97.44</ele>
        <time>2017-09-17T13:35:54Z</time>
      </trkpt>
      <trkpt lat="48.54588" lon="2.13436">
        <ele>95.31</ele>
        <time>2017-09-17T13:36:18Z</time>
      </trkpt>
      <trkpt lat="48.54602" lon="2.13412">
        <ele>92.56</ele>
        <time>2017-09-17T13:36:35Z</time>
      </trkpt>
      <trkpt lat="48.54602" lon="2.13411">
        <ele>92.55</ele>
        <time>2017-09-17T13:36:36Z</time>
      </trkpt>
      <trkpt lat="48.54616" lon="2.13394">
        <ele>90.31</ele>
        <time>2017-09-17T13:36:55Z</time>
      </trkpt>
      <trkpt lat="48.5464" lon="2.13377">
        <ele>88.67</ele>
        <time>2017-09-17T13:37:15Z</time>
      </trkpt>
      <trkpt lat="48.54666" lon="2.13364">
        <ele>87.76</ele>
        <time>2017-09-17T13:37:34Z</time>
      </trkpt>
      <trkpt lat="48.54668" lon="2.13362">
        <ele>87.36</ele>
        <time>2017-09-17T13:37:37Z</time>
      </trkpt>
      <trkpt lat="48.54673" lon="2.13358">
        <ele>86.54</ele>
        <time>2017-09-17T13:37:42Z</time>
      </trkpt>
      <trkpt lat="48.54683" lon="2.1335">
        <ele>84.98</ele>
        <time>2017-09-17T13:37:52Z</time>
      </trkpt>
      <trkpt lat="48.54688" lon="2.13342">
        <ele>84.82</ele>
        <time>2017-09-17T13:37:56Z</time>
      </trkpt>
      <trkpt lat="48.54695" lon="2.13326">
        <ele>82.92</ele>
        <time>2017-09-17T13:38:07Z</time>
      </trkpt>
      <trkpt lat="48.54702" lon="2.13311">
        <ele>81.49</ele>
        <time>2017-09-17T13:38:20Z</time>
      </trkpt>
      <trkpt lat="48.54724" lon="2.13287">
        <ele>79.6</ele>
        <time>2017-09-17T13:38:42Z</time>
      </trkpt>
      <trkpt lat="48.54744" lon="2.13275">
        <ele>77.84</ele>
        <time>2017-09-17T13:38:59Z</time>
      </trkpt>
      <trkpt lat="48.54745" lon="2.13275">
        <ele>77.82</ele>
        <time>2017-09-17T13:39:00Z</time>
      </trkpt>
      <trkpt lat="48.54758" lon="2.13272">
        <ele>76.87</ele>
        <time>2017-09-17T13:39:15Z</time>
      </trkpt>
      <trkpt lat="48.54764" lon="2.1327">
        <ele>76.79</ele>
        <time>2017-09-17T13:39:28Z</time>
      </trkpt>
      <trkpt lat="48.5477" lon="2.13268">
        <ele>76.85</ele>
        <time>2017-09-17T13:39:58Z</time>
      </trkpt>
      <trkpt lat="48.54771" lon="2.13265">
        <ele>76.62</ele>
        <time>2017-09-17T13:40:27Z</time>
      </trkpt>
      <trkpt lat="48.54775" lon="2.13276">
        <ele>76.76</ele>
        <time>2017-09-17T13:40:43Z</time>
      </trkpt>
      <trkpt lat="48.54777" lon="2.13288">
        <ele>76.71</ele>
        <time>2017-09-17T13:41:02Z</time>
      </trkpt>
      <trkpt lat="48.54781" lon="2.13298">
        <ele>76.62</ele>
        <time>2017-09-17T13:41:11Z</time>
      </trkpt>
      <trkpt lat="48.54784" lon="2.13309">
        <ele>76.62</ele>
        <time>2017-09-17T13:41:19Z</time>
      </trkpt>
      <trkpt lat="48.54785" lon="2.13314">
        <ele>76.41</ele>
        <time>2017-09-17T13:41:22Z</time>
      </trkpt>
      <trkpt lat="48.54788" lon="2.13338">
        <ele>76.13</ele>
        <time>2017-09-17T13:41:37Z</time>
      </trkpt>
      <trkpt lat="48.54788" lon="2.13342">
        <ele>75.81</ele>
        <time>2017-09-17T13:41:39Z</time>
      </trkpt>
      <trkpt lat="48.5479" lon="2.13354">
        <ele>76.17</ele>
        <time>2017-09-17T13:41:46Z</time>
      </trkpt>
      <trkpt lat="48.54793" lon="2.13381">
        <ele>75.58</ele>
        <time>2017-09-17T13:42:02Z</time>
      </trkpt>
      <trkpt lat="48.54795" lon="2.13403">
        <ele>75.06</ele>
        <time>2017-09-17T13:42:16Z</time>
      </trkpt>
      <trkpt lat="48.54796" lon="2.13411">
        <ele>74.95</ele>
        <time>2017-09-17T13:42:22Z</time>
      </trkpt>
      <trkpt lat="48.54795" lon="2.13428">
        <ele>75.25</ele>
        <time>2017-09-17T13:42:37Z</time>
      </trkpt>
      <trkpt lat="48.54797" lon="2.13445">
        <ele>74.97</ele>
        <time>2017-09-17T13:42:57Z</time>
      </trkpt>
      <trkpt lat="48.54798" lon="2.13453">
        <ele>75.05</ele>
        <time>2017-09-17T13:43:03Z</time>
      </trkpt>
      <trkpt lat="48.54798" lon="2.1346">
        <ele>75.01</ele>
        <time>2017-09-17T13:43:07Z</time>
      </trkpt>
      <trkpt lat="48.54798" lon="2.13468">
        <ele>75.1</ele>
        <time>2017-09-17T13:43:11Z</time>
      </trkpt>
      <trkpt lat="48.54799" lon="2.13475">
        <ele>74.84</ele>
        <time>2017-09-17T13:43:15Z</time>
      </trkpt>
      <trkpt lat="48.5481" lon="2.13504">
        <ele>74.93</ele>
        <time>2017-09-17T13:43:36Z</time>
      </trkpt>
      <trkpt lat="48.54817" lon="2.13534">
        <ele>74.78</ele>
        <time>2017-09-17T13:43:56Z</time>
      </trkpt>
      <trkpt lat="48.54819" lon="2.13568">
        <ele>74.64</ele>
        <time>2017-09-17T13:44:19Z</time>
      </trkpt>
      <trkpt lat="48.54827" lon="2.13595">
        <ele>74.38</ele>
        <time>2017-09-17T13:44:37Z</time>
      </trkpt>
      <trkpt lat="48.54836" lon="2.13624">
        <ele>74.86</ele>
        <time>2017-09-17T13:44:56Z</time>
      </trkpt>
      <trkpt lat="48.54847" lon="2.13658">
        <ele>74.8</ele>
        <time>2017-09-17T13:45:19Z</time>
      </trkpt>
      <trkpt lat="48.54854" lon="2.13688">
        <ele>74.8</ele>
        <time>2017-09-17T13:45:38Z</time>
      </trkpt>
      <trkpt lat="48.54857" lon="2.13717">
        <ele>74.31</ele>
        <time>2017-09-17T13:45:57Z</time>
      </trkpt>
      <trkpt lat="48.54864" lon="2.13741">
        <ele>74.21</ele>
        <time>2017-09-17T13:46:15Z</time>
      </trkpt>
      <trkpt lat="48.54871" lon="2.1377">
        <ele>74.5</ele>
        <time>2017-09-17T13:46:35Z</time>
      </trkpt>
      <trkpt lat="48.54875" lon="2.13805">
        <ele>73.82</ele>
        <time>2017-09-17T13:46:56Z</time>
      </trkpt>
      <trkpt lat="48.54887" lon="2.13832">
        <ele>73.84</ele>
        <time>2017-09-17T13:47:15Z</time>
      </trkpt>
      <trkpt lat="48.54893" lon="2.13852">
        <ele>73.76</ele>
        <time>2017-09-17T13:47:28Z</time>
      </trkpt>
      <trkpt lat="48.54898" lon="2.13862">
        <ele>73.88</ele>
        <time>2017-09-17T13:48:52Z</time>
      </trkpt>
      <trkpt lat="48.54894" lon="2.13866">
        <ele>74.75</ele>
        <time>2017-09-17T13:53:09Z</time>
      </trkpt>
      <trkpt lat="48.54895" lon="2.13879">
        <ele>75.54</ele>
        <time>2017-09-17T13:53:28Z</time>
      </trkpt>
      <trkpt lat="48.54897" lon="2.13895">
        <ele>75.43</ele>
        <time>2017-09-17T13:53:36Z</time>
      </trkpt>
      <trkpt lat="48.54895" lon="2.13922">
        <ele>77.57</ele>
        <time>2017-09-17T13:53:53Z</time>
      </trkpt>
      <trkpt lat="48.54898" lon="2.13958">
        <ele>79.17</ele>
        <time>2017-09-17T13:54:13Z</time>
      </trkpt>
      <trkpt lat="48.54909" lon="2.13984">
        <ele>80.72</ele>
        <time>2017-09-17T13:54:31Z</time>
      </trkpt>
      <trkpt lat="48.5492" lon="2.14005">
        <ele>81.72</ele>
        <time>2017-09-17T13:54:50Z</time>
      </trkpt>
      <trkpt lat="48.54922" lon="2.14033">
        <ele>83.2</ele>
        <time>2017-09-17T13:55:08Z</time>
      </trkpt>
      <trkpt lat="48.54923" lon="2.14063">
        <ele>83.85</ele>
        <time>2017-09-17T13:55:26Z</time>
      </trkpt>
      <trkpt lat="48.54919" lon="2.14106">
        <ele>82.76</ele>
        <time>2017-09-17T13:55:51Z</time>
      </trkpt>
      <trkpt lat="48.54918" lon="2.14144">
        <ele>82.17</ele>
        <time>2017-09-17T13:56:12Z</time>
      </trkpt>
      <trkpt lat="48.54922" lon="2.14172">
        <ele>81.68</ele>
        <time>2017-09-17T13:56:23Z</time>
      </trkpt>
      <trkpt lat="48.54923" lon="2.14194">
        <ele>81.45</ele>
        <time>2017-09-17T13:56:37Z</time>
      </trkpt>
      <trkpt lat="48.5493" lon="2.14226">
        <ele>81.8</ele>
        <time>2017-09-17T13:56:58Z</time>
      </trkpt>
      <trkpt lat="48.54932" lon="2.14264">
        <ele>82.48</ele>
        <time>2017-09-17T13:57:19Z</time>
      </trkpt>
      <trkpt lat="48.54938" lon="2.14291">
        <ele>83.51</ele>
        <time>2017-09-17T13:57:39Z</time>
      </trkpt>
      <trkpt lat="48.54938" lon="2.14332">
        <ele>84.39</ele>
        <time>2017-09-17T13:58:01Z</time>
      </trkpt>
      <trkpt lat="48.54937" lon="2.14366">
        <ele>83.14</ele>
        <time>2017-09-17T13:58:23Z</time>
      </trkpt>
      <trkpt lat="48.54934" lon="2.14405">
        <ele>82.98</ele>
        <time>2017-09-17T13:58:43Z</time>
      </trkpt>
      <trkpt lat="48.54932" lon="2.14438">
        <ele>83.18</ele>
        <time>2017-09-17T13:58:59Z</time>
      </trkpt>
      <trkpt lat="48.54932" lon="2.14469">
        <ele>82.65</ele>
        <time>2017-09-17T13:59:16Z</time>
      </trkpt>
      <trkpt lat="48.54934" lon="2.145">
        <ele>83.63</ele>
        <time>2017-09-17T13:59:33Z</time>
      </trkpt>
      <trkpt lat="48.54933" lon="2.14526">
        <ele>86.07</ele>
        <time>2017-09-17T13:59:51Z</time>
      </trkpt>
      <trkpt lat="48.54933" lon="2.14557">
        <ele>86.29</ele>
        <time>2017-09-17T14:00:08Z</time>
      </trkpt>
      <trkpt lat="48.54934" lon="2.14591">
        <ele>85.89</ele>
        <time>2017-09-17T14:00:27Z</time>
      </trkpt>
      <trkpt lat="48.54931" lon="2.14617">
        <ele>83.7</ele>
        <time>2017-09-17T14:00:46Z</time>
      </trkpt>
      <trkpt lat="48.54926" lon="2.14648">
        <ele>82.69</ele>
        <time>2017-09-17T14:01:07Z</time>
      </trkpt>
      <trkpt lat="48.54924" lon="2.14683">
        <ele>81.2</ele>
        <time>2017-09-17T14:01:28Z</time>
      </trkpt>
      <trkpt lat="48.54919" lon="2.14716">
        <ele>80.33</ele>
        <time>2017-09-17T14:01:47Z</time>
      </trkpt>
      <trkpt lat="48.54916" lon="2.14749">
        <ele>79.66</ele>
        <time>2017-09-17T14:02:06Z</time>
      </trkpt>
      <trkpt lat="48.54914" lon="2.14768">
        <ele>79.32</ele>
        <time>2017-09-17T14:02:17Z</time>
      </trkpt>
      <trkpt lat="48.54912" lon="2.14786">
        <ele>78.59</ele>
        <time>2017-09-17T14:02:39Z</time>
      </trkpt>
      <trkpt lat="48.54913" lon="2.14795">
        <ele>78.92</ele>
        <time>2017-09-17T14:03:01Z</time>
      </trkpt>
      <trkpt lat="48.54913" lon="2.14795">
        <ele>78.83</ele>
        <time>2017-09-17T14:03:02Z</time>
      </trkpt>
      <trkpt lat="48.54918" lon="2.14819">
        <ele>78.59</ele>
        <time>2017-09-17T14:03:22Z</time>
      </trkpt>
      <trkpt lat="48.54919" lon="2.14847">
        <ele>78.27</ele>
        <time>2017-09-17T14:03:43Z</time>
      </trkpt>
      <trkpt lat="48.5492" lon="2.14881">
        <ele>78.37</ele>
        <time>2017-09-17T14:04:02Z</time>
      </trkpt>
      <trkpt lat="48.5492" lon="2.14911">
        <ele>78.88</ele>
        <time>2017-09-17T14:04:20Z</time>
      </trkpt>
      <trkpt lat="48.54922" lon="2.14939">
        <ele>78.91</ele>
        <time>2017-09-17T14:04:40Z</time>
      </trkpt>
      <trkpt lat="48.54915" lon="2.14959">
        <ele>79.6</ele>
        <time>2017-09-17T14:04:59Z</time>
      </trkpt>
      <trkpt lat="48.54907" lon="2.14993">
        <ele>79.96</ele>
        <time>2017-09-17T14:05:19Z</time>
      </trkpt>
      <trkpt lat="48.54905" lon="2.15013">
        <ele>80.16</ele>
        <time>2017-09-17T14:05:34Z</time>
      </trkpt>
      <trkpt lat="48.54898" lon="2.15045">
        <ele>80.76</ele>
        <time>2017-09-17T14:05:53Z</time>
      </trkpt>
      <trkpt lat="48.54896" lon="2.15072">
        <ele>81.26</ele>
        <time>2017-09-17T14:06:10Z</time>
      </trkpt>
      <trkpt lat="48.54899" lon="2.15101">
        <ele>81.91</ele>
        <time>2017-09-17T14:06:29Z</time>
      </trkpt>
      <trkpt lat="48.54898" lon="2.15137">
        <ele>83.04</ele>
        <time>2017-09-17T14:06:49Z</time>
      </trkpt>
      <trkpt lat="48.54898" lon="2.15172">
        <ele>83.16</ele>
        <time>2017-09-17T14:07:10Z</time>
      </trkpt>
      <trkpt lat="48.54898" lon="2.15203">
        <ele>83</ele>
        <time>2017-09-17T14:07:30Z</time>
      </trkpt>
      <trkpt lat="48.54897" lon="2.15238">
        <ele>82.89</ele>
        <time>2017-09-17T14:07:50Z</time>
      </trkpt>
      <trkpt lat="48.549" lon="2.15243">
        <ele>82.69</ele>
        <time>2017-09-17T14:08:05Z</time>
      </trkpt>
      <trkpt lat="48.54897" lon="2.15257">
        <ele>83.18</ele>
        <time>2017-09-17T14:08:27Z</time>
      </trkpt>
      <trkpt lat="48.54898" lon="2.15293">
        <ele>84.43</ele>
        <time>2017-09-17T14:08:47Z</time>
      </trkpt>
      <trkpt lat="48.54896" lon="2.15315">
        <ele>85</ele>
        <time>2017-09-17T14:08:59Z</time>
      </trkpt>
      <trkpt lat="48.54885" lon="2.1535">
        <ele>85.87</ele>
        <time>2017-09-17T14:09:18Z</time>
      </trkpt>
      <trkpt lat="48.54876" lon="2.15384">
        <ele>88.12</ele>
        <time>2017-09-17T14:09:37Z</time>
      </trkpt>
      <trkpt lat="48.54873" lon="2.15397">
        <ele>88.61</ele>
        <time>2017-09-17T14:09:55Z</time>
      </trkpt>
      <trkpt lat="48.5487" lon="2.15417">
        <ele>91.09</ele>
        <time>2017-09-17T14:10:16Z</time>
      </trkpt>
      <trkpt lat="48.54867" lon="2.15425">
        <ele>91.84</ele>
        <time>2017-09-17T14:10:22Z</time>
      </trkpt>
      <trkpt lat="48.54859" lon="2.15451">
        <ele>95.16</ele>
        <time>2017-09-17T14:10:40Z</time>
      </trkpt>
      <trkpt lat="48.54856" lon="2.15472">
        <ele>95.22</ele>
        <time>2017-09-17T14:10:58Z</time>
      </trkpt>
      <trkpt lat="48.54858" lon="2.15506">
        <ele>93.22</ele>
        <time>2017-09-17T14:11:18Z</time>
      </trkpt>
      <trkpt lat="48.54857" lon="2.15531">
        <ele>93.13</ele>
        <time>2017-09-17T14:11:35Z</time>
      </trkpt>
      <trkpt lat="48.54853" lon="2.15565">
        <ele>92.14</ele>
        <time>2017-09-17T14:11:52Z</time>
      </trkpt>
      <trkpt lat="48.54848" lon="2.15592">
        <ele>92.36</ele>
        <time>2017-09-17T14:12:09Z</time>
      </trkpt>
      <trkpt lat="48.54845" lon="2.15613">
        <ele>92.12</ele>
        <time>2017-09-17T14:12:24Z</time>
      </trkpt>
      <trkpt lat="48.5484" lon="2.15645">
        <ele>92.3</ele>
        <time>2017-09-17T14:12:42Z</time>
      </trkpt>
      <trkpt lat="48.54837" lon="2.15668">
        <ele>92.81</ele>
        <time>2017-09-17T14:12:56Z</time>
      </trkpt>
      <trkpt lat="48.54836" lon="2.15674">
        <ele>93.16</ele>
        <time>2017-09-17T14:13:00Z</time>
      </trkpt>
      <trkpt lat="48.54833" lon="2.15698">
        <ele>93.26</ele>
        <time>2017-09-17T14:13:14Z</time>
      </trkpt>
      <trkpt lat="48.54828" lon="2.15723">
        <ele>93.65</ele>
        <time>2017-09-17T14:13:28Z</time>
      </trkpt>
      <trkpt lat="48.54822" lon="2.15747">
        <ele>93.2</ele>
        <time>2017-09-17T14:13:43Z</time>
      </trkpt>
      <trkpt lat="48.54819" lon="2.15758">
        <ele>93.74</ele>
        <time>2017-09-17T14:13:59Z</time>
      </trkpt>
      <trkpt lat="48.54819" lon="2.1576">
        <ele>93.52</ele>
        <time>2017-09-17T14:14:05Z</time>
      </trkpt>
      <trkpt lat="48.54819" lon="2.15763">
        <ele>93.66</ele>
        <time>2017-09-17T14:14:07Z</time>
      </trkpt>
      <trkpt lat="48.54813" lon="2.15796">
        <ele>94.37</ele>
        <time>2017-09-17T14:14:26Z</time>
      </trkpt>
      <trkpt lat="48.54811" lon="2.15822">
        <ele>94.03</ele>
        <time>2017-09-17T14:14:40Z</time>
      </trkpt>
      <trkpt lat="48.54807" lon="2.15843">
        <ele>93.35</ele>
        <time>2017-09-17T14:14:54Z</time>
      </trkpt>
      <trkpt lat="48.54798" lon="2.15862">
        <ele>91.39</ele>
        <time>2017-09-17T14:15:11Z</time>
      </trkpt>
      <trkpt lat="48.54787" lon="2.15884">
        <ele>89.66</ele>
        <time>2017-09-17T14:15:31Z</time>
      </trkpt>
      <trkpt lat="48.54777" lon="2.15914">
        <ele>87.72</ele>
        <time>2017-09-17T14:15:51Z</time>
      </trkpt>
      <trkpt lat="48.5477" lon="2.15944">
        <ele>86.7</ele>
        <time>2017-09-17T14:16:07Z</time>
      </trkpt>
      <trkpt lat="48.54763" lon="2.15971">
        <ele>85.62</ele>
        <time>2017-09-17T14:16:20Z</time>
      </trkpt>
      <trkpt lat="48.54754" lon="2.15998">
        <ele>84.57</ele>
        <time>2017-09-17T14:16:34Z</time>
      </trkpt>
      <trkpt lat="48.54745" lon="2.16022">
        <ele>83.83</ele>
        <time>2017-09-17T14:16:49Z</time>
      </trkpt>
      <trkpt lat="48.54739" lon="2.16041">
        <ele>83.07</ele>
        <time>2017-09-17T14:17:03Z</time>
      </trkpt>
      <trkpt lat="48.54731" lon="2.16066">
        <ele>82.5</ele>
        <time>2017-09-17T14:17:18Z</time>
      </trkpt>
      <trkpt lat="48.54723" lon="2.16091">
        <ele>82.38</ele>
        <time>2017-09-17T14:17:34Z</time>
      </trkpt>
      <trkpt lat="48.54718" lon="2.16102">
        <ele>82.46</ele>
        <time>2017-09-17T14:17:41Z</time>
      </trkpt>
      <trkpt lat="48.5471" lon="2.16124">
        <ele>82.2</ele>
        <time>2017-09-17T14:17:56Z</time>
      </trkpt>
      <trkpt lat="48.54702" lon="2.16147">
        <ele>81.69</ele>
        <time>2017-09-17T14:18:12Z</time>
      </trkpt>
      <trkpt lat="48.547" lon="2.16157">
        <ele>81.35</ele>
        <time>2017-09-17T14:18:30Z</time>
      </trkpt>
      <trkpt lat="48.54697" lon="2.16161">
        <ele>81.74</ele>
        <time>2017-09-17T14:18:47Z</time>
      </trkpt>
      <trkpt lat="48.54694" lon="2.16167">
        <ele>81.65</ele>
        <time>2017-09-17T14:19:08Z</time>
      </trkpt>
      <trkpt lat="48.54693" lon="2.16166">
        <ele>81.36</ele>
        <time>2017-09-17T14:19:32Z</time>
      </trkpt>
      <trkpt lat="48.54687" lon="2.1618">
        <ele>81.43</ele>
        <time>2017-09-17T14:19:49Z</time>
      </trkpt>
      <trkpt lat="48.54677" lon="2.16208">
        <ele>80.31</ele>
        <time>2017-09-17T14:20:09Z</time>
      </trkpt>
      <trkpt lat="48.54665" lon="2.16241">
        <ele>79.76</ele>
        <time>2017-09-17T14:20:28Z</time>
      </trkpt>
      <trkpt lat="48.54658" lon="2.16266">
        <ele>79.07</ele>
        <time>2017-09-17T14:20:41Z</time>
      </trkpt>
      <trkpt lat="48.54652" lon="2.16289">
        <ele>77.41</ele>
        <time>2017-09-17T14:20:55Z</time>
      </trkpt>
      <trkpt lat="48.54643" lon="2.16313">
        <ele>76.06</ele>
        <time>2017-09-17T14:21:09Z</time>
      </trkpt>
      <trkpt lat="48.54635" lon="2.16338">
        <ele>75.6</ele>
        <time>2017-09-17T14:21:24Z</time>
      </trkpt>
      <trkpt lat="48.54627" lon="2.16364">
        <ele>74.83</ele>
        <time>2017-09-17T14:21:39Z</time>
      </trkpt>
      <trkpt lat="48.5462" lon="2.16401">
        <ele>72.79</ele>
        <time>2017-09-17T14:22:00Z</time>
      </trkpt>
      <trkpt lat="48.54624" lon="2.16423">
        <ele>72.36</ele>
        <time>2017-09-17T14:22:15Z</time>
      </trkpt>
      <trkpt lat="48.54626" lon="2.16429">
        <ele>72.57</ele>
        <time>2017-09-17T14:22:20Z</time>
      </trkpt>
      <trkpt lat="48.54628" lon="2.16436">
        <ele>72.34</ele>
        <time>2017-09-17T14:22:25Z</time>
      </trkpt>
      <trkpt lat="48.5463" lon="2.1644">
        <ele>72.43</ele>
        <time>2017-09-17T14:22:28Z</time>
      </trkpt>
      <trkpt lat="48.54646" lon="2.16468">
        <ele>71.62</ele>
        <time>2017-09-17T14:22:48Z</time>
      </trkpt>
      <trkpt lat="48.54671" lon="2.16487">
        <ele>71.98</ele>
        <time>2017-09-17T14:23:10Z</time>
      </trkpt>
      <trkpt lat="48.54689" lon="2.165">
        <ele>71.26</ele>
        <time>2017-09-17T14:23:27Z</time>
      </trkpt>
      <trkpt lat="48.54697" lon="2.16506">
        <ele>70.99</ele>
        <time>2017-09-17T14:23:34Z</time>
      </trkpt>
      <trkpt lat="48.54718" lon="2.16523">
        <ele>71.4</ele>
        <time>2017-09-17T14:23:53Z</time>
      </trkpt>
      <trkpt lat="48.54737" lon="2.16538">
        <ele>71.04</ele>
        <time>2017-09-17T14:24:10Z</time>
      </trkpt>
      <trkpt lat="48.54756" lon="2.16552">
        <ele>70.58</ele>
        <time>2017-09-17T14:24:27Z</time>
      </trkpt>
      <trkpt lat="48.54778" lon="2.16565">
        <ele>71.09</ele>
        <time>2017-09-17T14:24:45Z</time>
      </trkpt>
      <trkpt lat="48.54798" lon="2.16579">
        <ele>70.92</ele>
        <time>2017-09-17T14:25:03Z</time>
      </trkpt>
      <trkpt lat="48.54808" lon="2.16586">
        <ele>70.33</ele>
        <time>2017-09-17T14:25:12Z</time>
      </trkpt>
      <trkpt lat="48.54828" lon="2.16597">
        <ele>70.73</ele>
        <time>2017-09-17T14:25:29Z</time>
      </trkpt>
      <trkpt lat="48.5485" lon="2.16615">
        <ele>70.71</ele>
        <time>2017-09-17T14:25:49Z</time>
      </trkpt>
      <trkpt lat="48.54868" lon="2.1663">
        <ele>70.06</ele>
        <time>2017-09-17T14:26:06Z</time>
      </trkpt>
      <trkpt lat="48.54884" lon="2.16645">
        <ele>69.64</ele>
        <time>2017-09-17T14:26:21Z</time>
      </trkpt>
      <trkpt lat="48.54901" lon="2.1666">
        <ele>69.77</ele>
        <time>2017-09-17T14:26:37Z</time>
      </trkpt>
      <trkpt lat="48.54922" lon="2.16677">
        <ele>68.98</ele>
        <time>2017-09-17T14:26:55Z</time>
      </trkpt>
      <trkpt lat="48.54939" lon="2.16688">
        <ele>69.01</ele>
        <time>2017-09-17T14:27:11Z</time>
      </trkpt>
      <trkpt lat="48.54952" lon="2.16698">
        <ele>68.13</ele>
        <time>2017-09-17T14:27:26Z</time>
      </trkpt>
      <trkpt lat="48.54954" lon="2.16699">
        <ele>67.8</ele>
        <time>2017-09-17T14:27:28Z</time>
      </trkpt>
      <trkpt lat="48.54961" lon="2.16705">
        <ele>67.17</ele>
        <time>2017-09-17T14:27:35Z</time>
      </trkpt>
      <trkpt lat="48.54983" lon="2.1672">
        <ele>66.86</ele>
        <time>2017-09-17T14:27:55Z</time>
      </trkpt>
      <trkpt lat="48.55004" lon="2.16734">
        <ele>65.36</ele>
        <time>2017-09-17T14:28:13Z</time>
      </trkpt>
      <trkpt lat="48.5503" lon="2.16754">
        <ele>64.47</ele>
        <time>2017-09-17T14:28:36Z</time>
      </trkpt>
      <trkpt lat="48.55051" lon="2.16768">
        <ele>63.25</ele>
        <time>2017-09-17T14:28:54Z</time>
      </trkpt>
      <trkpt lat="48.55071" lon="2.16781">
        <ele>61.72</ele>
        <time>2017-09-17T14:29:12Z</time>
      </trkpt>
      <trkpt lat="48.55089" lon="2.16795">
        <ele>61.25</ele>
        <time>2017-09-17T14:29:29Z</time>
      </trkpt>
      <trkpt lat="48.55107" lon="2.16812">
        <ele>60.53</ele>
        <time>2017-09-17T14:29:47Z</time>
      </trkpt>
      <trkpt lat="48.55125" lon="2.16828">
        <ele>59.65</ele>
        <time>2017-09-17T14:30:04Z</time>
      </trkpt>
      <trkpt lat="48.5514" lon="2.16846">
        <ele>59.21</ele>
        <time>2017-09-17T14:30:21Z</time>
      </trkpt>
      <trkpt lat="48.55154" lon="2.16862">
        <ele>58.83</ele>
        <time>2017-09-17T14:30:35Z</time>
      </trkpt>
      <trkpt lat="48.55172" lon="2.16882">
        <ele>58.05</ele>
        <time>2017-09-17T14:30:53Z</time>
      </trkpt>
      <trkpt lat="48.5519" lon="2.169">
        <ele>58.45</ele>
        <time>2017-09-17T14:31:11Z</time>
      </trkpt>
      <trkpt lat="48.55204" lon="2.16914">
        <ele>58.82</ele>
        <time>2017-09-17T14:31:25Z</time>
      </trkpt>
      <trkpt lat="48.5522" lon="2.16925">
        <ele>59.08</ele>
        <time>2017-09-17T14:31:40Z</time>
      </trkpt>
      <trkpt lat="48.55239" lon="2.16936">
        <ele>59.05</ele>
        <time>2017-09-17T14:31:56Z</time>
      </trkpt>
      <trkpt lat="48.55258" lon="2.16944">
        <ele>59.44</ele>
        <time>2017-09-17T14:32:13Z</time>
      </trkpt>
      <trkpt lat="48.55277" lon="2.16953">
        <ele>60.7</ele>
        <time>2017-09-17T14:32:29Z</time>
      </trkpt>
      <trkpt lat="48.55296" lon="2.16957">
        <ele>60.34</ele>
        <time>2017-09-17T14:32:45Z</time>
      </trkpt>
      <trkpt lat="48.55315" lon="2.16958">
        <ele>60.52</ele>
        <time>2017-09-17T14:33:00Z</time>
      </trkpt>
      <trkpt lat="48.55334" lon="2.16959">
        <ele>60.66</ele>
        <time>2017-09-17T14:33:16Z</time>
      </trkpt>
      <trkpt lat="48.55352" lon="2.16959">
        <ele>61.14</ele>
        <time>2017-09-17T14:33:31Z</time>
      </trkpt>
      <trkpt lat="48.55368" lon="2.1696">
        <ele>62.41</ele>
        <time>2017-09-17T14:33:45Z</time>
      </trkpt>
      <trkpt lat="48.55386" lon="2.16961">
        <ele>62.96</ele>
        <time>2017-09-17T14:34:00Z</time>
      </trkpt>
      <trkpt lat="48.55405" lon="2.16962">
        <ele>62.28</ele>
        <time>2017-09-17T14:34:16Z</time>
      </trkpt>
      <trkpt lat="48.55428" lon="2.16961">
        <ele>62.1</ele>
        <time>2017-09-17T14:34:35Z</time>
      </trkpt>
      <trkpt lat="48.55449" lon="2.16961">
        <ele>62.34</ele>
        <time>2017-09-17T14:34:53Z</time>
      </trkpt>
      <trkpt lat="48.55466" lon="2.16963">
        <ele>61.18</ele>
        <time>2017-09-17T14:35:08Z</time>
      </trkpt>
      <trkpt lat="48.55471" lon="2.16962">
        <ele>61.42</ele>
        <time>2017-09-17T14:35:12Z</time>
      </trkpt>
      <trkpt lat="48.55481" lon="2.16963">
        <ele>61.87</ele>
        <time>2017-09-17T14:35:21Z</time>
      </trkpt>
      <trkpt lat="48.55494" lon="2.16966">
        <ele>61.84</ele>
        <time>2017-09-17T14:35:38Z</time>
      </trkpt>
      <trkpt lat="48.55498" lon="2.16968">
        <ele>62.33</ele>
        <time>2017-09-17T14:36:06Z</time>
      </trkpt>
      <trkpt lat="48.55502" lon="2.16967">
        <ele>62.72</ele>
        <time>2017-09-17T14:36:20Z</time>
      </trkpt>
      <trkpt lat="48.55522" lon="2.16976">
        <ele>62.34</ele>
        <time>2017-09-17T14:36:38Z</time>
      </trkpt>
      <trkpt lat="48.55544" lon="2.16986">
        <ele>62.64</ele>
        <time>2017-09-17T14:36:56Z</time>
      </trkpt>
      <trkpt lat="48.55559" lon="2.16997">
        <ele>62.28</ele>
        <time>2017-09-17T14:37:09Z</time>
      </trkpt>
      <trkpt lat="48.55576" lon="2.17008">
        <ele>62.51</ele>
        <time>2017-09-17T14:37:24Z</time>
      </trkpt>
      <trkpt lat="48.55579" lon="2.17012">
        <ele>63.03</ele>
        <time>2017-09-17T14:37:40Z</time>
      </trkpt>
      <trkpt lat="48.5558" lon="2.17012">
        <ele>63.15</ele>
        <time>2017-09-17T14:37:43Z</time>
      </trkpt>
      <trkpt lat="48.55583" lon="2.17016">
        <ele>63.24</ele>
        <time>2017-09-17T14:37:47Z</time>
      </trkpt>
      <trkpt lat="48.55599" lon="2.17027">
        <ele>62.98</ele>
        <time>2017-09-17T14:38:01Z</time>
      </trkpt>
      <trkpt lat="48.55616" lon="2.17038">
        <ele>63.06</ele>
        <time>2017-09-17T14:38:17Z</time>
      </trkpt>
      <trkpt lat="48.55623" lon="2.17043">
        <ele>63.09</ele>
        <time>2017-09-17T14:38:23Z</time>
      </trkpt>
      <trkpt lat="48.55635" lon="2.17054">
        <ele>62.87</ele>
        <time>2017-09-17T14:38:35Z</time>
      </trkpt>
      <trkpt lat="48.55652" lon="2.17069">
        <ele>63.7</ele>
        <time>2017-09-17T14:38:50Z</time>
      </trkpt>
      <trkpt lat="48.55669" lon="2.1708">
        <ele>64.35</ele>
        <time>2017-09-17T14:39:05Z</time>
      </trkpt>
      <trkpt lat="48.55672" lon="2.17082">
        <ele>64.07</ele>
        <time>2017-09-17T14:39:15Z</time>
      </trkpt>
      <trkpt lat="48.55687" lon="2.17092">
        <ele>64.05</ele>
        <time>2017-09-17T14:39:29Z</time>
      </trkpt>
      <trkpt lat="48.55703" lon="2.17106">
        <ele>63.88</ele>
        <time>2017-09-17T14:39:43Z</time>
      </trkpt>
      <trkpt lat="48.55719" lon="2.17127">
        <ele>64.17</ele>
        <time>2017-09-17T14:40:00Z</time>
      </trkpt>
      <trkpt lat="48.55732" lon="2.17147">
        <ele>63.38</ele>
        <time>2017-09-17T14:40:15Z</time>
      </trkpt>
      <trkpt lat="48.55747" lon="2.17165">
        <ele>63.27</ele>
        <time>2017-09-17T14:40:30Z</time>
      </trkpt>
      <trkpt lat="48.55759" lon="2.17187">
        <ele>63.37</ele>
        <time>2017-09-17T14:40:45Z</time>
      </trkpt>
      <trkpt lat="48.55772" lon="2.17206">
        <ele>63.24</ele>
        <time>2017-09-17T14:40:59Z</time>
      </trkpt>
      <trkpt lat="48.55782" lon="2.17228">
        <ele>62.76</ele>
        <time>2017-09-17T14:41:13Z</time>
      </trkpt>
      <trkpt lat="48.55795" lon="2.17248">
        <ele>61.88</ele>
        <time>2017-09-17T14:41:27Z</time>
      </trkpt>
      <trkpt lat="48.5581" lon="2.17271">
        <ele>61.9</ele>
        <time>2017-09-17T14:41:44Z</time>
      </trkpt>
      <trkpt lat="48.55821" lon="2.17291">
        <ele>60.82</ele>
        <time>2017-09-17T14:41:59Z</time>
      </trkpt>
      <trkpt lat="48.55835" lon="2.17315">
        <ele>59.83</ele>
        <time>2017-09-17T14:42:16Z</time>
      </trkpt>
      <trkpt lat="48.55846" lon="2.17336">
        <ele>59.46</ele>
        <time>2017-09-17T14:42:31Z</time>
      </trkpt>
      <trkpt lat="48.55858" lon="2.17357">
        <ele>58.47</ele>
        <time>2017-09-17T14:42:47Z</time>
      </trkpt>
      <trkpt lat="48.55865" lon="2.1737">
        <ele>58.4</ele>
        <time>2017-09-17T14:42:56Z</time>
      </trkpt>
      <trkpt lat="48.55877" lon="2.17392">
        <ele>58.18</ele>
        <time>2017-09-17T14:43:11Z</time>
      </trkpt>
      <trkpt lat="48.55892" lon="2.17418">
        <ele>57.57</ele>
        <time>2017-09-17T14:43:30Z</time>
      </trkpt>
      <trkpt lat="48.55908" lon="2.17433">
        <ele>57.21</ele>
        <time>2017-09-17T14:43:45Z</time>
      </trkpt>
      <trkpt lat="48.55911" lon="2.17436">
        <ele>56.94</ele>
        <time>2017-09-17T14:43:48Z</time>
      </trkpt>
      <trkpt lat="48.55926" lon="2.17449">
        <ele>57.06</ele>
        <time>2017-09-17T14:44:03Z</time>
      </trkpt>
      <trkpt lat="48.55943" lon="2.17463">
        <ele>57.39</ele>
        <time>2017-09-17T14:44:20Z</time>
      </trkpt>
      <trkpt lat="48.55961" lon="2.17475">
        <ele>57.72</ele>
        <time>2017-09-17T14:44:37Z</time>
      </trkpt>
      <trkpt lat="48.55979" lon="2.17494">
        <ele>56.46</ele>
        <time>2017-09-17T14:44:54Z</time>
      </trkpt>
      <trkpt lat="48.55997" lon="2.17512">
        <ele>54.66</ele>
        <time>2017-09-17T14:45:11Z</time>
      </trkpt>
      <trkpt lat="48.56011" lon="2.17526">
        <ele>54.78</ele>
        <time>2017-09-17T14:45:26Z</time>
      </trkpt>
      <trkpt lat="48.56014" lon="2.17527">
        <ele>54.89</ele>
        <time>2017-09-17T14:45:31Z</time>
      </trkpt>
      <trkpt lat="48.56017" lon="2.1753">
        <ele>54.29</ele>
        <time>2017-09-17T14:45:52Z</time>
      </trkpt>
      <trkpt lat="48.56016" lon="2.17529">
        <ele>54.46</ele>
        <time>2017-09-17T14:46:21Z</time>
      </trkpt>
      <trkpt lat="48.56017" lon="2.17528">
        <ele>54.12</ele>
        <time>2017-09-17T14:46:49Z</time>
      </trkpt>
      <trkpt lat="48.56019" lon="2.1753">
        <ele>54.06</ele>
        <time>2017-09-17T14:47:03Z</time>
      </trkpt>
      <trkpt lat="48.56035" lon="2.17546">
        <ele>53.38</ele>
        <time>2017-09-17T14:47:20Z</time>
      </trkpt>
      <trkpt lat="48.5605" lon="2.17557">
        <ele>52.21</ele>
        <time>2017-09-17T14:47:37Z</time>
      </trkpt>
      <trkpt lat="48.56051" lon="2.17558">
        <ele>52.18</ele>
        <time>2017-09-17T14:47:39Z</time>
      </trkpt>
      <trkpt lat="48.56055" lon="2.17562">
        <ele>51.85</ele>
        <time>2017-09-17T14:47:43Z</time>
      </trkpt>
      <trkpt lat="48.56071" lon="2.17575">
        <ele>50.89</ele>
        <time>2017-09-17T14:47:59Z</time>
      </trkpt>
      <trkpt lat="48.56086" lon="2.17587">
        <ele>51.13</ele>
        <time>2017-09-17T14:48:14Z</time>
      </trkpt>
      <trkpt lat="48.56103" lon="2.17604">
        <ele>50.28</ele>
        <time>2017-09-17T14:48:34Z</time>
      </trkpt>
      <trkpt lat="48.56112" lon="2.17611">
        <ele>49.65</ele>
        <time>2017-09-17T14:48:43Z</time>
      </trkpt>
      <trkpt lat="48.56129" lon="2.17651">
        <ele>48.41</ele>
        <time>2017-09-17T14:49:05Z</time>
      </trkpt>
      <trkpt lat="48.56134" lon="2.17663">
        <ele>47.92</ele>
        <time>2017-09-17T14:49:15Z</time>
      </trkpt>
      <trkpt lat="48.56141" lon="2.17669">
        <ele>47.33</ele>
        <time>2017-09-17T14:49:22Z</time>
      </trkpt>
      <trkpt lat="48.56146" lon="2.1768">
        <ele>47</ele>
        <time>2017-09-17T14:49:31Z</time>
      </trkpt>
      <trkpt lat="48.56149" lon="2.17687">
        <ele>46.45</ele>
        <time>2017-09-17T14:49:36Z</time>
      </trkpt>
      <trkpt lat="48.56157" lon="2.17698">
        <ele>45.1</ele>
        <time>2017-09-17T14:49:50Z</time>
      </trkpt>
      <trkpt lat="48.56165" lon="2.17708">
        <ele>45.27</ele>
        <time>2017-09-17T14:50:07Z</time>
      </trkpt>
      <trkpt lat="48.56172" lon="2.17711">
        <ele>45.34</ele>
        <time>2017-09-17T14:50:23Z</time>
      </trkpt>
      <trkpt lat="48.56179" lon="2.17711">
        <ele>46.43</ele>
        <time>2017-09-17T14:50:32Z</time>
      </trkpt>
      <trkpt lat="48.56183" lon="2.17708">
        <ele>46.46</ele>
        <time>2017-09-17T14:50:37Z</time>
      </trkpt>
      <trkpt lat="48.56197" lon="2.17699">
        <ele>48</ele>
        <time>2017-09-17T14:50:51Z</time>
      </trkpt>
      <trkpt lat="48.56204" lon="2.17694">
        <ele>48.34</ele>
        <time>2017-09-17T14:51:06Z</time>
      </trkpt>
      <trkpt lat="48.56207" lon="2.17692">
        <ele>47.78</ele>
        <time>2017-09-17T14:51:12Z</time>
      </trkpt>
      <trkpt lat="48.56209" lon="2.1769">
        <ele>48.28</ele>
        <time>2017-09-17T14:51:14Z</time>
      </trkpt>
      <trkpt lat="48.56215" lon="2.17682">
        <ele>49.88</ele>
        <time>2017-09-17T14:51:23Z</time>
      </trkpt>
      <trkpt lat="48.56232" lon="2.17665">
        <ele>50.18</ele>
        <time>2017-09-17T14:51:41Z</time>
      </trkpt>
      <trkpt lat="48.56246" lon="2.17649">
        <ele>51.69</ele>
        <time>2017-09-17T14:51:57Z</time>
      </trkpt>
      <trkpt lat="48.56257" lon="2.17634">
        <ele>53.72</ele>
        <time>2017-09-17T14:52:11Z</time>
      </trkpt>
      <trkpt lat="48.56268" lon="2.17612">
        <ele>55.39</ele>
        <time>2017-09-17T14:52:29Z</time>
      </trkpt>
      <trkpt lat="48.56277" lon="2.17593">
        <ele>55.84</ele>
        <time>2017-09-17T14:52:43Z</time>
      </trkpt>
      <trkpt lat="48.56287" lon="2.17572">
        <ele>56.92</ele>
        <time>2017-09-17T14:52:59Z</time>
      </trkpt>
      <trkpt lat="48.56297" lon="2.1755">
        <ele>58.79</ele>
        <time>2017-09-17T14:53:16Z</time>
      </trkpt>
      <trkpt lat="48.56305" lon="2.17532">
        <ele>59.51</ele>
        <time>2017-09-17T14:53:29Z</time>
      </trkpt>
      <trkpt lat="48.56317" lon="2.17507">
        <ele>59.53</ele>
        <time>2017-09-17T14:53:47Z</time>
      </trkpt>
      <trkpt lat="48.56328" lon="2.17483">
        <ele>60</ele>
        <time>2017-09-17T14:54:03Z</time>
      </trkpt>
      <trkpt lat="48.56337" lon="2.17461">
        <ele>60.27</ele>
        <time>2017-09-17T14:54:17Z</time>
      </trkpt>
      <trkpt lat="48.56345" lon="2.17438">
        <ele>58.06</ele>
        <time>2017-09-17T14:54:33Z</time>
      </trkpt>
      <trkpt lat="48.5635" lon="2.17421">
        <ele>57.14</ele>
        <time>2017-09-17T14:54:44Z</time>
      </trkpt>
      <trkpt lat="48.56356" lon="2.17405">
        <ele>55.69</ele>
        <time>2017-09-17T14:54:56Z</time>
      </trkpt>
      <trkpt lat="48.5636" lon="2.17397">
        <ele>54.34</ele>
        <time>2017-09-17T14:55:01Z</time>
      </trkpt>
      <trkpt lat="48.56365" lon="2.17384">
        <ele>52.52</ele>
        <time>2017-09-17T14:55:09Z</time>
      </trkpt>
      <trkpt lat="48.56368" lon="2.17379">
        <ele>52.01</ele>
        <time>2017-09-17T14:55:13Z</time>
      </trkpt>
      <trkpt lat="48.56378" lon="2.17357">
        <ele>48.67</ele>
        <time>2017-09-17T14:55:28Z</time>
      </trkpt>
      <trkpt lat="48.56387" lon="2.17338">
        <ele>46.35</ele>
        <time>2017-09-17T14:55:44Z</time>
      </trkpt>
      <trkpt lat="48.56387" lon="2.17337">
        <ele>46.59</ele>
        <time>2017-09-17T14:55:45Z</time>
      </trkpt>
      <trkpt lat="48.56389" lon="2.17332">
        <ele>45.64</ele>
        <time>2017-09-17T14:55:48Z</time>
      </trkpt>
      <trkpt lat="48.56392" lon="2.17318">
        <ele>44.7</ele>
        <time>2017-09-17T14:55:56Z</time>
      </trkpt>
      <trkpt lat="48.56393" lon="2.17308">
        <ele>44.49</ele>
        <time>2017-09-17T14:56:01Z</time>
      </trkpt>
      <trkpt lat="48.56396" lon="2.17291">
        <ele>43.36</ele>
        <time>2017-09-17T14:56:14Z</time>
      </trkpt>
      <trkpt lat="48.56396" lon="2.1729">
        <ele>43.48</ele>
        <time>2017-09-17T14:56:18Z</time>
      </trkpt>
      <trkpt lat="48.56397" lon="2.1726">
        <ele>42.73</ele>
        <time>2017-09-17T14:56:36Z</time>
      </trkpt>
      <trkpt lat="48.56406" lon="2.17243">
        <ele>41.84</ele>
        <time>2017-09-17T14:56:52Z</time>
      </trkpt>
      <trkpt lat="48.5641" lon="2.17241">
        <ele>41.08</ele>
        <time>2017-09-17T14:57:01Z</time>
      </trkpt>
      <trkpt lat="48.56422" lon="2.17229">
        <ele>41.49</ele>
        <time>2017-09-17T14:57:15Z</time>
      </trkpt>
      <trkpt lat="48.56435" lon="2.17215">
        <ele>41.43</ele>
        <time>2017-09-17T14:57:30Z</time>
      </trkpt>
      <trkpt lat="48.56448" lon="2.17201">
        <ele>40.9</ele>
        <time>2017-09-17T14:57:45Z</time>
      </trkpt>
      <trkpt lat="48.56458" lon="2.17191">
        <ele>41.28</ele>
        <time>2017-09-17T14:57:56Z</time>
      </trkpt>
      <trkpt lat="48.56459" lon="2.17187">
        <ele>41.89</ele>
        <time>2017-09-17T14:57:59Z</time>
      </trkpt>
      <trkpt lat="48.56464" lon="2.17179">
        <ele>41.4</ele>
        <time>2017-09-17T14:58:05Z</time>
      </trkpt>
      <trkpt lat="48.5648" lon="2.1717">
        <ele>41.43</ele>
        <time>2017-09-17T14:58:21Z</time>
      </trkpt>
      <trkpt lat="48.5649" lon="2.17162">
        <ele>41.45</ele>
        <time>2017-09-17T14:58:37Z</time>
      </trkpt>
      <trkpt lat="48.56492" lon="2.17158">
        <ele>41.52</ele>
        <time>2017-09-17T14:58:42Z</time>
      </trkpt>
      <trkpt lat="48.56495" lon="2.17154">
        <ele>41.56</ele>
        <time>2017-09-17T14:58:45Z</time>
      </trkpt>
      <trkpt lat="48.56498" lon="2.17148">
        <ele>41.54</ele>
        <time>2017-09-17T14:58:58Z</time>
      </trkpt>
      <trkpt lat="48.56495" lon="2.1715">
        <ele>42.23</ele>
        <time>2017-09-17T14:59:19Z</time>
      </trkpt>
      <trkpt lat="48.5649" lon="2.17142">
        <ele>41.86</ele>
        <time>2017-09-17T14:59:39Z</time>
      </trkpt>
      <trkpt lat="48.56479" lon="2.17138">
        <ele>41.81</ele>
        <time>2017-09-17T15:00:02Z</time>
      </trkpt>
      <trkpt lat="48.56479" lon="2.17129">
        <ele>41.42</ele>
        <time>2017-09-17T15:00:25Z</time>
      </trkpt>
    </trkseg>
  </trk>
</gpx>